<?xml version="1.0" encoding="UTF-8" standalone="no" ?>
<gpx xmlns="http://www.topografix.com/GPX/1/1" xmlns:xsi="http://www.w3.org/2001/XMLSchema-instance" xsi:schemaLocation="http://www.topografix.com/GPX/1/1 http://www.topografix.com/GPX/1/1/gpx.xsd" version="1.1" creator="VisuGPX - https://www.visugpx.com">
  <metadata>
    <name>Le tour de l'Ile de France - étape 1/30: De Pontoise à Conflans-Saint-Honorine</name>
    <desc><![CDATA[Randonnée de 23 km en ligne à partir de la gare de Pontoise. Retour par la gare de Conflans.]]></desc>
  </metadata>
  <trk>
    <name><![CDATA[1 De Pontoise à Conflans_R]]></name>
    <trkseg>
      <trkpt lat="49.04736" lon="2.09578">
        <ele>25.13</ele>
        <time>2016-07-31T07:32:51Z</time>
      </trkpt>
      <trkpt lat="49.04736" lon="2.09578">
        <ele>25.13</ele>
        <time>2016-07-31T07:32:52Z</time>
      </trkpt>
      <trkpt lat="49.04736" lon="2.09578">
        <ele>26.57</ele>
        <time>2016-07-31T07:32:56Z</time>
      </trkpt>
      <trkpt lat="49.04736" lon="2.09579">
        <ele>26.57</ele>
        <time>2016-07-31T07:32:58Z</time>
      </trkpt>
      <trkpt lat="49.04738" lon="2.09585">
        <ele>26.57</ele>
        <time>2016-07-31T07:33:02Z</time>
      </trkpt>
      <trkpt lat="49.0474" lon="2.09588">
        <ele>26.09</ele>
        <time>2016-07-31T07:33:15Z</time>
      </trkpt>
      <trkpt lat="49.04739" lon="2.09587">
        <ele>26.09</ele>
        <time>2016-07-31T07:33:38Z</time>
      </trkpt>
      <trkpt lat="49.04737" lon="2.09587">
        <ele>26.57</ele>
        <time>2016-07-31T07:34:03Z</time>
      </trkpt>
      <trkpt lat="49.04737" lon="2.09585">
        <ele>26.57</ele>
        <time>2016-07-31T07:34:25Z</time>
      </trkpt>
      <trkpt lat="49.04737" lon="2.09583">
        <ele>26.57</ele>
        <time>2016-07-31T07:34:50Z</time>
      </trkpt>
      <trkpt lat="49.04738" lon="2.09584">
        <ele>26.09</ele>
        <time>2016-07-31T07:35:16Z</time>
      </trkpt>
      <trkpt lat="49.04737" lon="2.09585">
        <ele>26.09</ele>
        <time>2016-07-31T07:35:36Z</time>
      </trkpt>
      <trkpt lat="49.04744" lon="2.09589">
        <ele>26.09</ele>
        <time>2016-07-31T07:35:50Z</time>
      </trkpt>
      <trkpt lat="49.04747" lon="2.09591">
        <ele>26.09</ele>
        <time>2016-07-31T07:35:53Z</time>
      </trkpt>
      <trkpt lat="49.04751" lon="2.09594">
        <ele>26.09</ele>
        <time>2016-07-31T07:35:57Z</time>
      </trkpt>
      <trkpt lat="49.04761" lon="2.09595">
        <ele>26.09</ele>
        <time>2016-07-31T07:36:06Z</time>
      </trkpt>
      <trkpt lat="49.04765" lon="2.096">
        <ele>26.09</ele>
        <time>2016-07-31T07:36:10Z</time>
      </trkpt>
      <trkpt lat="49.0477" lon="2.09633">
        <ele>25.61</ele>
        <time>2016-07-31T07:36:27Z</time>
      </trkpt>
      <trkpt lat="49.04771" lon="2.09639">
        <ele>25.61</ele>
        <time>2016-07-31T07:36:30Z</time>
      </trkpt>
      <trkpt lat="49.04766" lon="2.09669">
        <ele>25.61</ele>
        <time>2016-07-31T07:36:49Z</time>
      </trkpt>
      <trkpt lat="49.04749" lon="2.09693">
        <ele>25.13</ele>
        <time>2016-07-31T07:37:06Z</time>
      </trkpt>
      <trkpt lat="49.04744" lon="2.09703">
        <ele>25.13</ele>
        <time>2016-07-31T07:37:13Z</time>
      </trkpt>
      <trkpt lat="49.04738" lon="2.09719">
        <ele>25.13</ele>
        <time>2016-07-31T07:37:26Z</time>
      </trkpt>
      <trkpt lat="49.04742" lon="2.09745">
        <ele>24.65</ele>
        <time>2016-07-31T07:37:41Z</time>
      </trkpt>
      <trkpt lat="49.04735" lon="2.09768">
        <ele>25.13</ele>
        <time>2016-07-31T07:37:57Z</time>
      </trkpt>
      <trkpt lat="49.04737" lon="2.09793">
        <ele>25.61</ele>
        <time>2016-07-31T07:38:13Z</time>
      </trkpt>
      <trkpt lat="49.04744" lon="2.09832">
        <ele>26.09</ele>
        <time>2016-07-31T07:38:33Z</time>
      </trkpt>
      <trkpt lat="49.04748" lon="2.09851">
        <ele>26.09</ele>
        <time>2016-07-31T07:38:49Z</time>
      </trkpt>
      <trkpt lat="49.04738" lon="2.09869">
        <ele>26.09</ele>
        <time>2016-07-31T07:39:04Z</time>
      </trkpt>
      <trkpt lat="49.04717" lon="2.0988">
        <ele>25.61</ele>
        <time>2016-07-31T07:39:14Z</time>
      </trkpt>
      <trkpt lat="49.04692" lon="2.09899">
        <ele>26.09</ele>
        <time>2016-07-31T07:39:28Z</time>
      </trkpt>
      <trkpt lat="49.04689" lon="2.09926">
        <ele>25.61</ele>
        <time>2016-07-31T07:39:40Z</time>
      </trkpt>
      <trkpt lat="49.0469" lon="2.0993">
        <ele>25.61</ele>
        <time>2016-07-31T07:39:42Z</time>
      </trkpt>
      <trkpt lat="49.04687" lon="2.09941">
        <ele>25.13</ele>
        <time>2016-07-31T07:39:56Z</time>
      </trkpt>
      <trkpt lat="49.04684" lon="2.09942">
        <ele>24.65</ele>
        <time>2016-07-31T07:40:12Z</time>
      </trkpt>
      <trkpt lat="49.04687" lon="2.09945">
        <ele>24.65</ele>
        <time>2016-07-31T07:40:31Z</time>
      </trkpt>
      <trkpt lat="49.04688" lon="2.09946">
        <ele>24.65</ele>
        <time>2016-07-31T07:40:49Z</time>
      </trkpt>
      <trkpt lat="49.04694" lon="2.09933">
        <ele>25.13</ele>
        <time>2016-07-31T07:41:01Z</time>
      </trkpt>
      <trkpt lat="49.0471" lon="2.09944">
        <ele>25.13</ele>
        <time>2016-07-31T07:41:16Z</time>
      </trkpt>
      <trkpt lat="49.04718" lon="2.09951">
        <ele>25.61</ele>
        <time>2016-07-31T07:41:29Z</time>
      </trkpt>
      <trkpt lat="49.04717" lon="2.09949">
        <ele>25.61</ele>
        <time>2016-07-31T07:41:49Z</time>
      </trkpt>
      <trkpt lat="49.04717" lon="2.09951">
        <ele>25.61</ele>
        <time>2016-07-31T07:42:13Z</time>
      </trkpt>
      <trkpt lat="49.0472" lon="2.09947">
        <ele>25.61</ele>
        <time>2016-07-31T07:42:30Z</time>
      </trkpt>
      <trkpt lat="49.04718" lon="2.0995">
        <ele>25.13</ele>
        <time>2016-07-31T07:42:50Z</time>
      </trkpt>
      <trkpt lat="49.04714" lon="2.0995">
        <ele>25.61</ele>
        <time>2016-07-31T07:43:04Z</time>
      </trkpt>
      <trkpt lat="49.04712" lon="2.09956">
        <ele>25.13</ele>
        <time>2016-07-31T07:43:11Z</time>
      </trkpt>
      <trkpt lat="49.04707" lon="2.09982">
        <ele>24.65</ele>
        <time>2016-07-31T07:43:27Z</time>
      </trkpt>
      <trkpt lat="49.04706" lon="2.0998">
        <ele>24.65</ele>
        <time>2016-07-31T07:43:46Z</time>
      </trkpt>
      <trkpt lat="49.04704" lon="2.0998">
        <ele>24.65</ele>
        <time>2016-07-31T07:43:53Z</time>
      </trkpt>
      <trkpt lat="49.04692" lon="2.0998">
        <ele>24.17</ele>
        <time>2016-07-31T07:44:06Z</time>
      </trkpt>
      <trkpt lat="49.04671" lon="2.09985">
        <ele>23.21</ele>
        <time>2016-07-31T07:44:23Z</time>
      </trkpt>
      <trkpt lat="49.04658" lon="2.09991">
        <ele>22.25</ele>
        <time>2016-07-31T07:44:36Z</time>
      </trkpt>
      <trkpt lat="49.0465" lon="2.09997">
        <ele>22.73</ele>
        <time>2016-07-31T07:44:42Z</time>
      </trkpt>
      <trkpt lat="49.04632" lon="2.10007">
        <ele>22.25</ele>
        <time>2016-07-31T07:44:59Z</time>
      </trkpt>
      <trkpt lat="49.04626" lon="2.10016">
        <ele>21.29</ele>
        <time>2016-07-31T07:45:07Z</time>
      </trkpt>
      <trkpt lat="49.04621" lon="2.1002">
        <ele>21.29</ele>
        <time>2016-07-31T07:45:20Z</time>
      </trkpt>
      <trkpt lat="49.0462" lon="2.10019">
        <ele>21.29</ele>
        <time>2016-07-31T07:45:21Z</time>
      </trkpt>
      <trkpt lat="49.04618" lon="2.1002">
        <ele>21.77</ele>
        <time>2016-07-31T07:45:35Z</time>
      </trkpt>
      <trkpt lat="49.04613" lon="2.10014">
        <ele>21.77</ele>
        <time>2016-07-31T07:45:53Z</time>
      </trkpt>
      <trkpt lat="49.04602" lon="2.10006">
        <ele>21.29</ele>
        <time>2016-07-31T07:46:07Z</time>
      </trkpt>
      <trkpt lat="49.04593" lon="2.09993">
        <ele>21.29</ele>
        <time>2016-07-31T07:46:21Z</time>
      </trkpt>
      <trkpt lat="49.04565" lon="2.0998">
        <ele>21.29</ele>
        <time>2016-07-31T07:46:39Z</time>
      </trkpt>
      <trkpt lat="49.04564" lon="2.09979">
        <ele>21.29</ele>
        <time>2016-07-31T07:46:40Z</time>
      </trkpt>
      <trkpt lat="49.0455" lon="2.09971">
        <ele>21.29</ele>
        <time>2016-07-31T07:46:53Z</time>
      </trkpt>
      <trkpt lat="49.04531" lon="2.09956">
        <ele>21.77</ele>
        <time>2016-07-31T07:47:10Z</time>
      </trkpt>
      <trkpt lat="49.04519" lon="2.09947">
        <ele>21.77</ele>
        <time>2016-07-31T07:47:21Z</time>
      </trkpt>
      <trkpt lat="49.04505" lon="2.0994">
        <ele>21.77</ele>
        <time>2016-07-31T07:47:38Z</time>
      </trkpt>
      <trkpt lat="49.04486" lon="2.09925">
        <ele>21.77</ele>
        <time>2016-07-31T07:47:55Z</time>
      </trkpt>
      <trkpt lat="49.04469" lon="2.09911">
        <ele>21.29</ele>
        <time>2016-07-31T07:48:12Z</time>
      </trkpt>
      <trkpt lat="49.04462" lon="2.09906">
        <ele>21.29</ele>
        <time>2016-07-31T07:48:19Z</time>
      </trkpt>
      <trkpt lat="49.04457" lon="2.09903">
        <ele>21.29</ele>
        <time>2016-07-31T07:48:23Z</time>
      </trkpt>
      <trkpt lat="49.0444" lon="2.09888">
        <ele>21.29</ele>
        <time>2016-07-31T07:48:42Z</time>
      </trkpt>
      <trkpt lat="49.04427" lon="2.09872">
        <ele>21.29</ele>
        <time>2016-07-31T07:48:59Z</time>
      </trkpt>
      <trkpt lat="49.04422" lon="2.09859">
        <ele>21.77</ele>
        <time>2016-07-31T07:49:09Z</time>
      </trkpt>
      <trkpt lat="49.04415" lon="2.09853">
        <ele>21.29</ele>
        <time>2016-07-31T07:49:18Z</time>
      </trkpt>
      <trkpt lat="49.04411" lon="2.09851">
        <ele>21.77</ele>
        <time>2016-07-31T07:49:22Z</time>
      </trkpt>
      <trkpt lat="49.0439" lon="2.09837">
        <ele>21.77</ele>
        <time>2016-07-31T07:49:42Z</time>
      </trkpt>
      <trkpt lat="49.04369" lon="2.09825">
        <ele>21.77</ele>
        <time>2016-07-31T07:50:00Z</time>
      </trkpt>
      <trkpt lat="49.04355" lon="2.09814">
        <ele>21.29</ele>
        <time>2016-07-31T07:50:16Z</time>
      </trkpt>
      <trkpt lat="49.04338" lon="2.09805">
        <ele>21.29</ele>
        <time>2016-07-31T07:50:32Z</time>
      </trkpt>
      <trkpt lat="49.04318" lon="2.098">
        <ele>21.29</ele>
        <time>2016-07-31T07:50:48Z</time>
      </trkpt>
      <trkpt lat="49.04305" lon="2.09794">
        <ele>21.29</ele>
        <time>2016-07-31T07:51:05Z</time>
      </trkpt>
      <trkpt lat="49.04295" lon="2.09788">
        <ele>21.29</ele>
        <time>2016-07-31T07:51:19Z</time>
      </trkpt>
      <trkpt lat="49.04276" lon="2.09775">
        <ele>21.29</ele>
        <time>2016-07-31T07:51:36Z</time>
      </trkpt>
      <trkpt lat="49.0426" lon="2.09767">
        <ele>21.29</ele>
        <time>2016-07-31T07:51:53Z</time>
      </trkpt>
      <trkpt lat="49.04244" lon="2.09762">
        <ele>20.81</ele>
        <time>2016-07-31T07:52:08Z</time>
      </trkpt>
      <trkpt lat="49.04226" lon="2.09749">
        <ele>20.81</ele>
        <time>2016-07-31T07:52:23Z</time>
      </trkpt>
      <trkpt lat="49.04207" lon="2.09738">
        <ele>20.81</ele>
        <time>2016-07-31T07:52:41Z</time>
      </trkpt>
      <trkpt lat="49.04191" lon="2.09731">
        <ele>20.81</ele>
        <time>2016-07-31T07:52:57Z</time>
      </trkpt>
      <trkpt lat="49.04176" lon="2.09725">
        <ele>20.81</ele>
        <time>2016-07-31T07:53:14Z</time>
      </trkpt>
      <trkpt lat="49.04168" lon="2.0972">
        <ele>20.32</ele>
        <time>2016-07-31T07:53:22Z</time>
      </trkpt>
      <trkpt lat="49.04149" lon="2.09713">
        <ele>20.81</ele>
        <time>2016-07-31T07:53:40Z</time>
      </trkpt>
      <trkpt lat="49.04131" lon="2.09696">
        <ele>20.81</ele>
        <time>2016-07-31T07:53:58Z</time>
      </trkpt>
      <trkpt lat="49.04129" lon="2.09695">
        <ele>20.32</ele>
        <time>2016-07-31T07:54:00Z</time>
      </trkpt>
      <trkpt lat="49.0411" lon="2.09686">
        <ele>20.81</ele>
        <time>2016-07-31T07:54:18Z</time>
      </trkpt>
      <trkpt lat="49.04105" lon="2.0968">
        <ele>20.81</ele>
        <time>2016-07-31T07:54:34Z</time>
      </trkpt>
      <trkpt lat="49.04095" lon="2.09682">
        <ele>20.81</ele>
        <time>2016-07-31T07:54:53Z</time>
      </trkpt>
      <trkpt lat="49.04088" lon="2.09678">
        <ele>20.81</ele>
        <time>2016-07-31T07:55:10Z</time>
      </trkpt>
      <trkpt lat="49.04088" lon="2.09681">
        <ele>20.81</ele>
        <time>2016-07-31T07:55:21Z</time>
      </trkpt>
      <trkpt lat="49.04092" lon="2.09684">
        <ele>20.81</ele>
        <time>2016-07-31T07:55:32Z</time>
      </trkpt>
      <trkpt lat="49.0409" lon="2.09678">
        <ele>20.81</ele>
        <time>2016-07-31T07:55:54Z</time>
      </trkpt>
      <trkpt lat="49.04072" lon="2.09668">
        <ele>20.81</ele>
        <time>2016-07-31T07:56:09Z</time>
      </trkpt>
      <trkpt lat="49.04056" lon="2.09662">
        <ele>20.32</ele>
        <time>2016-07-31T07:56:25Z</time>
      </trkpt>
      <trkpt lat="49.04047" lon="2.09658">
        <ele>20.32</ele>
        <time>2016-07-31T07:56:38Z</time>
      </trkpt>
      <trkpt lat="49.04043" lon="2.09655">
        <ele>20.32</ele>
        <time>2016-07-31T07:56:42Z</time>
      </trkpt>
      <trkpt lat="49.04036" lon="2.0965">
        <ele>20.81</ele>
        <time>2016-07-31T07:56:55Z</time>
      </trkpt>
      <trkpt lat="49.04032" lon="2.0965">
        <ele>20.32</ele>
        <time>2016-07-31T07:57:08Z</time>
      </trkpt>
      <trkpt lat="49.04026" lon="2.09648">
        <ele>20.32</ele>
        <time>2016-07-31T07:57:14Z</time>
      </trkpt>
      <trkpt lat="49.04013" lon="2.09645">
        <ele>20.32</ele>
        <time>2016-07-31T07:57:28Z</time>
      </trkpt>
      <trkpt lat="49.03997" lon="2.09636">
        <ele>20.32</ele>
        <time>2016-07-31T07:57:43Z</time>
      </trkpt>
      <trkpt lat="49.03977" lon="2.09631">
        <ele>19.84</ele>
        <time>2016-07-31T07:58:02Z</time>
      </trkpt>
      <trkpt lat="49.03957" lon="2.09631">
        <ele>18.88</ele>
        <time>2016-07-31T07:58:19Z</time>
      </trkpt>
      <trkpt lat="49.03954" lon="2.09629">
        <ele>18.88</ele>
        <time>2016-07-31T07:58:22Z</time>
      </trkpt>
      <trkpt lat="49.0394" lon="2.09625">
        <ele>18.88</ele>
        <time>2016-07-31T07:58:38Z</time>
      </trkpt>
      <trkpt lat="49.03919" lon="2.09624">
        <ele>18.4</ele>
        <time>2016-07-31T07:58:56Z</time>
      </trkpt>
      <trkpt lat="49.03899" lon="2.09623">
        <ele>18.4</ele>
        <time>2016-07-31T07:59:12Z</time>
      </trkpt>
      <trkpt lat="49.03884" lon="2.09618">
        <ele>18.4</ele>
        <time>2016-07-31T07:59:27Z</time>
      </trkpt>
      <trkpt lat="49.03867" lon="2.09615">
        <ele>19.36</ele>
        <time>2016-07-31T07:59:42Z</time>
      </trkpt>
      <trkpt lat="49.03846" lon="2.09612">
        <ele>19.36</ele>
        <time>2016-07-31T07:59:59Z</time>
      </trkpt>
      <trkpt lat="49.03845" lon="2.09612">
        <ele>18.88</ele>
        <time>2016-07-31T08:00:00Z</time>
      </trkpt>
      <trkpt lat="49.0383" lon="2.09611">
        <ele>18.88</ele>
        <time>2016-07-31T08:00:14Z</time>
      </trkpt>
      <trkpt lat="49.03809" lon="2.09608">
        <ele>18.88</ele>
        <time>2016-07-31T08:00:33Z</time>
      </trkpt>
      <trkpt lat="49.03807" lon="2.09608">
        <ele>18.88</ele>
        <time>2016-07-31T08:00:35Z</time>
      </trkpt>
      <trkpt lat="49.03786" lon="2.09602">
        <ele>18.88</ele>
        <time>2016-07-31T08:00:54Z</time>
      </trkpt>
      <trkpt lat="49.03775" lon="2.09601">
        <ele>18.88</ele>
        <time>2016-07-31T08:01:12Z</time>
      </trkpt>
      <trkpt lat="49.03761" lon="2.09594">
        <ele>18.88</ele>
        <time>2016-07-31T08:01:27Z</time>
      </trkpt>
      <trkpt lat="49.03747" lon="2.09588">
        <ele>18.88</ele>
        <time>2016-07-31T08:01:42Z</time>
      </trkpt>
      <trkpt lat="49.03726" lon="2.09581">
        <ele>18.88</ele>
        <time>2016-07-31T08:02:00Z</time>
      </trkpt>
      <trkpt lat="49.03713" lon="2.09574">
        <ele>19.36</ele>
        <time>2016-07-31T08:02:14Z</time>
      </trkpt>
      <trkpt lat="49.03695" lon="2.09563">
        <ele>19.84</ele>
        <time>2016-07-31T08:02:30Z</time>
      </trkpt>
      <trkpt lat="49.03676" lon="2.09546">
        <ele>20.32</ele>
        <time>2016-07-31T08:02:50Z</time>
      </trkpt>
      <trkpt lat="49.03659" lon="2.09534">
        <ele>21.29</ele>
        <time>2016-07-31T08:03:07Z</time>
      </trkpt>
      <trkpt lat="49.03652" lon="2.0953">
        <ele>21.29</ele>
        <time>2016-07-31T08:03:12Z</time>
      </trkpt>
      <trkpt lat="49.03644" lon="2.09517">
        <ele>21.77</ele>
        <time>2016-07-31T08:03:22Z</time>
      </trkpt>
      <trkpt lat="49.03641" lon="2.09515">
        <ele>21.77</ele>
        <time>2016-07-31T08:03:27Z</time>
      </trkpt>
      <trkpt lat="49.03624" lon="2.09504">
        <ele>21.77</ele>
        <time>2016-07-31T08:03:45Z</time>
      </trkpt>
      <trkpt lat="49.03601" lon="2.09487">
        <ele>22.25</ele>
        <time>2016-07-31T08:04:04Z</time>
      </trkpt>
      <trkpt lat="49.03584" lon="2.09475">
        <ele>22.73</ele>
        <time>2016-07-31T08:04:20Z</time>
      </trkpt>
      <trkpt lat="49.03575" lon="2.09475">
        <ele>22.73</ele>
        <time>2016-07-31T08:04:39Z</time>
      </trkpt>
      <trkpt lat="49.03575" lon="2.09475">
        <ele>23.21</ele>
        <time>2016-07-31T08:05:07Z</time>
      </trkpt>
      <trkpt lat="49.03572" lon="2.09467">
        <ele>23.21</ele>
        <time>2016-07-31T08:05:33Z</time>
      </trkpt>
      <trkpt lat="49.03545" lon="2.09445">
        <ele>23.21</ele>
        <time>2016-07-31T08:05:52Z</time>
      </trkpt>
      <trkpt lat="49.03528" lon="2.09435">
        <ele>23.21</ele>
        <time>2016-07-31T08:06:11Z</time>
      </trkpt>
      <trkpt lat="49.0351" lon="2.09423">
        <ele>23.21</ele>
        <time>2016-07-31T08:06:31Z</time>
      </trkpt>
      <trkpt lat="49.03491" lon="2.09406">
        <ele>23.21</ele>
        <time>2016-07-31T08:06:50Z</time>
      </trkpt>
      <trkpt lat="49.03482" lon="2.09398">
        <ele>22.73</ele>
        <time>2016-07-31T08:07:00Z</time>
      </trkpt>
      <trkpt lat="49.0348" lon="2.09386">
        <ele>23.21</ele>
        <time>2016-07-31T08:07:14Z</time>
      </trkpt>
      <trkpt lat="49.03475" lon="2.0936">
        <ele>22.73</ele>
        <time>2016-07-31T08:07:30Z</time>
      </trkpt>
      <trkpt lat="49.03473" lon="2.09343">
        <ele>22.25</ele>
        <time>2016-07-31T08:07:45Z</time>
      </trkpt>
      <trkpt lat="49.03476" lon="2.09337">
        <ele>23.69</ele>
        <time>2016-07-31T08:10:33Z</time>
      </trkpt>
      <trkpt lat="49.03476" lon="2.09337">
        <ele>23.69</ele>
        <time>2016-07-31T08:10:51Z</time>
      </trkpt>
      <trkpt lat="49.03482" lon="2.09329">
        <ele>23.69</ele>
        <time>2016-07-31T08:11:10Z</time>
      </trkpt>
      <trkpt lat="49.03486" lon="2.09316">
        <ele>23.69</ele>
        <time>2016-07-31T08:11:30Z</time>
      </trkpt>
      <trkpt lat="49.03468" lon="2.0935">
        <ele>23.21</ele>
        <time>2016-07-31T08:12:04Z</time>
      </trkpt>
      <trkpt lat="49.03461" lon="2.09374">
        <ele>24.17</ele>
        <time>2016-07-31T08:12:20Z</time>
      </trkpt>
      <trkpt lat="49.03459" lon="2.09394">
        <ele>23.69</ele>
        <time>2016-07-31T08:12:36Z</time>
      </trkpt>
      <trkpt lat="49.03457" lon="2.09414">
        <ele>23.69</ele>
        <time>2016-07-31T08:12:52Z</time>
      </trkpt>
      <trkpt lat="49.03455" lon="2.09422">
        <ele>23.69</ele>
        <time>2016-07-31T08:13:09Z</time>
      </trkpt>
      <trkpt lat="49.03456" lon="2.09423">
        <ele>23.69</ele>
        <time>2016-07-31T08:13:21Z</time>
      </trkpt>
      <trkpt lat="49.03453" lon="2.09416">
        <ele>23.69</ele>
        <time>2016-07-31T08:13:44Z</time>
      </trkpt>
      <trkpt lat="49.03458" lon="2.09383">
        <ele>22.73</ele>
        <time>2016-07-31T08:14:03Z</time>
      </trkpt>
      <trkpt lat="49.03439" lon="2.09375">
        <ele>23.21</ele>
        <time>2016-07-31T08:15:22Z</time>
      </trkpt>
      <trkpt lat="49.0344" lon="2.09376">
        <ele>23.21</ele>
        <time>2016-07-31T08:15:41Z</time>
      </trkpt>
      <trkpt lat="49.03429" lon="2.09371">
        <ele>22.73</ele>
        <time>2016-07-31T08:15:49Z</time>
      </trkpt>
      <trkpt lat="49.03412" lon="2.09358">
        <ele>22.73</ele>
        <time>2016-07-31T08:16:06Z</time>
      </trkpt>
      <trkpt lat="49.03399" lon="2.09353">
        <ele>22.73</ele>
        <time>2016-07-31T08:16:22Z</time>
      </trkpt>
      <trkpt lat="49.03383" lon="2.09345">
        <ele>22.73</ele>
        <time>2016-07-31T08:16:37Z</time>
      </trkpt>
      <trkpt lat="49.03376" lon="2.09339">
        <ele>22.73</ele>
        <time>2016-07-31T08:16:44Z</time>
      </trkpt>
      <trkpt lat="49.03356" lon="2.09334">
        <ele>22.73</ele>
        <time>2016-07-31T08:17:03Z</time>
      </trkpt>
      <trkpt lat="49.0334" lon="2.09335">
        <ele>22.73</ele>
        <time>2016-07-31T08:17:20Z</time>
      </trkpt>
      <trkpt lat="49.03322" lon="2.09332">
        <ele>22.73</ele>
        <time>2016-07-31T08:17:37Z</time>
      </trkpt>
      <trkpt lat="49.03306" lon="2.09327">
        <ele>22.73</ele>
        <time>2016-07-31T08:17:52Z</time>
      </trkpt>
      <trkpt lat="49.03286" lon="2.09326">
        <ele>22.73</ele>
        <time>2016-07-31T08:18:09Z</time>
      </trkpt>
      <trkpt lat="49.03266" lon="2.09324">
        <ele>23.69</ele>
        <time>2016-07-31T08:18:28Z</time>
      </trkpt>
      <trkpt lat="49.03249" lon="2.09318">
        <ele>25.13</ele>
        <time>2016-07-31T08:18:43Z</time>
      </trkpt>
      <trkpt lat="49.03244" lon="2.09317">
        <ele>26.09</ele>
        <time>2016-07-31T08:18:48Z</time>
      </trkpt>
      <trkpt lat="49.03227" lon="2.09311">
        <ele>26.57</ele>
        <time>2016-07-31T08:19:06Z</time>
      </trkpt>
      <trkpt lat="49.03214" lon="2.09305">
        <ele>26.57</ele>
        <time>2016-07-31T08:19:19Z</time>
      </trkpt>
      <trkpt lat="49.03194" lon="2.093">
        <ele>26.57</ele>
        <time>2016-07-31T08:19:37Z</time>
      </trkpt>
      <trkpt lat="49.03177" lon="2.09294">
        <ele>26.57</ele>
        <time>2016-07-31T08:19:54Z</time>
      </trkpt>
      <trkpt lat="49.03159" lon="2.09286">
        <ele>26.57</ele>
        <time>2016-07-31T08:20:11Z</time>
      </trkpt>
      <trkpt lat="49.0315" lon="2.09276">
        <ele>26.57</ele>
        <time>2016-07-31T08:20:20Z</time>
      </trkpt>
      <trkpt lat="49.03137" lon="2.09252">
        <ele>26.57</ele>
        <time>2016-07-31T08:20:38Z</time>
      </trkpt>
      <trkpt lat="49.03131" lon="2.09242">
        <ele>26.57</ele>
        <time>2016-07-31T08:20:47Z</time>
      </trkpt>
      <trkpt lat="49.03126" lon="2.0924">
        <ele>26.57</ele>
        <time>2016-07-31T08:20:52Z</time>
      </trkpt>
      <trkpt lat="49.03121" lon="2.09244">
        <ele>26.57</ele>
        <time>2016-07-31T08:20:57Z</time>
      </trkpt>
      <trkpt lat="49.03103" lon="2.09236">
        <ele>26.57</ele>
        <time>2016-07-31T08:21:14Z</time>
      </trkpt>
      <trkpt lat="49.0308" lon="2.0924">
        <ele>27.05</ele>
        <time>2016-07-31T08:21:34Z</time>
      </trkpt>
      <trkpt lat="49.03065" lon="2.09241">
        <ele>27.05</ele>
        <time>2016-07-31T08:21:49Z</time>
      </trkpt>
      <trkpt lat="49.03055" lon="2.09233">
        <ele>27.05</ele>
        <time>2016-07-31T08:22:03Z</time>
      </trkpt>
      <trkpt lat="49.03051" lon="2.09228">
        <ele>27.05</ele>
        <time>2016-07-31T08:22:10Z</time>
      </trkpt>
      <trkpt lat="49.03037" lon="2.09207">
        <ele>26.09</ele>
        <time>2016-07-31T08:22:26Z</time>
      </trkpt>
      <trkpt lat="49.03031" lon="2.09203">
        <ele>26.09</ele>
        <time>2016-07-31T08:22:32Z</time>
      </trkpt>
      <trkpt lat="49.03015" lon="2.09207">
        <ele>26.57</ele>
        <time>2016-07-31T08:22:48Z</time>
      </trkpt>
      <trkpt lat="49.02997" lon="2.09207">
        <ele>27.05</ele>
        <time>2016-07-31T08:23:05Z</time>
      </trkpt>
      <trkpt lat="49.02986" lon="2.09195">
        <ele>27.05</ele>
        <time>2016-07-31T08:23:17Z</time>
      </trkpt>
      <trkpt lat="49.02973" lon="2.09178">
        <ele>27.53</ele>
        <time>2016-07-31T08:23:35Z</time>
      </trkpt>
      <trkpt lat="49.02971" lon="2.09168">
        <ele>27.53</ele>
        <time>2016-07-31T08:23:44Z</time>
      </trkpt>
      <trkpt lat="49.02971" lon="2.09138">
        <ele>27.53</ele>
        <time>2016-07-31T08:24:01Z</time>
      </trkpt>
      <trkpt lat="49.02983" lon="2.09114">
        <ele>27.05</ele>
        <time>2016-07-31T08:24:17Z</time>
      </trkpt>
      <trkpt lat="49.02983" lon="2.09109">
        <ele>26.57</ele>
        <time>2016-07-31T08:24:20Z</time>
      </trkpt>
      <trkpt lat="49.02979" lon="2.09089">
        <ele>25.13</ele>
        <time>2016-07-31T08:24:30Z</time>
      </trkpt>
      <trkpt lat="49.02974" lon="2.09079">
        <ele>24.17</ele>
        <time>2016-07-31T08:24:36Z</time>
      </trkpt>
      <trkpt lat="49.02959" lon="2.09054">
        <ele>22.73</ele>
        <time>2016-07-31T08:24:56Z</time>
      </trkpt>
      <trkpt lat="49.02949" lon="2.09038">
        <ele>23.69</ele>
        <time>2016-07-31T08:25:10Z</time>
      </trkpt>
      <trkpt lat="49.0294" lon="2.09022">
        <ele>24.65</ele>
        <time>2016-07-31T08:25:23Z</time>
      </trkpt>
      <trkpt lat="49.02929" lon="2.08997">
        <ele>25.61</ele>
        <time>2016-07-31T08:25:41Z</time>
      </trkpt>
      <trkpt lat="49.02917" lon="2.08979">
        <ele>24.65</ele>
        <time>2016-07-31T08:25:56Z</time>
      </trkpt>
      <trkpt lat="49.02916" lon="2.08977">
        <ele>25.13</ele>
        <time>2016-07-31T08:25:57Z</time>
      </trkpt>
      <trkpt lat="49.02897" lon="2.08961">
        <ele>25.61</ele>
        <time>2016-07-31T08:26:16Z</time>
      </trkpt>
      <trkpt lat="49.02886" lon="2.08952">
        <ele>25.13</ele>
        <time>2016-07-31T08:26:29Z</time>
      </trkpt>
      <trkpt lat="49.02867" lon="2.0894">
        <ele>25.61</ele>
        <time>2016-07-31T08:26:50Z</time>
      </trkpt>
      <trkpt lat="49.02864" lon="2.08941">
        <ele>25.61</ele>
        <time>2016-07-31T08:27:12Z</time>
      </trkpt>
      <trkpt lat="49.02863" lon="2.0894">
        <ele>25.13</ele>
        <time>2016-07-31T08:27:24Z</time>
      </trkpt>
      <trkpt lat="49.02865" lon="2.08942">
        <ele>24.65</ele>
        <time>2016-07-31T08:27:44Z</time>
      </trkpt>
      <trkpt lat="49.02863" lon="2.08939">
        <ele>25.13</ele>
        <time>2016-07-31T08:28:01Z</time>
      </trkpt>
      <trkpt lat="49.02862" lon="2.08937">
        <ele>24.65</ele>
        <time>2016-07-31T08:28:17Z</time>
      </trkpt>
      <trkpt lat="49.0286" lon="2.08938">
        <ele>24.65</ele>
        <time>2016-07-31T08:28:41Z</time>
      </trkpt>
      <trkpt lat="49.02863" lon="2.08943">
        <ele>24.65</ele>
        <time>2016-07-31T08:28:56Z</time>
      </trkpt>
      <trkpt lat="49.02859" lon="2.08939">
        <ele>24.65</ele>
        <time>2016-07-31T08:29:13Z</time>
      </trkpt>
      <trkpt lat="49.02861" lon="2.08936">
        <ele>24.65</ele>
        <time>2016-07-31T08:29:34Z</time>
      </trkpt>
      <trkpt lat="49.0286" lon="2.0894">
        <ele>24.65</ele>
        <time>2016-07-31T08:29:50Z</time>
      </trkpt>
      <trkpt lat="49.02861" lon="2.0894">
        <ele>24.65</ele>
        <time>2016-07-31T08:30:13Z</time>
      </trkpt>
      <trkpt lat="49.02858" lon="2.08937">
        <ele>24.17</ele>
        <time>2016-07-31T08:30:20Z</time>
      </trkpt>
      <trkpt lat="49.02848" lon="2.08926">
        <ele>24.65</ele>
        <time>2016-07-31T08:30:35Z</time>
      </trkpt>
      <trkpt lat="49.02835" lon="2.08917">
        <ele>24.17</ele>
        <time>2016-07-31T08:30:48Z</time>
      </trkpt>
      <trkpt lat="49.0283" lon="2.08912">
        <ele>24.17</ele>
        <time>2016-07-31T08:30:54Z</time>
      </trkpt>
      <trkpt lat="49.02814" lon="2.08896">
        <ele>24.17</ele>
        <time>2016-07-31T08:31:11Z</time>
      </trkpt>
      <trkpt lat="49.028" lon="2.08882">
        <ele>24.17</ele>
        <time>2016-07-31T08:31:26Z</time>
      </trkpt>
      <trkpt lat="49.02787" lon="2.08872">
        <ele>24.17</ele>
        <time>2016-07-31T08:31:39Z</time>
      </trkpt>
      <trkpt lat="49.02771" lon="2.08858">
        <ele>24.17</ele>
        <time>2016-07-31T08:31:54Z</time>
      </trkpt>
      <trkpt lat="49.02753" lon="2.08838">
        <ele>23.69</ele>
        <time>2016-07-31T08:32:12Z</time>
      </trkpt>
      <trkpt lat="49.02741" lon="2.08824">
        <ele>23.69</ele>
        <time>2016-07-31T08:32:26Z</time>
      </trkpt>
      <trkpt lat="49.02728" lon="2.08811">
        <ele>24.17</ele>
        <time>2016-07-31T08:32:40Z</time>
      </trkpt>
      <trkpt lat="49.02713" lon="2.08792">
        <ele>24.17</ele>
        <time>2016-07-31T08:32:57Z</time>
      </trkpt>
      <trkpt lat="49.02699" lon="2.08774">
        <ele>24.17</ele>
        <time>2016-07-31T08:33:15Z</time>
      </trkpt>
      <trkpt lat="49.02685" lon="2.08756">
        <ele>24.65</ele>
        <time>2016-07-31T08:33:31Z</time>
      </trkpt>
      <trkpt lat="49.02668" lon="2.08734">
        <ele>24.65</ele>
        <time>2016-07-31T08:33:49Z</time>
      </trkpt>
      <trkpt lat="49.02652" lon="2.08714">
        <ele>24.65</ele>
        <time>2016-07-31T08:34:07Z</time>
      </trkpt>
      <trkpt lat="49.02636" lon="2.08692">
        <ele>24.65</ele>
        <time>2016-07-31T08:34:26Z</time>
      </trkpt>
      <trkpt lat="49.0262" lon="2.08669">
        <ele>24.65</ele>
        <time>2016-07-31T08:34:44Z</time>
      </trkpt>
      <trkpt lat="49.02606" lon="2.08652">
        <ele>24.65</ele>
        <time>2016-07-31T08:34:59Z</time>
      </trkpt>
      <trkpt lat="49.02592" lon="2.08635">
        <ele>24.17</ele>
        <time>2016-07-31T08:35:15Z</time>
      </trkpt>
      <trkpt lat="49.02575" lon="2.08613">
        <ele>24.17</ele>
        <time>2016-07-31T08:35:33Z</time>
      </trkpt>
      <trkpt lat="49.02561" lon="2.08595">
        <ele>24.17</ele>
        <time>2016-07-31T08:35:48Z</time>
      </trkpt>
      <trkpt lat="49.02549" lon="2.08578">
        <ele>24.17</ele>
        <time>2016-07-31T08:36:03Z</time>
      </trkpt>
      <trkpt lat="49.02537" lon="2.08562">
        <ele>24.17</ele>
        <time>2016-07-31T08:36:18Z</time>
      </trkpt>
      <trkpt lat="49.02522" lon="2.08544">
        <ele>24.17</ele>
        <time>2016-07-31T08:36:35Z</time>
      </trkpt>
      <trkpt lat="49.02512" lon="2.08531">
        <ele>24.65</ele>
        <time>2016-07-31T08:36:47Z</time>
      </trkpt>
      <trkpt lat="49.02504" lon="2.08503">
        <ele>24.17</ele>
        <time>2016-07-31T08:37:05Z</time>
      </trkpt>
      <trkpt lat="49.02505" lon="2.08494">
        <ele>24.17</ele>
        <time>2016-07-31T08:37:21Z</time>
      </trkpt>
      <trkpt lat="49.02505" lon="2.0847">
        <ele>25.13</ele>
        <time>2016-07-31T08:37:36Z</time>
      </trkpt>
      <trkpt lat="49.02505" lon="2.08465">
        <ele>25.61</ele>
        <time>2016-07-31T08:37:39Z</time>
      </trkpt>
      <trkpt lat="49.02505" lon="2.0846">
        <ele>25.61</ele>
        <time>2016-07-31T08:37:42Z</time>
      </trkpt>
      <trkpt lat="49.02499" lon="2.08451">
        <ele>25.61</ele>
        <time>2016-07-31T08:37:56Z</time>
      </trkpt>
      <trkpt lat="49.02491" lon="2.08432">
        <ele>26.09</ele>
        <time>2016-07-31T08:38:11Z</time>
      </trkpt>
      <trkpt lat="49.02474" lon="2.08404">
        <ele>25.13</ele>
        <time>2016-07-31T08:38:32Z</time>
      </trkpt>
      <trkpt lat="49.02464" lon="2.0839">
        <ele>24.65</ele>
        <time>2016-07-31T08:38:46Z</time>
      </trkpt>
      <trkpt lat="49.02467" lon="2.08367">
        <ele>24.17</ele>
        <time>2016-07-31T08:39:02Z</time>
      </trkpt>
      <trkpt lat="49.02471" lon="2.08356">
        <ele>23.21</ele>
        <time>2016-07-31T08:39:09Z</time>
      </trkpt>
      <trkpt lat="49.0247" lon="2.08326">
        <ele>23.21</ele>
        <time>2016-07-31T08:39:27Z</time>
      </trkpt>
      <trkpt lat="49.02464" lon="2.08315">
        <ele>23.21</ele>
        <time>2016-07-31T08:39:41Z</time>
      </trkpt>
      <trkpt lat="49.02454" lon="2.08308">
        <ele>22.73</ele>
        <time>2016-07-31T08:39:56Z</time>
      </trkpt>
      <trkpt lat="49.02443" lon="2.08298">
        <ele>22.25</ele>
        <time>2016-07-31T08:40:12Z</time>
      </trkpt>
      <trkpt lat="49.02431" lon="2.08283">
        <ele>22.73</ele>
        <time>2016-07-31T08:40:27Z</time>
      </trkpt>
      <trkpt lat="49.02418" lon="2.08265">
        <ele>23.21</ele>
        <time>2016-07-31T08:40:43Z</time>
      </trkpt>
      <trkpt lat="49.02408" lon="2.08245">
        <ele>22.73</ele>
        <time>2016-07-31T08:40:58Z</time>
      </trkpt>
      <trkpt lat="49.02398" lon="2.08219">
        <ele>23.69</ele>
        <time>2016-07-31T08:41:15Z</time>
      </trkpt>
      <trkpt lat="49.02408" lon="2.08207">
        <ele>23.69</ele>
        <time>2016-07-31T08:41:28Z</time>
      </trkpt>
      <trkpt lat="49.02414" lon="2.08203">
        <ele>23.21</ele>
        <time>2016-07-31T08:41:34Z</time>
      </trkpt>
      <trkpt lat="49.02432" lon="2.08186">
        <ele>22.73</ele>
        <time>2016-07-31T08:41:53Z</time>
      </trkpt>
      <trkpt lat="49.0244" lon="2.08163">
        <ele>22.73</ele>
        <time>2016-07-31T08:42:08Z</time>
      </trkpt>
      <trkpt lat="49.02446" lon="2.08151">
        <ele>22.25</ele>
        <time>2016-07-31T08:42:23Z</time>
      </trkpt>
      <trkpt lat="49.02452" lon="2.0814">
        <ele>22.73</ele>
        <time>2016-07-31T08:42:35Z</time>
      </trkpt>
      <trkpt lat="49.02455" lon="2.08128">
        <ele>22.73</ele>
        <time>2016-07-31T08:42:54Z</time>
      </trkpt>
      <trkpt lat="49.02452" lon="2.08104">
        <ele>22.25</ele>
        <time>2016-07-31T08:43:08Z</time>
      </trkpt>
      <trkpt lat="49.02445" lon="2.08083">
        <ele>22.25</ele>
        <time>2016-07-31T08:43:23Z</time>
      </trkpt>
      <trkpt lat="49.02439" lon="2.08076">
        <ele>23.21</ele>
        <time>2016-07-31T08:43:36Z</time>
      </trkpt>
      <trkpt lat="49.02431" lon="2.08066">
        <ele>25.61</ele>
        <time>2016-07-31T08:43:50Z</time>
      </trkpt>
      <trkpt lat="49.02424" lon="2.08053">
        <ele>28.02</ele>
        <time>2016-07-31T08:44:06Z</time>
      </trkpt>
      <trkpt lat="49.02424" lon="2.08051">
        <ele>28.02</ele>
        <time>2016-07-31T08:44:09Z</time>
      </trkpt>
      <trkpt lat="49.0243" lon="2.08035">
        <ele>30.9</ele>
        <time>2016-07-31T08:44:23Z</time>
      </trkpt>
      <trkpt lat="49.02432" lon="2.08024">
        <ele>31.86</ele>
        <time>2016-07-31T08:44:31Z</time>
      </trkpt>
      <trkpt lat="49.02431" lon="2.08023">
        <ele>31.86</ele>
        <time>2016-07-31T08:44:45Z</time>
      </trkpt>
      <trkpt lat="49.02429" lon="2.08028">
        <ele>31.38</ele>
        <time>2016-07-31T08:44:58Z</time>
      </trkpt>
      <trkpt lat="49.02427" lon="2.08039">
        <ele>29.46</ele>
        <time>2016-07-31T08:45:07Z</time>
      </trkpt>
      <trkpt lat="49.02419" lon="2.08051">
        <ele>28.02</ele>
        <time>2016-07-31T08:45:21Z</time>
      </trkpt>
      <trkpt lat="49.02416" lon="2.08052">
        <ele>28.5</ele>
        <time>2016-07-31T08:45:36Z</time>
      </trkpt>
      <trkpt lat="49.02405" lon="2.08043">
        <ele>27.05</ele>
        <time>2016-07-31T08:45:54Z</time>
      </trkpt>
      <trkpt lat="49.02392" lon="2.08038">
        <ele>25.13</ele>
        <time>2016-07-31T08:46:14Z</time>
      </trkpt>
      <trkpt lat="49.0239" lon="2.08026">
        <ele>25.13</ele>
        <time>2016-07-31T08:46:28Z</time>
      </trkpt>
      <trkpt lat="49.02389" lon="2.08001">
        <ele>25.13</ele>
        <time>2016-07-31T08:46:48Z</time>
      </trkpt>
      <trkpt lat="49.02388" lon="2.0799">
        <ele>25.13</ele>
        <time>2016-07-31T08:47:07Z</time>
      </trkpt>
      <trkpt lat="49.02387" lon="2.07967">
        <ele>25.13</ele>
        <time>2016-07-31T08:47:22Z</time>
      </trkpt>
      <trkpt lat="49.02387" lon="2.07944">
        <ele>24.65</ele>
        <time>2016-07-31T08:47:37Z</time>
      </trkpt>
      <trkpt lat="49.02384" lon="2.07925">
        <ele>24.65</ele>
        <time>2016-07-31T08:47:51Z</time>
      </trkpt>
      <trkpt lat="49.02384" lon="2.07915">
        <ele>24.65</ele>
        <time>2016-07-31T08:47:58Z</time>
      </trkpt>
      <trkpt lat="49.02388" lon="2.07854">
        <ele>24.65</ele>
        <time>2016-07-31T08:49:51Z</time>
      </trkpt>
      <trkpt lat="49.02402" lon="2.07824">
        <ele>24.17</ele>
        <time>2016-07-31T08:51:47Z</time>
      </trkpt>
      <trkpt lat="49.02403" lon="2.07796">
        <ele>24.65</ele>
        <time>2016-07-31T08:52:02Z</time>
      </trkpt>
      <trkpt lat="49.02398" lon="2.07781">
        <ele>24.65</ele>
        <time>2016-07-31T08:52:12Z</time>
      </trkpt>
      <trkpt lat="49.02392" lon="2.07761">
        <ele>24.65</ele>
        <time>2016-07-31T08:52:27Z</time>
      </trkpt>
      <trkpt lat="49.02388" lon="2.07724">
        <ele>24.17</ele>
        <time>2016-07-31T08:52:47Z</time>
      </trkpt>
      <trkpt lat="49.02383" lon="2.07698">
        <ele>23.69</ele>
        <time>2016-07-31T08:53:04Z</time>
      </trkpt>
      <trkpt lat="49.02385" lon="2.07684">
        <ele>23.69</ele>
        <time>2016-07-31T08:53:18Z</time>
      </trkpt>
      <trkpt lat="49.02384" lon="2.07667">
        <ele>23.69</ele>
        <time>2016-07-31T08:53:27Z</time>
      </trkpt>
      <trkpt lat="49.02387" lon="2.07641">
        <ele>23.69</ele>
        <time>2016-07-31T08:53:41Z</time>
      </trkpt>
      <trkpt lat="49.02394" lon="2.07615">
        <ele>23.21</ele>
        <time>2016-07-31T08:53:58Z</time>
      </trkpt>
      <trkpt lat="49.02399" lon="2.07589">
        <ele>23.21</ele>
        <time>2016-07-31T08:54:13Z</time>
      </trkpt>
      <trkpt lat="49.02406" lon="2.07562">
        <ele>23.21</ele>
        <time>2016-07-31T08:54:30Z</time>
      </trkpt>
      <trkpt lat="49.02418" lon="2.0754">
        <ele>23.21</ele>
        <time>2016-07-31T08:54:47Z</time>
      </trkpt>
      <trkpt lat="49.02428" lon="2.07526">
        <ele>23.69</ele>
        <time>2016-07-31T08:55:05Z</time>
      </trkpt>
      <trkpt lat="49.02446" lon="2.0751">
        <ele>23.69</ele>
        <time>2016-07-31T08:55:19Z</time>
      </trkpt>
      <trkpt lat="49.02467" lon="2.07491">
        <ele>23.69</ele>
        <time>2016-07-31T08:55:39Z</time>
      </trkpt>
      <trkpt lat="49.02484" lon="2.07469">
        <ele>23.69</ele>
        <time>2016-07-31T08:55:57Z</time>
      </trkpt>
      <trkpt lat="49.02486" lon="2.07444">
        <ele>23.69</ele>
        <time>2016-07-31T08:56:15Z</time>
      </trkpt>
      <trkpt lat="49.02492" lon="2.07417">
        <ele>23.21</ele>
        <time>2016-07-31T08:56:34Z</time>
      </trkpt>
      <trkpt lat="49.025" lon="2.07381">
        <ele>22.73</ele>
        <time>2016-07-31T08:56:53Z</time>
      </trkpt>
      <trkpt lat="49.02508" lon="2.07354">
        <ele>22.73</ele>
        <time>2016-07-31T08:57:10Z</time>
      </trkpt>
      <trkpt lat="49.02521" lon="2.07329">
        <ele>22.73</ele>
        <time>2016-07-31T08:57:28Z</time>
      </trkpt>
      <trkpt lat="49.02534" lon="2.07313">
        <ele>23.21</ele>
        <time>2016-07-31T08:57:44Z</time>
      </trkpt>
      <trkpt lat="49.02545" lon="2.073">
        <ele>23.21</ele>
        <time>2016-07-31T08:58:00Z</time>
      </trkpt>
      <trkpt lat="49.02559" lon="2.07279">
        <ele>23.21</ele>
        <time>2016-07-31T08:58:18Z</time>
      </trkpt>
      <trkpt lat="49.02574" lon="2.0726">
        <ele>22.73</ele>
        <time>2016-07-31T08:58:36Z</time>
      </trkpt>
      <trkpt lat="49.02593" lon="2.07243">
        <ele>22.73</ele>
        <time>2016-07-31T08:58:56Z</time>
      </trkpt>
      <trkpt lat="49.02609" lon="2.07222">
        <ele>22.73</ele>
        <time>2016-07-31T08:59:14Z</time>
      </trkpt>
      <trkpt lat="49.02624" lon="2.07211">
        <ele>22.73</ele>
        <time>2016-07-31T08:59:32Z</time>
      </trkpt>
      <trkpt lat="49.02642" lon="2.07196">
        <ele>22.73</ele>
        <time>2016-07-31T08:59:50Z</time>
      </trkpt>
      <trkpt lat="49.02662" lon="2.07176">
        <ele>22.73</ele>
        <time>2016-07-31T09:00:10Z</time>
      </trkpt>
      <trkpt lat="49.02678" lon="2.07159">
        <ele>22.73</ele>
        <time>2016-07-31T09:00:29Z</time>
      </trkpt>
      <trkpt lat="49.02693" lon="2.07148">
        <ele>22.73</ele>
        <time>2016-07-31T09:00:44Z</time>
      </trkpt>
      <trkpt lat="49.02708" lon="2.07134">
        <ele>22.73</ele>
        <time>2016-07-31T09:01:00Z</time>
      </trkpt>
      <trkpt lat="49.02728" lon="2.07116">
        <ele>22.73</ele>
        <time>2016-07-31T09:01:19Z</time>
      </trkpt>
      <trkpt lat="49.0274" lon="2.07101">
        <ele>23.21</ele>
        <time>2016-07-31T09:01:35Z</time>
      </trkpt>
      <trkpt lat="49.0275" lon="2.07092">
        <ele>23.69</ele>
        <time>2016-07-31T09:01:45Z</time>
      </trkpt>
      <trkpt lat="49.0276" lon="2.0707">
        <ele>24.17</ele>
        <time>2016-07-31T09:02:00Z</time>
      </trkpt>
      <trkpt lat="49.02771" lon="2.07052">
        <ele>24.17</ele>
        <time>2016-07-31T09:02:16Z</time>
      </trkpt>
      <trkpt lat="49.02778" lon="2.07039">
        <ele>24.17</ele>
        <time>2016-07-31T09:02:28Z</time>
      </trkpt>
      <trkpt lat="49.02788" lon="2.0702">
        <ele>24.17</ele>
        <time>2016-07-31T09:02:44Z</time>
      </trkpt>
      <trkpt lat="49.02801" lon="2.07">
        <ele>24.17</ele>
        <time>2016-07-31T09:03:00Z</time>
      </trkpt>
      <trkpt lat="49.02814" lon="2.0698">
        <ele>23.69</ele>
        <time>2016-07-31T09:03:17Z</time>
      </trkpt>
      <trkpt lat="49.02825" lon="2.06961">
        <ele>24.17</ele>
        <time>2016-07-31T09:03:32Z</time>
      </trkpt>
      <trkpt lat="49.02836" lon="2.06942">
        <ele>23.69</ele>
        <time>2016-07-31T09:03:47Z</time>
      </trkpt>
      <trkpt lat="49.02841" lon="2.06937">
        <ele>24.17</ele>
        <time>2016-07-31T09:04:00Z</time>
      </trkpt>
      <trkpt lat="49.02853" lon="2.06915">
        <ele>23.69</ele>
        <time>2016-07-31T09:04:15Z</time>
      </trkpt>
      <trkpt lat="49.02862" lon="2.06907">
        <ele>23.69</ele>
        <time>2016-07-31T09:04:31Z</time>
      </trkpt>
      <trkpt lat="49.02864" lon="2.06898">
        <ele>23.21</ele>
        <time>2016-07-31T09:04:37Z</time>
      </trkpt>
      <trkpt lat="49.02869" lon="2.06892">
        <ele>23.21</ele>
        <time>2016-07-31T09:04:42Z</time>
      </trkpt>
      <trkpt lat="49.02874" lon="2.06878">
        <ele>23.69</ele>
        <time>2016-07-31T09:04:55Z</time>
      </trkpt>
      <trkpt lat="49.02883" lon="2.06863">
        <ele>23.21</ele>
        <time>2016-07-31T09:05:10Z</time>
      </trkpt>
      <trkpt lat="49.02896" lon="2.06844">
        <ele>23.21</ele>
        <time>2016-07-31T09:05:27Z</time>
      </trkpt>
      <trkpt lat="49.02899" lon="2.0684">
        <ele>23.69</ele>
        <time>2016-07-31T09:05:32Z</time>
      </trkpt>
      <trkpt lat="49.02901" lon="2.06836">
        <ele>23.21</ele>
        <time>2016-07-31T09:05:48Z</time>
      </trkpt>
      <trkpt lat="49.02897" lon="2.06832">
        <ele>23.69</ele>
        <time>2016-07-31T09:06:00Z</time>
      </trkpt>
      <trkpt lat="49.02893" lon="2.06824">
        <ele>23.21</ele>
        <time>2016-07-31T09:06:14Z</time>
      </trkpt>
      <trkpt lat="49.02882" lon="2.0681">
        <ele>22.73</ele>
        <time>2016-07-31T09:06:30Z</time>
      </trkpt>
      <trkpt lat="49.0287" lon="2.06794">
        <ele>22.25</ele>
        <time>2016-07-31T09:06:45Z</time>
      </trkpt>
      <trkpt lat="49.02859" lon="2.06778">
        <ele>21.77</ele>
        <time>2016-07-31T09:07:00Z</time>
      </trkpt>
      <trkpt lat="49.02854" lon="2.06769">
        <ele>21.77</ele>
        <time>2016-07-31T09:07:07Z</time>
      </trkpt>
      <trkpt lat="49.0285" lon="2.06763">
        <ele>21.29</ele>
        <time>2016-07-31T09:07:12Z</time>
      </trkpt>
      <trkpt lat="49.02839" lon="2.06738">
        <ele>21.29</ele>
        <time>2016-07-31T09:07:31Z</time>
      </trkpt>
      <trkpt lat="49.02837" lon="2.06732">
        <ele>21.29</ele>
        <time>2016-07-31T09:07:44Z</time>
      </trkpt>
      <trkpt lat="49.02833" lon="2.06719">
        <ele>20.81</ele>
        <time>2016-07-31T09:07:55Z</time>
      </trkpt>
      <trkpt lat="49.0283" lon="2.06719">
        <ele>20.81</ele>
        <time>2016-07-31T09:08:10Z</time>
      </trkpt>
      <trkpt lat="49.02831" lon="2.06718">
        <ele>20.81</ele>
        <time>2016-07-31T09:08:33Z</time>
      </trkpt>
      <trkpt lat="49.02831" lon="2.06715">
        <ele>20.81</ele>
        <time>2016-07-31T09:08:51Z</time>
      </trkpt>
      <trkpt lat="49.02826" lon="2.06703">
        <ele>20.81</ele>
        <time>2016-07-31T09:09:02Z</time>
      </trkpt>
      <trkpt lat="49.02822" lon="2.06698">
        <ele>20.81</ele>
        <time>2016-07-31T09:09:08Z</time>
      </trkpt>
      <trkpt lat="49.02818" lon="2.0669">
        <ele>20.81</ele>
        <time>2016-07-31T09:09:14Z</time>
      </trkpt>
      <trkpt lat="49.02805" lon="2.06666">
        <ele>20.81</ele>
        <time>2016-07-31T09:09:32Z</time>
      </trkpt>
      <trkpt lat="49.02797" lon="2.06649">
        <ele>20.81</ele>
        <time>2016-07-31T09:09:45Z</time>
      </trkpt>
      <trkpt lat="49.02783" lon="2.06623">
        <ele>20.81</ele>
        <time>2016-07-31T09:10:03Z</time>
      </trkpt>
      <trkpt lat="49.02775" lon="2.06608">
        <ele>20.81</ele>
        <time>2016-07-31T09:10:17Z</time>
      </trkpt>
      <trkpt lat="49.02764" lon="2.06585">
        <ele>20.81</ele>
        <time>2016-07-31T09:10:35Z</time>
      </trkpt>
      <trkpt lat="49.02758" lon="2.06576">
        <ele>20.81</ele>
        <time>2016-07-31T09:10:43Z</time>
      </trkpt>
      <trkpt lat="49.02748" lon="2.06551">
        <ele>21.29</ele>
        <time>2016-07-31T09:10:59Z</time>
      </trkpt>
      <trkpt lat="49.02736" lon="2.06527">
        <ele>21.29</ele>
        <time>2016-07-31T09:11:17Z</time>
      </trkpt>
      <trkpt lat="49.02726" lon="2.06508">
        <ele>21.77</ele>
        <time>2016-07-31T09:11:30Z</time>
      </trkpt>
      <trkpt lat="49.02719" lon="2.06494">
        <ele>21.77</ele>
        <time>2016-07-31T09:11:40Z</time>
      </trkpt>
      <trkpt lat="49.02713" lon="2.06469">
        <ele>21.77</ele>
        <time>2016-07-31T09:11:56Z</time>
      </trkpt>
      <trkpt lat="49.02713" lon="2.06467">
        <ele>21.77</ele>
        <time>2016-07-31T09:11:58Z</time>
      </trkpt>
      <trkpt lat="49.02717" lon="2.06453">
        <ele>21.29</ele>
        <time>2016-07-31T09:12:07Z</time>
      </trkpt>
      <trkpt lat="49.02729" lon="2.06432">
        <ele>21.29</ele>
        <time>2016-07-31T09:12:29Z</time>
      </trkpt>
      <trkpt lat="49.02752" lon="2.06411">
        <ele>21.77</ele>
        <time>2016-07-31T09:12:47Z</time>
      </trkpt>
      <trkpt lat="49.02762" lon="2.06412">
        <ele>21.77</ele>
        <time>2016-07-31T09:12:54Z</time>
      </trkpt>
      <trkpt lat="49.0278" lon="2.06414">
        <ele>21.77</ele>
        <time>2016-07-31T09:13:10Z</time>
      </trkpt>
      <trkpt lat="49.02787" lon="2.06411">
        <ele>22.25</ele>
        <time>2016-07-31T09:13:18Z</time>
      </trkpt>
      <trkpt lat="49.02793" lon="2.06404">
        <ele>22.25</ele>
        <time>2016-07-31T09:13:25Z</time>
      </trkpt>
      <trkpt lat="49.02807" lon="2.06386">
        <ele>22.25</ele>
        <time>2016-07-31T09:13:41Z</time>
      </trkpt>
      <trkpt lat="49.0282" lon="2.06367">
        <ele>21.77</ele>
        <time>2016-07-31T09:13:57Z</time>
      </trkpt>
      <trkpt lat="49.02827" lon="2.06357">
        <ele>21.77</ele>
        <time>2016-07-31T09:14:04Z</time>
      </trkpt>
      <trkpt lat="49.02841" lon="2.06344">
        <ele>21.77</ele>
        <time>2016-07-31T09:14:20Z</time>
      </trkpt>
      <trkpt lat="49.02852" lon="2.06336">
        <ele>21.77</ele>
        <time>2016-07-31T09:14:35Z</time>
      </trkpt>
      <trkpt lat="49.02858" lon="2.06334">
        <ele>22.25</ele>
        <time>2016-07-31T09:14:44Z</time>
      </trkpt>
      <trkpt lat="49.02861" lon="2.06332">
        <ele>21.77</ele>
        <time>2016-07-31T09:14:47Z</time>
      </trkpt>
      <trkpt lat="49.02874" lon="2.06326">
        <ele>21.77</ele>
        <time>2016-07-31T09:14:59Z</time>
      </trkpt>
      <trkpt lat="49.02876" lon="2.06324">
        <ele>22.25</ele>
        <time>2016-07-31T09:15:01Z</time>
      </trkpt>
      <trkpt lat="49.0289" lon="2.06319">
        <ele>22.73</ele>
        <time>2016-07-31T09:15:16Z</time>
      </trkpt>
      <trkpt lat="49.02893" lon="2.06318">
        <ele>22.73</ele>
        <time>2016-07-31T09:15:31Z</time>
      </trkpt>
      <trkpt lat="49.02906" lon="2.06314">
        <ele>22.25</ele>
        <time>2016-07-31T09:15:45Z</time>
      </trkpt>
      <trkpt lat="49.02907" lon="2.06314">
        <ele>22.73</ele>
        <time>2016-07-31T09:15:46Z</time>
      </trkpt>
      <trkpt lat="49.02919" lon="2.0631">
        <ele>22.73</ele>
        <time>2016-07-31T09:16:01Z</time>
      </trkpt>
      <trkpt lat="49.02924" lon="2.06308">
        <ele>22.73</ele>
        <time>2016-07-31T09:16:06Z</time>
      </trkpt>
      <trkpt lat="49.02939" lon="2.063">
        <ele>22.73</ele>
        <time>2016-07-31T09:16:21Z</time>
      </trkpt>
      <trkpt lat="49.02953" lon="2.06293">
        <ele>23.21</ele>
        <time>2016-07-31T09:16:36Z</time>
      </trkpt>
      <trkpt lat="49.0296" lon="2.06288">
        <ele>22.73</ele>
        <time>2016-07-31T09:16:48Z</time>
      </trkpt>
      <trkpt lat="49.02963" lon="2.06288">
        <ele>23.21</ele>
        <time>2016-07-31T09:16:52Z</time>
      </trkpt>
      <trkpt lat="49.02972" lon="2.06284">
        <ele>22.73</ele>
        <time>2016-07-31T09:17:00Z</time>
      </trkpt>
      <trkpt lat="49.02986" lon="2.06276">
        <ele>23.21</ele>
        <time>2016-07-31T09:17:12Z</time>
      </trkpt>
      <trkpt lat="49.03001" lon="2.06273">
        <ele>22.25</ele>
        <time>2016-07-31T09:17:24Z</time>
      </trkpt>
      <trkpt lat="49.03018" lon="2.06266">
        <ele>23.21</ele>
        <time>2016-07-31T09:17:39Z</time>
      </trkpt>
      <trkpt lat="49.03023" lon="2.06263">
        <ele>23.21</ele>
        <time>2016-07-31T09:17:45Z</time>
      </trkpt>
      <trkpt lat="49.03041" lon="2.06249">
        <ele>22.73</ele>
        <time>2016-07-31T09:18:01Z</time>
      </trkpt>
      <trkpt lat="49.03042" lon="2.06248">
        <ele>23.21</ele>
        <time>2016-07-31T09:18:02Z</time>
      </trkpt>
      <trkpt lat="49.03044" lon="2.06238">
        <ele>23.21</ele>
        <time>2016-07-31T09:18:11Z</time>
      </trkpt>
      <trkpt lat="49.0304" lon="2.0622">
        <ele>22.73</ele>
        <time>2016-07-31T09:18:23Z</time>
      </trkpt>
      <trkpt lat="49.03044" lon="2.0619">
        <ele>20.32</ele>
        <time>2016-07-31T09:18:41Z</time>
      </trkpt>
      <trkpt lat="49.03046" lon="2.06181">
        <ele>19.36</ele>
        <time>2016-07-31T09:18:47Z</time>
      </trkpt>
      <trkpt lat="49.03041" lon="2.06173">
        <ele>18.88</ele>
        <time>2016-07-31T09:19:02Z</time>
      </trkpt>
      <trkpt lat="49.03039" lon="2.06181">
        <ele>19.84</ele>
        <time>2016-07-31T09:19:18Z</time>
      </trkpt>
      <trkpt lat="49.03039" lon="2.06176">
        <ele>19.36</ele>
        <time>2016-07-31T09:19:31Z</time>
      </trkpt>
      <trkpt lat="49.03039" lon="2.06179">
        <ele>18.88</ele>
        <time>2016-07-31T09:19:51Z</time>
      </trkpt>
      <trkpt lat="49.0304" lon="2.06198">
        <ele>20.81</ele>
        <time>2016-07-31T09:20:06Z</time>
      </trkpt>
      <trkpt lat="49.03038" lon="2.06221">
        <ele>22.73</ele>
        <time>2016-07-31T09:20:20Z</time>
      </trkpt>
      <trkpt lat="49.03039" lon="2.06231">
        <ele>23.21</ele>
        <time>2016-07-31T09:20:35Z</time>
      </trkpt>
      <trkpt lat="49.03055" lon="2.06231">
        <ele>23.21</ele>
        <time>2016-07-31T09:20:47Z</time>
      </trkpt>
      <trkpt lat="49.03059" lon="2.06231">
        <ele>22.73</ele>
        <time>2016-07-31T09:20:51Z</time>
      </trkpt>
      <trkpt lat="49.03082" lon="2.06222">
        <ele>22.73</ele>
        <time>2016-07-31T09:21:05Z</time>
      </trkpt>
      <trkpt lat="49.0309" lon="2.0621">
        <ele>22.73</ele>
        <time>2016-07-31T09:21:20Z</time>
      </trkpt>
      <trkpt lat="49.03113" lon="2.06184">
        <ele>23.21</ele>
        <time>2016-07-31T09:21:39Z</time>
      </trkpt>
      <trkpt lat="49.03131" lon="2.06161">
        <ele>23.69</ele>
        <time>2016-07-31T09:22:00Z</time>
      </trkpt>
      <trkpt lat="49.03132" lon="2.06153">
        <ele>23.69</ele>
        <time>2016-07-31T09:22:08Z</time>
      </trkpt>
      <trkpt lat="49.03131" lon="2.06141">
        <ele>23.69</ele>
        <time>2016-07-31T09:22:19Z</time>
      </trkpt>
      <trkpt lat="49.03132" lon="2.06141">
        <ele>23.69</ele>
        <time>2016-07-31T09:22:20Z</time>
      </trkpt>
      <trkpt lat="49.03137" lon="2.0614">
        <ele>23.69</ele>
        <time>2016-07-31T09:22:34Z</time>
      </trkpt>
      <trkpt lat="49.03147" lon="2.06134">
        <ele>23.69</ele>
        <time>2016-07-31T09:22:54Z</time>
      </trkpt>
      <trkpt lat="49.03167" lon="2.06121">
        <ele>23.21</ele>
        <time>2016-07-31T09:23:09Z</time>
      </trkpt>
      <trkpt lat="49.03165" lon="2.06092">
        <ele>23.21</ele>
        <time>2016-07-31T09:23:25Z</time>
      </trkpt>
      <trkpt lat="49.03164" lon="2.06088">
        <ele>23.21</ele>
        <time>2016-07-31T09:23:36Z</time>
      </trkpt>
      <trkpt lat="49.03162" lon="2.06082">
        <ele>23.21</ele>
        <time>2016-07-31T09:23:43Z</time>
      </trkpt>
      <trkpt lat="49.03153" lon="2.06064">
        <ele>23.21</ele>
        <time>2016-07-31T09:23:59Z</time>
      </trkpt>
      <trkpt lat="49.0315" lon="2.06055">
        <ele>22.73</ele>
        <time>2016-07-31T09:24:13Z</time>
      </trkpt>
      <trkpt lat="49.03141" lon="2.06034">
        <ele>22.73</ele>
        <time>2016-07-31T09:24:26Z</time>
      </trkpt>
      <trkpt lat="49.03126" lon="2.06022">
        <ele>22.25</ele>
        <time>2016-07-31T09:24:42Z</time>
      </trkpt>
      <trkpt lat="49.03113" lon="2.06012">
        <ele>21.77</ele>
        <time>2016-07-31T09:25:00Z</time>
      </trkpt>
      <trkpt lat="49.03107" lon="2.05999">
        <ele>22.25</ele>
        <time>2016-07-31T09:25:15Z</time>
      </trkpt>
      <trkpt lat="49.03108" lon="2.05998">
        <ele>22.25</ele>
        <time>2016-07-31T09:25:30Z</time>
      </trkpt>
      <trkpt lat="49.03093" lon="2.06006">
        <ele>21.29</ele>
        <time>2016-07-31T09:29:05Z</time>
      </trkpt>
      <trkpt lat="49.03106" lon="2.06018">
        <ele>21.77</ele>
        <time>2016-07-31T09:29:50Z</time>
      </trkpt>
      <trkpt lat="49.03122" lon="2.06021">
        <ele>21.77</ele>
        <time>2016-07-31T09:30:05Z</time>
      </trkpt>
      <trkpt lat="49.03131" lon="2.06026">
        <ele>21.77</ele>
        <time>2016-07-31T09:30:20Z</time>
      </trkpt>
      <trkpt lat="49.03138" lon="2.06033">
        <ele>21.29</ele>
        <time>2016-07-31T09:30:32Z</time>
      </trkpt>
      <trkpt lat="49.03146" lon="2.0605">
        <ele>21.29</ele>
        <time>2016-07-31T09:30:49Z</time>
      </trkpt>
      <trkpt lat="49.03153" lon="2.06063">
        <ele>21.77</ele>
        <time>2016-07-31T09:31:04Z</time>
      </trkpt>
      <trkpt lat="49.0316" lon="2.0608">
        <ele>22.25</ele>
        <time>2016-07-31T09:31:20Z</time>
      </trkpt>
      <trkpt lat="49.03168" lon="2.06088">
        <ele>22.25</ele>
        <time>2016-07-31T09:31:35Z</time>
      </trkpt>
      <trkpt lat="49.03167" lon="2.06086">
        <ele>22.25</ele>
        <time>2016-07-31T09:31:55Z</time>
      </trkpt>
      <trkpt lat="49.0317" lon="2.06086">
        <ele>22.25</ele>
        <time>2016-07-31T09:32:25Z</time>
      </trkpt>
      <trkpt lat="49.03178" lon="2.06079">
        <ele>22.25</ele>
        <time>2016-07-31T09:32:45Z</time>
      </trkpt>
      <trkpt lat="49.03173" lon="2.06079">
        <ele>22.25</ele>
        <time>2016-07-31T09:33:04Z</time>
      </trkpt>
      <trkpt lat="49.03185" lon="2.06069">
        <ele>22.73</ele>
        <time>2016-07-31T09:33:19Z</time>
      </trkpt>
      <trkpt lat="49.03194" lon="2.0605">
        <ele>23.69</ele>
        <time>2016-07-31T09:33:36Z</time>
      </trkpt>
      <trkpt lat="49.03201" lon="2.06042">
        <ele>24.17</ele>
        <time>2016-07-31T09:33:45Z</time>
      </trkpt>
      <trkpt lat="49.03213" lon="2.06044">
        <ele>23.21</ele>
        <time>2016-07-31T09:34:01Z</time>
      </trkpt>
      <trkpt lat="49.0322" lon="2.06053">
        <ele>22.25</ele>
        <time>2016-07-31T09:34:10Z</time>
      </trkpt>
      <trkpt lat="49.03229" lon="2.06072">
        <ele>21.77</ele>
        <time>2016-07-31T09:34:25Z</time>
      </trkpt>
      <trkpt lat="49.03235" lon="2.0608">
        <ele>22.25</ele>
        <time>2016-07-31T09:34:32Z</time>
      </trkpt>
      <trkpt lat="49.03248" lon="2.06079">
        <ele>22.25</ele>
        <time>2016-07-31T09:34:46Z</time>
      </trkpt>
      <trkpt lat="49.0325" lon="2.06057">
        <ele>21.77</ele>
        <time>2016-07-31T09:35:02Z</time>
      </trkpt>
      <trkpt lat="49.03251" lon="2.06036">
        <ele>21.29</ele>
        <time>2016-07-31T09:35:18Z</time>
      </trkpt>
      <trkpt lat="49.03251" lon="2.06032">
        <ele>21.29</ele>
        <time>2016-07-31T09:35:20Z</time>
      </trkpt>
      <trkpt lat="49.03255" lon="2.06008">
        <ele>20.81</ele>
        <time>2016-07-31T09:35:35Z</time>
      </trkpt>
      <trkpt lat="49.03249" lon="2.05991">
        <ele>20.81</ele>
        <time>2016-07-31T09:35:46Z</time>
      </trkpt>
      <trkpt lat="49.03256" lon="2.05976">
        <ele>20.81</ele>
        <time>2016-07-31T09:36:02Z</time>
      </trkpt>
      <trkpt lat="49.03264" lon="2.05964">
        <ele>20.81</ele>
        <time>2016-07-31T09:36:17Z</time>
      </trkpt>
      <trkpt lat="49.03274" lon="2.05953">
        <ele>20.81</ele>
        <time>2016-07-31T09:36:30Z</time>
      </trkpt>
      <trkpt lat="49.03276" lon="2.05944">
        <ele>21.29</ele>
        <time>2016-07-31T09:36:44Z</time>
      </trkpt>
      <trkpt lat="49.03291" lon="2.0592">
        <ele>21.29</ele>
        <time>2016-07-31T09:37:04Z</time>
      </trkpt>
      <trkpt lat="49.03304" lon="2.05919">
        <ele>20.81</ele>
        <time>2016-07-31T09:37:16Z</time>
      </trkpt>
      <trkpt lat="49.03317" lon="2.05926">
        <ele>20.81</ele>
        <time>2016-07-31T09:37:31Z</time>
      </trkpt>
      <trkpt lat="49.03324" lon="2.05929">
        <ele>21.29</ele>
        <time>2016-07-31T09:37:44Z</time>
      </trkpt>
      <trkpt lat="49.03334" lon="2.05936">
        <ele>21.29</ele>
        <time>2016-07-31T09:37:54Z</time>
      </trkpt>
      <trkpt lat="49.03347" lon="2.05944">
        <ele>21.29</ele>
        <time>2016-07-31T09:38:06Z</time>
      </trkpt>
      <trkpt lat="49.03367" lon="2.05946">
        <ele>21.29</ele>
        <time>2016-07-31T09:38:26Z</time>
      </trkpt>
      <trkpt lat="49.03386" lon="2.05937">
        <ele>20.81</ele>
        <time>2016-07-31T09:38:45Z</time>
      </trkpt>
      <trkpt lat="49.03387" lon="2.05937">
        <ele>21.29</ele>
        <time>2016-07-31T09:38:46Z</time>
      </trkpt>
      <trkpt lat="49.03391" lon="2.05931">
        <ele>21.29</ele>
        <time>2016-07-31T09:39:03Z</time>
      </trkpt>
      <trkpt lat="49.03393" lon="2.05931">
        <ele>20.81</ele>
        <time>2016-07-31T09:39:07Z</time>
      </trkpt>
      <trkpt lat="49.03403" lon="2.05926">
        <ele>21.29</ele>
        <time>2016-07-31T09:39:17Z</time>
      </trkpt>
      <trkpt lat="49.03419" lon="2.05913">
        <ele>21.29</ele>
        <time>2016-07-31T09:39:36Z</time>
      </trkpt>
      <trkpt lat="49.03446" lon="2.05899">
        <ele>21.29</ele>
        <time>2016-07-31T09:39:57Z</time>
      </trkpt>
      <trkpt lat="49.03465" lon="2.05884">
        <ele>21.29</ele>
        <time>2016-07-31T09:40:16Z</time>
      </trkpt>
      <trkpt lat="49.0348" lon="2.05869">
        <ele>21.77</ele>
        <time>2016-07-31T09:40:33Z</time>
      </trkpt>
      <trkpt lat="49.035" lon="2.05855">
        <ele>21.29</ele>
        <time>2016-07-31T09:40:52Z</time>
      </trkpt>
      <trkpt lat="49.03516" lon="2.05843">
        <ele>21.29</ele>
        <time>2016-07-31T09:41:09Z</time>
      </trkpt>
      <trkpt lat="49.03537" lon="2.05831">
        <ele>20.81</ele>
        <time>2016-07-31T09:41:26Z</time>
      </trkpt>
      <trkpt lat="49.03554" lon="2.05828">
        <ele>21.77</ele>
        <time>2016-07-31T09:41:44Z</time>
      </trkpt>
      <trkpt lat="49.03572" lon="2.0583">
        <ele>21.77</ele>
        <time>2016-07-31T09:41:58Z</time>
      </trkpt>
      <trkpt lat="49.0359" lon="2.05831">
        <ele>21.77</ele>
        <time>2016-07-31T09:42:13Z</time>
      </trkpt>
      <trkpt lat="49.03593" lon="2.05828">
        <ele>21.77</ele>
        <time>2016-07-31T09:42:18Z</time>
      </trkpt>
      <trkpt lat="49.03605" lon="2.05823">
        <ele>21.29</ele>
        <time>2016-07-31T09:42:31Z</time>
      </trkpt>
      <trkpt lat="49.03618" lon="2.05825">
        <ele>21.29</ele>
        <time>2016-07-31T09:42:43Z</time>
      </trkpt>
      <trkpt lat="49.03628" lon="2.05825">
        <ele>21.29</ele>
        <time>2016-07-31T09:42:55Z</time>
      </trkpt>
      <trkpt lat="49.03629" lon="2.05826">
        <ele>21.77</ele>
        <time>2016-07-31T09:42:57Z</time>
      </trkpt>
      <trkpt lat="49.03635" lon="2.05824">
        <ele>21.29</ele>
        <time>2016-07-31T09:43:03Z</time>
      </trkpt>
      <trkpt lat="49.03657" lon="2.05822">
        <ele>21.77</ele>
        <time>2016-07-31T09:43:21Z</time>
      </trkpt>
      <trkpt lat="49.03672" lon="2.0582">
        <ele>21.29</ele>
        <time>2016-07-31T09:43:36Z</time>
      </trkpt>
      <trkpt lat="49.0369" lon="2.05818">
        <ele>21.29</ele>
        <time>2016-07-31T09:43:54Z</time>
      </trkpt>
      <trkpt lat="49.03695" lon="2.05817">
        <ele>21.29</ele>
        <time>2016-07-31T09:43:58Z</time>
      </trkpt>
      <trkpt lat="49.03717" lon="2.05809">
        <ele>21.77</ele>
        <time>2016-07-31T09:44:15Z</time>
      </trkpt>
      <trkpt lat="49.03733" lon="2.05789">
        <ele>21.77</ele>
        <time>2016-07-31T09:44:34Z</time>
      </trkpt>
      <trkpt lat="49.03754" lon="2.05781">
        <ele>21.77</ele>
        <time>2016-07-31T09:44:52Z</time>
      </trkpt>
      <trkpt lat="49.03762" lon="2.05776">
        <ele>21.77</ele>
        <time>2016-07-31T09:44:58Z</time>
      </trkpt>
      <trkpt lat="49.03779" lon="2.0577">
        <ele>21.77</ele>
        <time>2016-07-31T09:45:15Z</time>
      </trkpt>
      <trkpt lat="49.03804" lon="2.05763">
        <ele>21.77</ele>
        <time>2016-07-31T09:45:36Z</time>
      </trkpt>
      <trkpt lat="49.03818" lon="2.05753">
        <ele>22.25</ele>
        <time>2016-07-31T09:45:52Z</time>
      </trkpt>
      <trkpt lat="49.03836" lon="2.05738">
        <ele>21.77</ele>
        <time>2016-07-31T09:46:07Z</time>
      </trkpt>
      <trkpt lat="49.03849" lon="2.05731">
        <ele>22.25</ele>
        <time>2016-07-31T09:46:22Z</time>
      </trkpt>
      <trkpt lat="49.03867" lon="2.05721">
        <ele>21.77</ele>
        <time>2016-07-31T09:46:39Z</time>
      </trkpt>
      <trkpt lat="49.03888" lon="2.05707">
        <ele>22.25</ele>
        <time>2016-07-31T09:46:59Z</time>
      </trkpt>
      <trkpt lat="49.03909" lon="2.05691">
        <ele>22.25</ele>
        <time>2016-07-31T09:47:19Z</time>
      </trkpt>
      <trkpt lat="49.03931" lon="2.05674">
        <ele>22.25</ele>
        <time>2016-07-31T09:47:36Z</time>
      </trkpt>
      <trkpt lat="49.0395" lon="2.05654">
        <ele>22.25</ele>
        <time>2016-07-31T09:47:55Z</time>
      </trkpt>
      <trkpt lat="49.03963" lon="2.05628">
        <ele>22.73</ele>
        <time>2016-07-31T09:48:14Z</time>
      </trkpt>
      <trkpt lat="49.03955" lon="2.05598">
        <ele>22.25</ele>
        <time>2016-07-31T09:48:30Z</time>
      </trkpt>
      <trkpt lat="49.03967" lon="2.05573">
        <ele>22.25</ele>
        <time>2016-07-31T09:48:47Z</time>
      </trkpt>
      <trkpt lat="49.0397" lon="2.05567">
        <ele>22.73</ele>
        <time>2016-07-31T09:48:52Z</time>
      </trkpt>
      <trkpt lat="49.03985" lon="2.05552">
        <ele>22.73</ele>
        <time>2016-07-31T09:49:09Z</time>
      </trkpt>
      <trkpt lat="49.04005" lon="2.05535">
        <ele>23.21</ele>
        <time>2016-07-31T09:49:29Z</time>
      </trkpt>
      <trkpt lat="49.04018" lon="2.05517">
        <ele>22.73</ele>
        <time>2016-07-31T09:49:45Z</time>
      </trkpt>
      <trkpt lat="49.04037" lon="2.05499">
        <ele>22.25</ele>
        <time>2016-07-31T09:50:03Z</time>
      </trkpt>
      <trkpt lat="49.04054" lon="2.05478">
        <ele>22.25</ele>
        <time>2016-07-31T09:50:21Z</time>
      </trkpt>
      <trkpt lat="49.04073" lon="2.05454">
        <ele>22.25</ele>
        <time>2016-07-31T09:50:41Z</time>
      </trkpt>
      <trkpt lat="49.04084" lon="2.05441">
        <ele>22.25</ele>
        <time>2016-07-31T09:50:58Z</time>
      </trkpt>
      <trkpt lat="49.04102" lon="2.0541">
        <ele>22.73</ele>
        <time>2016-07-31T09:54:36Z</time>
      </trkpt>
      <trkpt lat="49.04112" lon="2.05399">
        <ele>22.73</ele>
        <time>2016-07-31T09:54:50Z</time>
      </trkpt>
      <trkpt lat="49.04122" lon="2.05386">
        <ele>22.25</ele>
        <time>2016-07-31T09:55:06Z</time>
      </trkpt>
      <trkpt lat="49.0413" lon="2.05375">
        <ele>22.73</ele>
        <time>2016-07-31T09:55:22Z</time>
      </trkpt>
      <trkpt lat="49.04143" lon="2.05357">
        <ele>22.73</ele>
        <time>2016-07-31T09:55:38Z</time>
      </trkpt>
      <trkpt lat="49.04157" lon="2.05344">
        <ele>22.73</ele>
        <time>2016-07-31T09:55:58Z</time>
      </trkpt>
      <trkpt lat="49.04169" lon="2.05333">
        <ele>22.25</ele>
        <time>2016-07-31T09:56:16Z</time>
      </trkpt>
      <trkpt lat="49.04181" lon="2.05325">
        <ele>22.25</ele>
        <time>2016-07-31T09:56:36Z</time>
      </trkpt>
      <trkpt lat="49.04195" lon="2.05305">
        <ele>22.25</ele>
        <time>2016-07-31T09:56:55Z</time>
      </trkpt>
      <trkpt lat="49.04207" lon="2.05292">
        <ele>22.25</ele>
        <time>2016-07-31T09:57:13Z</time>
      </trkpt>
      <trkpt lat="49.04214" lon="2.05268">
        <ele>22.25</ele>
        <time>2016-07-31T09:57:32Z</time>
      </trkpt>
      <trkpt lat="49.04214" lon="2.05253">
        <ele>22.25</ele>
        <time>2016-07-31T09:57:48Z</time>
      </trkpt>
      <trkpt lat="49.04216" lon="2.05228">
        <ele>22.25</ele>
        <time>2016-07-31T09:58:08Z</time>
      </trkpt>
      <trkpt lat="49.04213" lon="2.05218">
        <ele>21.77</ele>
        <time>2016-07-31T09:58:26Z</time>
      </trkpt>
      <trkpt lat="49.04217" lon="2.05221">
        <ele>18.4</ele>
        <time>2016-07-31T09:58:33Z</time>
      </trkpt>
      <trkpt lat="49.04217" lon="2.05221">
        <ele>21.77</ele>
        <time>2016-07-31T09:58:34Z</time>
      </trkpt>
      <trkpt lat="49.04217" lon="2.05219">
        <ele>24.65</ele>
        <time>2016-07-31T09:58:36Z</time>
      </trkpt>
      <trkpt lat="49.0422" lon="2.05212">
        <ele>21.29</ele>
        <time>2016-07-31T09:58:47Z</time>
      </trkpt>
      <trkpt lat="49.04217" lon="2.05211">
        <ele>22.25</ele>
        <time>2016-07-31T09:59:13Z</time>
      </trkpt>
      <trkpt lat="49.04215" lon="2.05186">
        <ele>21.77</ele>
        <time>2016-07-31T09:59:31Z</time>
      </trkpt>
      <trkpt lat="49.04211" lon="2.05143">
        <ele>21.77</ele>
        <time>2016-07-31T09:59:55Z</time>
      </trkpt>
      <trkpt lat="49.04213" lon="2.05104">
        <ele>21.29</ele>
        <time>2016-07-31T10:00:16Z</time>
      </trkpt>
      <trkpt lat="49.04214" lon="2.05069">
        <ele>20.81</ele>
        <time>2016-07-31T10:00:37Z</time>
      </trkpt>
      <trkpt lat="49.04216" lon="2.05041">
        <ele>20.81</ele>
        <time>2016-07-31T10:00:52Z</time>
      </trkpt>
      <trkpt lat="49.04217" lon="2.0502">
        <ele>20.81</ele>
        <time>2016-07-31T10:01:05Z</time>
      </trkpt>
      <trkpt lat="49.04217" lon="2.04979">
        <ele>20.81</ele>
        <time>2016-07-31T10:01:28Z</time>
      </trkpt>
      <trkpt lat="49.04216" lon="2.04957">
        <ele>21.29</ele>
        <time>2016-07-31T10:01:45Z</time>
      </trkpt>
      <trkpt lat="49.04211" lon="2.04927">
        <ele>21.29</ele>
        <time>2016-07-31T10:02:06Z</time>
      </trkpt>
      <trkpt lat="49.0421" lon="2.0492">
        <ele>21.29</ele>
        <time>2016-07-31T10:02:09Z</time>
      </trkpt>
      <trkpt lat="49.042" lon="2.04887">
        <ele>21.29</ele>
        <time>2016-07-31T10:02:31Z</time>
      </trkpt>
      <trkpt lat="49.0419" lon="2.04857">
        <ele>20.81</ele>
        <time>2016-07-31T10:02:51Z</time>
      </trkpt>
      <trkpt lat="49.04183" lon="2.04839">
        <ele>21.77</ele>
        <time>2016-07-31T10:03:07Z</time>
      </trkpt>
      <trkpt lat="49.04178" lon="2.04823">
        <ele>21.77</ele>
        <time>2016-07-31T10:03:22Z</time>
      </trkpt>
      <trkpt lat="49.04174" lon="2.04812">
        <ele>21.77</ele>
        <time>2016-07-31T10:03:45Z</time>
      </trkpt>
      <trkpt lat="49.04161" lon="2.04793">
        <ele>22.25</ele>
        <time>2016-07-31T10:04:03Z</time>
      </trkpt>
      <trkpt lat="49.04163" lon="2.04789">
        <ele>22.25</ele>
        <time>2016-07-31T10:04:25Z</time>
      </trkpt>
      <trkpt lat="49.04166" lon="2.0479">
        <ele>22.25</ele>
        <time>2016-07-31T10:04:30Z</time>
      </trkpt>
      <trkpt lat="49.0417" lon="2.04785">
        <ele>22.73</ele>
        <time>2016-07-31T10:04:43Z</time>
      </trkpt>
      <trkpt lat="49.04176" lon="2.04786">
        <ele>22.73</ele>
        <time>2016-07-31T10:04:55Z</time>
      </trkpt>
      <trkpt lat="49.0419" lon="2.04767">
        <ele>24.17</ele>
        <time>2016-07-31T10:05:11Z</time>
      </trkpt>
      <trkpt lat="49.04205" lon="2.04754">
        <ele>26.09</ele>
        <time>2016-07-31T10:05:26Z</time>
      </trkpt>
      <trkpt lat="49.04221" lon="2.04741">
        <ele>28.02</ele>
        <time>2016-07-31T10:05:43Z</time>
      </trkpt>
      <trkpt lat="49.04237" lon="2.04727">
        <ele>30.42</ele>
        <time>2016-07-31T10:06:02Z</time>
      </trkpt>
      <trkpt lat="49.04243" lon="2.04725">
        <ele>30.9</ele>
        <time>2016-07-31T10:06:13Z</time>
      </trkpt>
      <trkpt lat="49.04253" lon="2.04713">
        <ele>31.86</ele>
        <time>2016-07-31T10:06:28Z</time>
      </trkpt>
      <trkpt lat="49.04268" lon="2.04698">
        <ele>35.23</ele>
        <time>2016-07-31T10:06:47Z</time>
      </trkpt>
      <trkpt lat="49.04286" lon="2.04685">
        <ele>38.11</ele>
        <time>2016-07-31T10:07:09Z</time>
      </trkpt>
      <trkpt lat="49.04307" lon="2.04664">
        <ele>40.99</ele>
        <time>2016-07-31T10:07:30Z</time>
      </trkpt>
      <trkpt lat="49.04313" lon="2.04663">
        <ele>41.95</ele>
        <time>2016-07-31T10:07:46Z</time>
      </trkpt>
      <trkpt lat="49.04314" lon="2.04667">
        <ele>41.95</ele>
        <time>2016-07-31T10:07:48Z</time>
      </trkpt>
      <trkpt lat="49.04318" lon="2.04692">
        <ele>42.44</ele>
        <time>2016-07-31T10:08:06Z</time>
      </trkpt>
      <trkpt lat="49.04321" lon="2.04713">
        <ele>41.95</ele>
        <time>2016-07-31T10:08:22Z</time>
      </trkpt>
      <trkpt lat="49.04322" lon="2.04722">
        <ele>41.95</ele>
        <time>2016-07-31T10:08:29Z</time>
      </trkpt>
      <trkpt lat="49.04324" lon="2.04729">
        <ele>41.95</ele>
        <time>2016-07-31T10:08:48Z</time>
      </trkpt>
      <trkpt lat="49.04329" lon="2.0475">
        <ele>42.44</ele>
        <time>2016-07-31T10:09:01Z</time>
      </trkpt>
      <trkpt lat="49.04333" lon="2.04761">
        <ele>42.44</ele>
        <time>2016-07-31T10:09:16Z</time>
      </trkpt>
      <trkpt lat="49.04339" lon="2.04783">
        <ele>41.95</ele>
        <time>2016-07-31T10:09:30Z</time>
      </trkpt>
      <trkpt lat="49.04346" lon="2.04805">
        <ele>41.95</ele>
        <time>2016-07-31T10:09:48Z</time>
      </trkpt>
      <trkpt lat="49.04352" lon="2.04802">
        <ele>44.84</ele>
        <time>2016-07-31T10:12:06Z</time>
      </trkpt>
      <trkpt lat="49.04363" lon="2.04796">
        <ele>46.28</ele>
        <time>2016-07-31T10:12:26Z</time>
      </trkpt>
      <trkpt lat="49.04365" lon="2.04811">
        <ele>46.28</ele>
        <time>2016-07-31T10:12:42Z</time>
      </trkpt>
      <trkpt lat="49.04366" lon="2.0482">
        <ele>46.76</ele>
        <time>2016-07-31T10:12:55Z</time>
      </trkpt>
      <trkpt lat="49.04374" lon="2.04818">
        <ele>47.24</ele>
        <time>2016-07-31T10:13:09Z</time>
      </trkpt>
      <trkpt lat="49.0439" lon="2.04814">
        <ele>50.13</ele>
        <time>2016-07-31T10:13:28Z</time>
      </trkpt>
      <trkpt lat="49.04402" lon="2.04805">
        <ele>52.05</ele>
        <time>2016-07-31T10:13:47Z</time>
      </trkpt>
      <trkpt lat="49.04407" lon="2.04787">
        <ele>53.49</ele>
        <time>2016-07-31T10:14:06Z</time>
      </trkpt>
      <trkpt lat="49.04409" lon="2.04786">
        <ele>54.45</ele>
        <time>2016-07-31T10:14:18Z</time>
      </trkpt>
      <trkpt lat="49.04412" lon="2.04781">
        <ele>55.41</ele>
        <time>2016-07-31T10:14:34Z</time>
      </trkpt>
      <trkpt lat="49.0441" lon="2.04768">
        <ele>54.45</ele>
        <time>2016-07-31T10:14:53Z</time>
      </trkpt>
      <trkpt lat="49.04411" lon="2.04757">
        <ele>53.97</ele>
        <time>2016-07-31T10:15:08Z</time>
      </trkpt>
      <trkpt lat="49.04417" lon="2.04752">
        <ele>55.41</ele>
        <time>2016-07-31T10:15:30Z</time>
      </trkpt>
      <trkpt lat="49.0443" lon="2.04747">
        <ele>57.82</ele>
        <time>2016-07-31T10:15:51Z</time>
      </trkpt>
      <trkpt lat="49.04436" lon="2.04744">
        <ele>61.18</ele>
        <time>2016-07-31T10:16:09Z</time>
      </trkpt>
      <trkpt lat="49.04453" lon="2.04741">
        <ele>64.07</ele>
        <time>2016-07-31T10:16:28Z</time>
      </trkpt>
      <trkpt lat="49.04458" lon="2.04737">
        <ele>65.99</ele>
        <time>2016-07-31T10:16:45Z</time>
      </trkpt>
      <trkpt lat="49.0446" lon="2.04722">
        <ele>67.43</ele>
        <time>2016-07-31T10:17:00Z</time>
      </trkpt>
      <trkpt lat="49.04466" lon="2.04688">
        <ele>69.35</ele>
        <time>2016-07-31T10:17:21Z</time>
      </trkpt>
      <trkpt lat="49.04476" lon="2.04674">
        <ele>70.79</ele>
        <time>2016-07-31T10:17:40Z</time>
      </trkpt>
      <trkpt lat="49.04481" lon="2.04679">
        <ele>71.27</ele>
        <time>2016-07-31T10:17:45Z</time>
      </trkpt>
      <trkpt lat="49.04491" lon="2.04684">
        <ele>73.68</ele>
        <time>2016-07-31T10:18:00Z</time>
      </trkpt>
      <trkpt lat="49.04495" lon="2.0469">
        <ele>74.64</ele>
        <time>2016-07-31T10:18:20Z</time>
      </trkpt>
      <trkpt lat="49.04493" lon="2.04695">
        <ele>74.64</ele>
        <time>2016-07-31T10:18:45Z</time>
      </trkpt>
      <trkpt lat="49.04492" lon="2.04691">
        <ele>75.12</ele>
        <time>2016-07-31T10:19:15Z</time>
      </trkpt>
      <trkpt lat="49.04499" lon="2.04697">
        <ele>75.12</ele>
        <time>2016-07-31T10:19:44Z</time>
      </trkpt>
      <trkpt lat="49.04498" lon="2.04688">
        <ele>75.12</ele>
        <time>2016-07-31T10:20:17Z</time>
      </trkpt>
      <trkpt lat="49.04501" lon="2.04688">
        <ele>74.64</ele>
        <time>2016-07-31T10:20:42Z</time>
      </trkpt>
      <trkpt lat="49.04495" lon="2.04688">
        <ele>75.12</ele>
        <time>2016-07-31T10:21:05Z</time>
      </trkpt>
      <trkpt lat="49.04498" lon="2.04687">
        <ele>75.12</ele>
        <time>2016-07-31T10:21:26Z</time>
      </trkpt>
      <trkpt lat="49.04498" lon="2.04685">
        <ele>75.12</ele>
        <time>2016-07-31T10:21:56Z</time>
      </trkpt>
      <trkpt lat="49.04505" lon="2.04691">
        <ele>75.12</ele>
        <time>2016-07-31T10:22:23Z</time>
      </trkpt>
      <trkpt lat="49.04492" lon="2.04694">
        <ele>75.6</ele>
        <time>2016-07-31T10:22:46Z</time>
      </trkpt>
      <trkpt lat="49.04492" lon="2.04695">
        <ele>75.6</ele>
        <time>2016-07-31T10:23:09Z</time>
      </trkpt>
      <trkpt lat="49.04495" lon="2.04691">
        <ele>75.6</ele>
        <time>2016-07-31T10:23:32Z</time>
      </trkpt>
      <trkpt lat="49.04501" lon="2.04691">
        <ele>75.6</ele>
        <time>2016-07-31T10:23:57Z</time>
      </trkpt>
      <trkpt lat="49.045" lon="2.04677">
        <ele>76.08</ele>
        <time>2016-07-31T10:24:11Z</time>
      </trkpt>
      <trkpt lat="49.04509" lon="2.04657">
        <ele>78</ele>
        <time>2016-07-31T10:24:27Z</time>
      </trkpt>
      <trkpt lat="49.04502" lon="2.04641">
        <ele>78.48</ele>
        <time>2016-07-31T10:24:40Z</time>
      </trkpt>
      <trkpt lat="49.04497" lon="2.04613">
        <ele>78.48</ele>
        <time>2016-07-31T10:24:58Z</time>
      </trkpt>
      <trkpt lat="49.04494" lon="2.04601">
        <ele>78.48</ele>
        <time>2016-07-31T10:25:12Z</time>
      </trkpt>
      <trkpt lat="49.04487" lon="2.0458">
        <ele>78</ele>
        <time>2016-07-31T10:25:27Z</time>
      </trkpt>
      <trkpt lat="49.04478" lon="2.04557">
        <ele>78</ele>
        <time>2016-07-31T10:25:44Z</time>
      </trkpt>
      <trkpt lat="49.04467" lon="2.04535">
        <ele>77.52</ele>
        <time>2016-07-31T10:26:00Z</time>
      </trkpt>
      <trkpt lat="49.04457" lon="2.04509">
        <ele>77.52</ele>
        <time>2016-07-31T10:26:18Z</time>
      </trkpt>
      <trkpt lat="49.04448" lon="2.04484">
        <ele>78</ele>
        <time>2016-07-31T10:26:37Z</time>
      </trkpt>
      <trkpt lat="49.04431" lon="2.04448">
        <ele>77.52</ele>
        <time>2016-07-31T10:27:00Z</time>
      </trkpt>
      <trkpt lat="49.0442" lon="2.04416">
        <ele>77.52</ele>
        <time>2016-07-31T10:27:18Z</time>
      </trkpt>
      <trkpt lat="49.0441" lon="2.04394">
        <ele>76.56</ele>
        <time>2016-07-31T10:27:35Z</time>
      </trkpt>
      <trkpt lat="49.04397" lon="2.04363">
        <ele>76.56</ele>
        <time>2016-07-31T10:27:54Z</time>
      </trkpt>
      <trkpt lat="49.04385" lon="2.04332">
        <ele>75.6</ele>
        <time>2016-07-31T10:28:13Z</time>
      </trkpt>
      <trkpt lat="49.04377" lon="2.04308">
        <ele>75.6</ele>
        <time>2016-07-31T10:28:30Z</time>
      </trkpt>
      <trkpt lat="49.04366" lon="2.04284">
        <ele>74.64</ele>
        <time>2016-07-31T10:28:45Z</time>
      </trkpt>
      <trkpt lat="49.04357" lon="2.04257">
        <ele>74.64</ele>
        <time>2016-07-31T10:29:03Z</time>
      </trkpt>
      <trkpt lat="49.04344" lon="2.04222">
        <ele>74.16</ele>
        <time>2016-07-31T10:29:24Z</time>
      </trkpt>
      <trkpt lat="49.04335" lon="2.04196">
        <ele>73.68</ele>
        <time>2016-07-31T10:29:38Z</time>
      </trkpt>
      <trkpt lat="49.04324" lon="2.0417">
        <ele>73.2</ele>
        <time>2016-07-31T10:29:56Z</time>
      </trkpt>
      <trkpt lat="49.04314" lon="2.04146">
        <ele>72.72</ele>
        <time>2016-07-31T10:30:13Z</time>
      </trkpt>
      <trkpt lat="49.04308" lon="2.04131">
        <ele>72.24</ele>
        <time>2016-07-31T10:30:24Z</time>
      </trkpt>
      <trkpt lat="49.04297" lon="2.04105">
        <ele>72.24</ele>
        <time>2016-07-31T10:30:42Z</time>
      </trkpt>
      <trkpt lat="49.04286" lon="2.0409">
        <ele>71.27</ele>
        <time>2016-07-31T10:30:53Z</time>
      </trkpt>
      <trkpt lat="49.04273" lon="2.0408">
        <ele>71.76</ele>
        <time>2016-07-31T10:31:12Z</time>
      </trkpt>
      <trkpt lat="49.04273" lon="2.04083">
        <ele>71.76</ele>
        <time>2016-07-31T10:31:31Z</time>
      </trkpt>
      <trkpt lat="49.04273" lon="2.04075">
        <ele>71.76</ele>
        <time>2016-07-31T10:31:53Z</time>
      </trkpt>
      <trkpt lat="49.04274" lon="2.04087">
        <ele>71.76</ele>
        <time>2016-07-31T10:32:08Z</time>
      </trkpt>
      <trkpt lat="49.04273" lon="2.04087">
        <ele>71.76</ele>
        <time>2016-07-31T10:32:32Z</time>
      </trkpt>
      <trkpt lat="49.04275" lon="2.0409">
        <ele>71.76</ele>
        <time>2016-07-31T10:32:52Z</time>
      </trkpt>
      <trkpt lat="49.04273" lon="2.04075">
        <ele>71.76</ele>
        <time>2016-07-31T10:33:14Z</time>
      </trkpt>
      <trkpt lat="49.04272" lon="2.04063">
        <ele>71.76</ele>
        <time>2016-07-31T10:33:38Z</time>
      </trkpt>
      <trkpt lat="49.04271" lon="2.04057">
        <ele>71.76</ele>
        <time>2016-07-31T10:33:57Z</time>
      </trkpt>
      <trkpt lat="49.04266" lon="2.04053">
        <ele>71.27</ele>
        <time>2016-07-31T10:34:14Z</time>
      </trkpt>
      <trkpt lat="49.04262" lon="2.04043">
        <ele>71.27</ele>
        <time>2016-07-31T10:34:38Z</time>
      </trkpt>
      <trkpt lat="49.0425" lon="2.04021">
        <ele>70.31</ele>
        <time>2016-07-31T10:34:57Z</time>
      </trkpt>
      <trkpt lat="49.04237" lon="2.0399">
        <ele>69.83</ele>
        <time>2016-07-31T10:35:17Z</time>
      </trkpt>
      <trkpt lat="49.04221" lon="2.03959">
        <ele>69.35</ele>
        <time>2016-07-31T10:35:38Z</time>
      </trkpt>
      <trkpt lat="49.04202" lon="2.03924">
        <ele>68.39</ele>
        <time>2016-07-31T10:36:02Z</time>
      </trkpt>
      <trkpt lat="49.04186" lon="2.03895">
        <ele>67.91</ele>
        <time>2016-07-31T10:36:24Z</time>
      </trkpt>
      <trkpt lat="49.04171" lon="2.0387">
        <ele>67.43</ele>
        <time>2016-07-31T10:36:41Z</time>
      </trkpt>
      <trkpt lat="49.0416" lon="2.03853">
        <ele>67.43</ele>
        <time>2016-07-31T10:36:56Z</time>
      </trkpt>
      <trkpt lat="49.0415" lon="2.03835">
        <ele>70.31</ele>
        <time>2016-07-31T11:30:58Z</time>
      </trkpt>
      <trkpt lat="49.04139" lon="2.03815">
        <ele>69.35</ele>
        <time>2016-07-31T11:31:16Z</time>
      </trkpt>
      <trkpt lat="49.04126" lon="2.03801">
        <ele>69.35</ele>
        <time>2016-07-31T11:31:33Z</time>
      </trkpt>
      <trkpt lat="49.04116" lon="2.03786">
        <ele>69.35</ele>
        <time>2016-07-31T11:31:49Z</time>
      </trkpt>
      <trkpt lat="49.04106" lon="2.03765">
        <ele>68.39</ele>
        <time>2016-07-31T11:32:06Z</time>
      </trkpt>
      <trkpt lat="49.04094" lon="2.03746">
        <ele>67.91</ele>
        <time>2016-07-31T11:32:22Z</time>
      </trkpt>
      <trkpt lat="49.04079" lon="2.03725">
        <ele>66.95</ele>
        <time>2016-07-31T11:32:42Z</time>
      </trkpt>
      <trkpt lat="49.04064" lon="2.03705">
        <ele>66.47</ele>
        <time>2016-07-31T11:33:00Z</time>
      </trkpt>
      <trkpt lat="49.04049" lon="2.03684">
        <ele>65.99</ele>
        <time>2016-07-31T11:33:20Z</time>
      </trkpt>
      <trkpt lat="49.04034" lon="2.0367">
        <ele>65.51</ele>
        <time>2016-07-31T11:33:38Z</time>
      </trkpt>
      <trkpt lat="49.04034" lon="2.03667">
        <ele>65.51</ele>
        <time>2016-07-31T11:33:40Z</time>
      </trkpt>
      <trkpt lat="49.04023" lon="2.03652">
        <ele>64.55</ele>
        <time>2016-07-31T11:33:56Z</time>
      </trkpt>
      <trkpt lat="49.04008" lon="2.03635">
        <ele>64.07</ele>
        <time>2016-07-31T11:34:12Z</time>
      </trkpt>
      <trkpt lat="49.03993" lon="2.03611">
        <ele>63.58</ele>
        <time>2016-07-31T11:34:32Z</time>
      </trkpt>
      <trkpt lat="49.0398" lon="2.03592">
        <ele>62.62</ele>
        <time>2016-07-31T11:34:49Z</time>
      </trkpt>
      <trkpt lat="49.03961" lon="2.03578">
        <ele>62.14</ele>
        <time>2016-07-31T11:35:06Z</time>
      </trkpt>
      <trkpt lat="49.03954" lon="2.03571">
        <ele>61.66</ele>
        <time>2016-07-31T11:35:13Z</time>
      </trkpt>
      <trkpt lat="49.03941" lon="2.03557">
        <ele>61.66</ele>
        <time>2016-07-31T11:35:29Z</time>
      </trkpt>
      <trkpt lat="49.03931" lon="2.03546">
        <ele>61.18</ele>
        <time>2016-07-31T11:35:40Z</time>
      </trkpt>
      <trkpt lat="49.03913" lon="2.0353">
        <ele>60.22</ele>
        <time>2016-07-31T11:35:56Z</time>
      </trkpt>
      <trkpt lat="49.03895" lon="2.03513">
        <ele>59.74</ele>
        <time>2016-07-31T11:36:14Z</time>
      </trkpt>
      <trkpt lat="49.03881" lon="2.035">
        <ele>59.26</ele>
        <time>2016-07-31T11:36:28Z</time>
      </trkpt>
      <trkpt lat="49.03862" lon="2.03485">
        <ele>58.3</ele>
        <time>2016-07-31T11:36:45Z</time>
      </trkpt>
      <trkpt lat="49.03846" lon="2.03473">
        <ele>57.82</ele>
        <time>2016-07-31T11:37:00Z</time>
      </trkpt>
      <trkpt lat="49.03831" lon="2.03457">
        <ele>56.86</ele>
        <time>2016-07-31T11:37:16Z</time>
      </trkpt>
      <trkpt lat="49.0381" lon="2.03442">
        <ele>56.37</ele>
        <time>2016-07-31T11:37:34Z</time>
      </trkpt>
      <trkpt lat="49.03792" lon="2.03428">
        <ele>55.89</ele>
        <time>2016-07-31T11:37:51Z</time>
      </trkpt>
      <trkpt lat="49.03781" lon="2.0342">
        <ele>55.41</ele>
        <time>2016-07-31T11:38:02Z</time>
      </trkpt>
      <trkpt lat="49.03763" lon="2.034">
        <ele>54.93</ele>
        <time>2016-07-31T11:38:20Z</time>
      </trkpt>
      <trkpt lat="49.03748" lon="2.03381">
        <ele>53.97</ele>
        <time>2016-07-31T11:38:38Z</time>
      </trkpt>
      <trkpt lat="49.03736" lon="2.03361">
        <ele>53.49</ele>
        <time>2016-07-31T11:38:54Z</time>
      </trkpt>
      <trkpt lat="49.03724" lon="2.03335">
        <ele>52.53</ele>
        <time>2016-07-31T11:39:11Z</time>
      </trkpt>
      <trkpt lat="49.03713" lon="2.03301">
        <ele>51.57</ele>
        <time>2016-07-31T11:39:30Z</time>
      </trkpt>
      <trkpt lat="49.03711" lon="2.03294">
        <ele>51.57</ele>
        <time>2016-07-31T11:39:33Z</time>
      </trkpt>
      <trkpt lat="49.03703" lon="2.03268">
        <ele>50.61</ele>
        <time>2016-07-31T11:39:51Z</time>
      </trkpt>
      <trkpt lat="49.03696" lon="2.0324">
        <ele>49.65</ele>
        <time>2016-07-31T11:40:07Z</time>
      </trkpt>
      <trkpt lat="49.03696" lon="2.03216">
        <ele>49.65</ele>
        <time>2016-07-31T11:40:24Z</time>
      </trkpt>
      <trkpt lat="49.03691" lon="2.03184">
        <ele>48.68</ele>
        <time>2016-07-31T11:40:42Z</time>
      </trkpt>
      <trkpt lat="49.03687" lon="2.03153">
        <ele>48.2</ele>
        <time>2016-07-31T11:41:01Z</time>
      </trkpt>
      <trkpt lat="49.03685" lon="2.03132">
        <ele>47.72</ele>
        <time>2016-07-31T11:41:16Z</time>
      </trkpt>
      <trkpt lat="49.03681" lon="2.03105">
        <ele>47.72</ele>
        <time>2016-07-31T11:41:34Z</time>
      </trkpt>
      <trkpt lat="49.03674" lon="2.0308">
        <ele>46.76</ele>
        <time>2016-07-31T11:41:51Z</time>
      </trkpt>
      <trkpt lat="49.03666" lon="2.03048">
        <ele>45.8</ele>
        <time>2016-07-31T11:42:07Z</time>
      </trkpt>
      <trkpt lat="49.03652" lon="2.03019">
        <ele>45.32</ele>
        <time>2016-07-31T11:42:26Z</time>
      </trkpt>
      <trkpt lat="49.03637" lon="2.02997">
        <ele>45.32</ele>
        <time>2016-07-31T11:42:44Z</time>
      </trkpt>
      <trkpt lat="49.03629" lon="2.02991">
        <ele>44.84</ele>
        <time>2016-07-31T11:42:53Z</time>
      </trkpt>
      <trkpt lat="49.03609" lon="2.02975">
        <ele>44.84</ele>
        <time>2016-07-31T11:43:13Z</time>
      </trkpt>
      <trkpt lat="49.0359" lon="2.02965">
        <ele>44.84</ele>
        <time>2016-07-31T11:43:29Z</time>
      </trkpt>
      <trkpt lat="49.03571" lon="2.02964">
        <ele>44.84</ele>
        <time>2016-07-31T11:43:46Z</time>
      </trkpt>
      <trkpt lat="49.03551" lon="2.02965">
        <ele>45.32</ele>
        <time>2016-07-31T11:44:03Z</time>
      </trkpt>
      <trkpt lat="49.03533" lon="2.0297">
        <ele>45.32</ele>
        <time>2016-07-31T11:44:21Z</time>
      </trkpt>
      <trkpt lat="49.03511" lon="2.02987">
        <ele>46.28</ele>
        <time>2016-07-31T11:44:42Z</time>
      </trkpt>
      <trkpt lat="49.03501" lon="2.02997">
        <ele>46.28</ele>
        <time>2016-07-31T11:44:58Z</time>
      </trkpt>
      <trkpt lat="49.03499" lon="2.03011">
        <ele>45.8</ele>
        <time>2016-07-31T11:45:13Z</time>
      </trkpt>
      <trkpt lat="49.03504" lon="2.03027">
        <ele>45.32</ele>
        <time>2016-07-31T11:45:28Z</time>
      </trkpt>
      <trkpt lat="49.03506" lon="2.03027">
        <ele>44.84</ele>
        <time>2016-07-31T11:45:44Z</time>
      </trkpt>
      <trkpt lat="49.03504" lon="2.03042">
        <ele>44.36</ele>
        <time>2016-07-31T11:46:02Z</time>
      </trkpt>
      <trkpt lat="49.03505" lon="2.0304">
        <ele>43.88</ele>
        <time>2016-07-31T11:46:19Z</time>
      </trkpt>
      <trkpt lat="49.03503" lon="2.03042">
        <ele>43.88</ele>
        <time>2016-07-31T11:46:42Z</time>
      </trkpt>
      <trkpt lat="49.03505" lon="2.03044">
        <ele>44.36</ele>
        <time>2016-07-31T11:46:57Z</time>
      </trkpt>
      <trkpt lat="49.03494" lon="2.03074">
        <ele>42.92</ele>
        <time>2016-07-31T11:47:17Z</time>
      </trkpt>
      <trkpt lat="49.0348" lon="2.03108">
        <ele>42.44</ele>
        <time>2016-07-31T11:47:38Z</time>
      </trkpt>
      <trkpt lat="49.0347" lon="2.03127">
        <ele>42.44</ele>
        <time>2016-07-31T11:47:52Z</time>
      </trkpt>
      <trkpt lat="49.0347" lon="2.03128">
        <ele>42.44</ele>
        <time>2016-07-31T11:47:53Z</time>
      </trkpt>
      <trkpt lat="49.03462" lon="2.03133">
        <ele>42.44</ele>
        <time>2016-07-31T11:48:08Z</time>
      </trkpt>
      <trkpt lat="49.03445" lon="2.03132">
        <ele>43.88</ele>
        <time>2016-07-31T11:48:26Z</time>
      </trkpt>
      <trkpt lat="49.03428" lon="2.03132">
        <ele>46.28</ele>
        <time>2016-07-31T11:48:42Z</time>
      </trkpt>
      <trkpt lat="49.03415" lon="2.03136">
        <ele>46.76</ele>
        <time>2016-07-31T11:48:56Z</time>
      </trkpt>
      <trkpt lat="49.03407" lon="2.03144">
        <ele>47.24</ele>
        <time>2016-07-31T11:49:10Z</time>
      </trkpt>
      <trkpt lat="49.03397" lon="2.03149">
        <ele>47.24</ele>
        <time>2016-07-31T11:49:23Z</time>
      </trkpt>
      <trkpt lat="49.0338" lon="2.03155">
        <ele>47.24</ele>
        <time>2016-07-31T11:49:41Z</time>
      </trkpt>
      <trkpt lat="49.03368" lon="2.03151">
        <ele>48.2</ele>
        <time>2016-07-31T11:49:57Z</time>
      </trkpt>
      <trkpt lat="49.03373" lon="2.0313">
        <ele>50.13</ele>
        <time>2016-07-31T11:50:12Z</time>
      </trkpt>
      <trkpt lat="49.03378" lon="2.03113">
        <ele>51.09</ele>
        <time>2016-07-31T11:50:24Z</time>
      </trkpt>
      <trkpt lat="49.03384" lon="2.03092">
        <ele>53.49</ele>
        <time>2016-07-31T11:50:40Z</time>
      </trkpt>
      <trkpt lat="49.03385" lon="2.03089">
        <ele>53.97</ele>
        <time>2016-07-31T11:50:56Z</time>
      </trkpt>
      <trkpt lat="49.03384" lon="2.03085">
        <ele>53.97</ele>
        <time>2016-07-31T11:51:20Z</time>
      </trkpt>
      <trkpt lat="49.03386" lon="2.03076">
        <ele>54.45</ele>
        <time>2016-07-31T11:51:36Z</time>
      </trkpt>
      <trkpt lat="49.03388" lon="2.03068">
        <ele>54.93</ele>
        <time>2016-07-31T11:51:41Z</time>
      </trkpt>
      <trkpt lat="49.03393" lon="2.03062">
        <ele>55.89</ele>
        <time>2016-07-31T11:51:46Z</time>
      </trkpt>
      <trkpt lat="49.03397" lon="2.03039">
        <ele>57.82</ele>
        <time>2016-07-31T11:52:02Z</time>
      </trkpt>
      <trkpt lat="49.03397" lon="2.03034">
        <ele>58.78</ele>
        <time>2016-07-31T11:52:06Z</time>
      </trkpt>
      <trkpt lat="49.03404" lon="2.03002">
        <ele>60.7</ele>
        <time>2016-07-31T11:52:25Z</time>
      </trkpt>
      <trkpt lat="49.03407" lon="2.02994">
        <ele>61.18</ele>
        <time>2016-07-31T11:52:31Z</time>
      </trkpt>
      <trkpt lat="49.03407" lon="2.02962">
        <ele>63.1</ele>
        <time>2016-07-31T11:52:48Z</time>
      </trkpt>
      <trkpt lat="49.03404" lon="2.02946">
        <ele>64.07</ele>
        <time>2016-07-31T11:53:03Z</time>
      </trkpt>
      <trkpt lat="49.03399" lon="2.02915">
        <ele>65.51</ele>
        <time>2016-07-31T11:53:21Z</time>
      </trkpt>
      <trkpt lat="49.03399" lon="2.02909">
        <ele>65.99</ele>
        <time>2016-07-31T11:53:38Z</time>
      </trkpt>
      <trkpt lat="49.03394" lon="2.02906">
        <ele>65.99</ele>
        <time>2016-07-31T11:53:58Z</time>
      </trkpt>
      <trkpt lat="49.03391" lon="2.02894">
        <ele>65.99</ele>
        <time>2016-07-31T11:54:29Z</time>
      </trkpt>
      <trkpt lat="49.03386" lon="2.0287">
        <ele>65.99</ele>
        <time>2016-07-31T11:54:45Z</time>
      </trkpt>
      <trkpt lat="49.03377" lon="2.02845">
        <ele>65.99</ele>
        <time>2016-07-31T11:55:01Z</time>
      </trkpt>
      <trkpt lat="49.03368" lon="2.02831">
        <ele>67.43</ele>
        <time>2016-07-31T11:55:15Z</time>
      </trkpt>
      <trkpt lat="49.03353" lon="2.02809">
        <ele>69.35</ele>
        <time>2016-07-31T11:55:31Z</time>
      </trkpt>
      <trkpt lat="49.03338" lon="2.02787">
        <ele>71.76</ele>
        <time>2016-07-31T11:55:50Z</time>
      </trkpt>
      <trkpt lat="49.03322" lon="2.02765">
        <ele>73.68</ele>
        <time>2016-07-31T11:56:09Z</time>
      </trkpt>
      <trkpt lat="49.03305" lon="2.02746">
        <ele>75.12</ele>
        <time>2016-07-31T11:56:26Z</time>
      </trkpt>
      <trkpt lat="49.03295" lon="2.02749">
        <ele>76.56</ele>
        <time>2016-07-31T11:56:39Z</time>
      </trkpt>
      <trkpt lat="49.03284" lon="2.02767">
        <ele>78.97</ele>
        <time>2016-07-31T11:57:00Z</time>
      </trkpt>
      <trkpt lat="49.03271" lon="2.02776">
        <ele>81.37</ele>
        <time>2016-07-31T11:57:19Z</time>
      </trkpt>
      <trkpt lat="49.03259" lon="2.0279">
        <ele>83.29</ele>
        <time>2016-07-31T11:57:36Z</time>
      </trkpt>
      <trkpt lat="49.03248" lon="2.02799">
        <ele>84.25</ele>
        <time>2016-07-31T11:57:53Z</time>
      </trkpt>
      <trkpt lat="49.03238" lon="2.0281">
        <ele>85.21</ele>
        <time>2016-07-31T11:58:09Z</time>
      </trkpt>
      <trkpt lat="49.03222" lon="2.02824">
        <ele>85.69</ele>
        <time>2016-07-31T11:58:28Z</time>
      </trkpt>
      <trkpt lat="49.03202" lon="2.0284">
        <ele>86.18</ele>
        <time>2016-07-31T11:58:49Z</time>
      </trkpt>
      <trkpt lat="49.03188" lon="2.02855">
        <ele>86.18</ele>
        <time>2016-07-31T11:59:06Z</time>
      </trkpt>
      <trkpt lat="49.03175" lon="2.0286">
        <ele>86.66</ele>
        <time>2016-07-31T11:59:21Z</time>
      </trkpt>
      <trkpt lat="49.03164" lon="2.02865">
        <ele>86.66</ele>
        <time>2016-07-31T11:59:34Z</time>
      </trkpt>
      <trkpt lat="49.03149" lon="2.02869">
        <ele>86.66</ele>
        <time>2016-07-31T11:59:50Z</time>
      </trkpt>
      <trkpt lat="49.03134" lon="2.02876">
        <ele>86.66</ele>
        <time>2016-07-31T12:00:05Z</time>
      </trkpt>
      <trkpt lat="49.03133" lon="2.02876">
        <ele>86.18</ele>
        <time>2016-07-31T12:00:06Z</time>
      </trkpt>
      <trkpt lat="49.03117" lon="2.0288">
        <ele>86.66</ele>
        <time>2016-07-31T12:00:21Z</time>
      </trkpt>
      <trkpt lat="49.031" lon="2.02871">
        <ele>87.14</ele>
        <time>2016-07-31T12:00:38Z</time>
      </trkpt>
      <trkpt lat="49.03096" lon="2.02867">
        <ele>87.62</ele>
        <time>2016-07-31T12:03:21Z</time>
      </trkpt>
      <trkpt lat="49.03088" lon="2.0286">
        <ele>87.62</ele>
        <time>2016-07-31T12:03:36Z</time>
      </trkpt>
      <trkpt lat="49.03082" lon="2.0285">
        <ele>88.58</ele>
        <time>2016-07-31T12:03:48Z</time>
      </trkpt>
      <trkpt lat="49.03084" lon="2.02835">
        <ele>88.1</ele>
        <time>2016-07-31T12:04:02Z</time>
      </trkpt>
      <trkpt lat="49.03083" lon="2.02818">
        <ele>88.1</ele>
        <time>2016-07-31T12:04:55Z</time>
      </trkpt>
      <trkpt lat="49.03084" lon="2.02771">
        <ele>89.06</ele>
        <time>2016-07-31T12:06:12Z</time>
      </trkpt>
      <trkpt lat="49.03083" lon="2.02758">
        <ele>89.06</ele>
        <time>2016-07-31T12:06:24Z</time>
      </trkpt>
      <trkpt lat="49.03082" lon="2.02737">
        <ele>88.58</ele>
        <time>2016-07-31T12:07:06Z</time>
      </trkpt>
      <trkpt lat="49.03083" lon="2.02729">
        <ele>89.06</ele>
        <time>2016-07-31T12:07:20Z</time>
      </trkpt>
      <trkpt lat="49.03082" lon="2.02647">
        <ele>90.02</ele>
        <time>2016-07-31T12:12:04Z</time>
      </trkpt>
      <trkpt lat="49.03083" lon="2.02657">
        <ele>90.02</ele>
        <time>2016-07-31T12:12:31Z</time>
      </trkpt>
      <trkpt lat="49.03083" lon="2.02742">
        <ele>89.54</ele>
        <time>2016-07-31T12:13:29Z</time>
      </trkpt>
      <trkpt lat="49.03083" lon="2.02829">
        <ele>88.58</ele>
        <time>2016-07-31T12:14:44Z</time>
      </trkpt>
      <trkpt lat="49.03083" lon="2.02857">
        <ele>88.58</ele>
        <time>2016-07-31T12:15:00Z</time>
      </trkpt>
      <trkpt lat="49.03084" lon="2.02883">
        <ele>87.62</ele>
        <time>2016-07-31T12:15:15Z</time>
      </trkpt>
      <trkpt lat="49.03087" lon="2.02897">
        <ele>87.62</ele>
        <time>2016-07-31T12:15:26Z</time>
      </trkpt>
      <trkpt lat="49.03087" lon="2.02917">
        <ele>84.73</ele>
        <time>2016-07-31T12:15:42Z</time>
      </trkpt>
      <trkpt lat="49.03089" lon="2.02936">
        <ele>83.29</ele>
        <time>2016-07-31T12:15:57Z</time>
      </trkpt>
      <trkpt lat="49.03088" lon="2.02945">
        <ele>82.33</ele>
        <time>2016-07-31T12:16:11Z</time>
      </trkpt>
      <trkpt lat="49.03089" lon="2.02941">
        <ele>82.33</ele>
        <time>2016-07-31T12:16:25Z</time>
      </trkpt>
      <trkpt lat="49.03102" lon="2.02934">
        <ele>82.81</ele>
        <time>2016-07-31T12:16:49Z</time>
      </trkpt>
      <trkpt lat="49.03105" lon="2.02933">
        <ele>82.81</ele>
        <time>2016-07-31T12:17:08Z</time>
      </trkpt>
      <trkpt lat="49.03123" lon="2.02938">
        <ele>81.37</ele>
        <time>2016-07-31T12:17:24Z</time>
      </trkpt>
      <trkpt lat="49.03128" lon="2.02944">
        <ele>80.89</ele>
        <time>2016-07-31T12:17:40Z</time>
      </trkpt>
      <trkpt lat="49.0313" lon="2.0296">
        <ele>78.48</ele>
        <time>2016-07-31T12:17:54Z</time>
      </trkpt>
      <trkpt lat="49.03129" lon="2.0297">
        <ele>75.6</ele>
        <time>2016-07-31T12:18:05Z</time>
      </trkpt>
      <trkpt lat="49.0313" lon="2.02982">
        <ele>72.24</ele>
        <time>2016-07-31T12:18:21Z</time>
      </trkpt>
      <trkpt lat="49.03124" lon="2.02988">
        <ele>69.35</ele>
        <time>2016-07-31T12:18:33Z</time>
      </trkpt>
      <trkpt lat="49.03124" lon="2.02995">
        <ele>67.43</ele>
        <time>2016-07-31T12:18:46Z</time>
      </trkpt>
      <trkpt lat="49.03123" lon="2.03016">
        <ele>64.07</ele>
        <time>2016-07-31T12:19:00Z</time>
      </trkpt>
      <trkpt lat="49.03122" lon="2.03021">
        <ele>63.1</ele>
        <time>2016-07-31T12:19:03Z</time>
      </trkpt>
      <trkpt lat="49.03122" lon="2.03028">
        <ele>62.14</ele>
        <time>2016-07-31T12:19:07Z</time>
      </trkpt>
      <trkpt lat="49.0312" lon="2.03054">
        <ele>58.78</ele>
        <time>2016-07-31T12:19:23Z</time>
      </trkpt>
      <trkpt lat="49.03108" lon="2.03057">
        <ele>58.78</ele>
        <time>2016-07-31T12:19:38Z</time>
      </trkpt>
      <trkpt lat="49.03095" lon="2.03054">
        <ele>58.78</ele>
        <time>2016-07-31T12:19:54Z</time>
      </trkpt>
      <trkpt lat="49.03087" lon="2.03054">
        <ele>58.3</ele>
        <time>2016-07-31T12:20:20Z</time>
      </trkpt>
      <trkpt lat="49.03082" lon="2.03051">
        <ele>58.3</ele>
        <time>2016-07-31T12:20:45Z</time>
      </trkpt>
      <trkpt lat="49.03064" lon="2.03052">
        <ele>57.82</ele>
        <time>2016-07-31T12:21:07Z</time>
      </trkpt>
      <trkpt lat="49.0305" lon="2.03057">
        <ele>58.3</ele>
        <time>2016-07-31T12:21:28Z</time>
      </trkpt>
      <trkpt lat="49.03033" lon="2.03065">
        <ele>57.82</ele>
        <time>2016-07-31T12:21:50Z</time>
      </trkpt>
      <trkpt lat="49.03013" lon="2.03073">
        <ele>58.78</ele>
        <time>2016-07-31T12:22:13Z</time>
      </trkpt>
      <trkpt lat="49.02997" lon="2.03077">
        <ele>58.78</ele>
        <time>2016-07-31T12:22:33Z</time>
      </trkpt>
      <trkpt lat="49.02992" lon="2.0308">
        <ele>58.3</ele>
        <time>2016-07-31T12:24:36Z</time>
      </trkpt>
      <trkpt lat="49.02983" lon="2.03082">
        <ele>58.3</ele>
        <time>2016-07-31T12:25:02Z</time>
      </trkpt>
      <trkpt lat="49.02977" lon="2.03085">
        <ele>58.3</ele>
        <time>2016-07-31T12:25:21Z</time>
      </trkpt>
      <trkpt lat="49.02972" lon="2.03088">
        <ele>59.26</ele>
        <time>2016-07-31T12:25:33Z</time>
      </trkpt>
      <trkpt lat="49.0295" lon="2.03095">
        <ele>58.78</ele>
        <time>2016-07-31T12:25:54Z</time>
      </trkpt>
      <trkpt lat="49.02928" lon="2.03099">
        <ele>58.78</ele>
        <time>2016-07-31T12:26:12Z</time>
      </trkpt>
      <trkpt lat="49.0291" lon="2.03102">
        <ele>58.78</ele>
        <time>2016-07-31T12:26:29Z</time>
      </trkpt>
      <trkpt lat="49.029" lon="2.03105">
        <ele>58.78</ele>
        <time>2016-07-31T12:26:43Z</time>
      </trkpt>
      <trkpt lat="49.02881" lon="2.03112">
        <ele>59.26</ele>
        <time>2016-07-31T12:27:00Z</time>
      </trkpt>
      <trkpt lat="49.02862" lon="2.03128">
        <ele>58.78</ele>
        <time>2016-07-31T12:27:19Z</time>
      </trkpt>
      <trkpt lat="49.02847" lon="2.03136">
        <ele>58.78</ele>
        <time>2016-07-31T12:27:35Z</time>
      </trkpt>
      <trkpt lat="49.02824" lon="2.03146">
        <ele>58.3</ele>
        <time>2016-07-31T12:27:56Z</time>
      </trkpt>
      <trkpt lat="49.0281" lon="2.03153">
        <ele>57.82</ele>
        <time>2016-07-31T12:28:11Z</time>
      </trkpt>
      <trkpt lat="49.02794" lon="2.0316">
        <ele>57.82</ele>
        <time>2016-07-31T12:28:28Z</time>
      </trkpt>
      <trkpt lat="49.02778" lon="2.03183">
        <ele>57.34</ele>
        <time>2016-07-31T12:28:43Z</time>
      </trkpt>
      <trkpt lat="49.02772" lon="2.03174">
        <ele>58.78</ele>
        <time>2016-07-31T12:28:58Z</time>
      </trkpt>
      <trkpt lat="49.02764" lon="2.03152">
        <ele>61.18</ele>
        <time>2016-07-31T12:29:15Z</time>
      </trkpt>
      <trkpt lat="49.02759" lon="2.03134">
        <ele>63.1</ele>
        <time>2016-07-31T12:29:29Z</time>
      </trkpt>
      <trkpt lat="49.02747" lon="2.03123">
        <ele>65.51</ele>
        <time>2016-07-31T12:29:44Z</time>
      </trkpt>
      <trkpt lat="49.0273" lon="2.03123">
        <ele>67.91</ele>
        <time>2016-07-31T12:30:03Z</time>
      </trkpt>
      <trkpt lat="49.02712" lon="2.03127">
        <ele>70.31</ele>
        <time>2016-07-31T12:30:19Z</time>
      </trkpt>
      <trkpt lat="49.02695" lon="2.03129">
        <ele>73.2</ele>
        <time>2016-07-31T12:30:36Z</time>
      </trkpt>
      <trkpt lat="49.02682" lon="2.03134">
        <ele>76.56</ele>
        <time>2016-07-31T12:30:51Z</time>
      </trkpt>
      <trkpt lat="49.02669" lon="2.03133">
        <ele>78.97</ele>
        <time>2016-07-31T12:31:07Z</time>
      </trkpt>
      <trkpt lat="49.02656" lon="2.03131">
        <ele>81.85</ele>
        <time>2016-07-31T12:31:22Z</time>
      </trkpt>
      <trkpt lat="49.02641" lon="2.03129">
        <ele>85.21</ele>
        <time>2016-07-31T12:31:39Z</time>
      </trkpt>
      <trkpt lat="49.02636" lon="2.03107">
        <ele>87.14</ele>
        <time>2016-07-31T12:31:54Z</time>
      </trkpt>
      <trkpt lat="49.02636" lon="2.03103">
        <ele>87.14</ele>
        <time>2016-07-31T12:31:57Z</time>
      </trkpt>
      <trkpt lat="49.02633" lon="2.03079">
        <ele>90.02</ele>
        <time>2016-07-31T12:32:14Z</time>
      </trkpt>
      <trkpt lat="49.02624" lon="2.03065">
        <ele>91.46</ele>
        <time>2016-07-31T12:32:30Z</time>
      </trkpt>
      <trkpt lat="49.02618" lon="2.03072">
        <ele>90.98</ele>
        <time>2016-07-31T12:32:51Z</time>
      </trkpt>
      <trkpt lat="49.02619" lon="2.03063">
        <ele>90.98</ele>
        <time>2016-07-31T12:33:18Z</time>
      </trkpt>
      <trkpt lat="49.0262" lon="2.03062">
        <ele>90.98</ele>
        <time>2016-07-31T12:33:48Z</time>
      </trkpt>
      <trkpt lat="49.02621" lon="2.03064">
        <ele>90.98</ele>
        <time>2016-07-31T12:34:14Z</time>
      </trkpt>
      <trkpt lat="49.02621" lon="2.03064">
        <ele>90.98</ele>
        <time>2016-07-31T12:34:37Z</time>
      </trkpt>
      <trkpt lat="49.02618" lon="2.0306">
        <ele>90.98</ele>
        <time>2016-07-31T12:35:04Z</time>
      </trkpt>
      <trkpt lat="49.02621" lon="2.0306">
        <ele>90.98</ele>
        <time>2016-07-31T12:35:30Z</time>
      </trkpt>
      <trkpt lat="49.02621" lon="2.03064">
        <ele>91.46</ele>
        <time>2016-07-31T12:35:50Z</time>
      </trkpt>
      <trkpt lat="49.02622" lon="2.03069">
        <ele>91.94</ele>
        <time>2016-07-31T12:36:12Z</time>
      </trkpt>
      <trkpt lat="49.0262" lon="2.03068">
        <ele>90.98</ele>
        <time>2016-07-31T12:36:27Z</time>
      </trkpt>
      <trkpt lat="49.02608" lon="2.03074">
        <ele>90.98</ele>
        <time>2016-07-31T12:36:47Z</time>
      </trkpt>
      <trkpt lat="49.02602" lon="2.03076">
        <ele>90.5</ele>
        <time>2016-07-31T12:36:53Z</time>
      </trkpt>
      <trkpt lat="49.02588" lon="2.03089">
        <ele>90.02</ele>
        <time>2016-07-31T12:37:10Z</time>
      </trkpt>
      <trkpt lat="49.02568" lon="2.03101">
        <ele>90.02</ele>
        <time>2016-07-31T12:37:28Z</time>
      </trkpt>
      <trkpt lat="49.02564" lon="2.03104">
        <ele>90.02</ele>
        <time>2016-07-31T12:37:38Z</time>
      </trkpt>
      <trkpt lat="49.02558" lon="2.03102">
        <ele>90.02</ele>
        <time>2016-07-31T12:37:50Z</time>
      </trkpt>
      <trkpt lat="49.02555" lon="2.03103">
        <ele>90.02</ele>
        <time>2016-07-31T12:37:55Z</time>
      </trkpt>
      <trkpt lat="49.02553" lon="2.03102">
        <ele>90.02</ele>
        <time>2016-07-31T12:37:57Z</time>
      </trkpt>
      <trkpt lat="49.02535" lon="2.03097">
        <ele>90.02</ele>
        <time>2016-07-31T12:38:16Z</time>
      </trkpt>
      <trkpt lat="49.02519" lon="2.03095">
        <ele>90.02</ele>
        <time>2016-07-31T12:38:32Z</time>
      </trkpt>
      <trkpt lat="49.02507" lon="2.03097">
        <ele>90.02</ele>
        <time>2016-07-31T12:38:44Z</time>
      </trkpt>
      <trkpt lat="49.02501" lon="2.03099">
        <ele>90.02</ele>
        <time>2016-07-31T12:38:50Z</time>
      </trkpt>
      <trkpt lat="49.02482" lon="2.03111">
        <ele>90.02</ele>
        <time>2016-07-31T12:39:09Z</time>
      </trkpt>
      <trkpt lat="49.02465" lon="2.03121">
        <ele>90.02</ele>
        <time>2016-07-31T12:39:27Z</time>
      </trkpt>
      <trkpt lat="49.02448" lon="2.03132">
        <ele>90.02</ele>
        <time>2016-07-31T12:39:46Z</time>
      </trkpt>
      <trkpt lat="49.02433" lon="2.0314">
        <ele>90.5</ele>
        <time>2016-07-31T12:40:01Z</time>
      </trkpt>
      <trkpt lat="49.02414" lon="2.03152">
        <ele>90.02</ele>
        <time>2016-07-31T12:40:19Z</time>
      </trkpt>
      <trkpt lat="49.02401" lon="2.03161">
        <ele>89.54</ele>
        <time>2016-07-31T12:40:33Z</time>
      </trkpt>
      <trkpt lat="49.02386" lon="2.0317">
        <ele>90.02</ele>
        <time>2016-07-31T12:40:49Z</time>
      </trkpt>
      <trkpt lat="49.02376" lon="2.03179">
        <ele>90.02</ele>
        <time>2016-07-31T12:41:00Z</time>
      </trkpt>
      <trkpt lat="49.02373" lon="2.03202">
        <ele>89.54</ele>
        <time>2016-07-31T12:41:12Z</time>
      </trkpt>
      <trkpt lat="49.02376" lon="2.03235">
        <ele>89.06</ele>
        <time>2016-07-31T12:41:31Z</time>
      </trkpt>
      <trkpt lat="49.0238" lon="2.03255">
        <ele>88.58</ele>
        <time>2016-07-31T12:41:46Z</time>
      </trkpt>
      <trkpt lat="49.02382" lon="2.03261">
        <ele>89.06</ele>
        <time>2016-07-31T12:41:59Z</time>
      </trkpt>
      <trkpt lat="49.02385" lon="2.03288">
        <ele>88.58</ele>
        <time>2016-07-31T12:42:17Z</time>
      </trkpt>
      <trkpt lat="49.02385" lon="2.03289">
        <ele>89.06</ele>
        <time>2016-07-31T12:42:35Z</time>
      </trkpt>
      <trkpt lat="49.02386" lon="2.0329">
        <ele>88.58</ele>
        <time>2016-07-31T12:43:04Z</time>
      </trkpt>
      <trkpt lat="49.02385" lon="2.0329">
        <ele>88.58</ele>
        <time>2016-07-31T12:43:23Z</time>
      </trkpt>
      <trkpt lat="49.02381" lon="2.03288">
        <ele>88.58</ele>
        <time>2016-07-31T12:43:27Z</time>
      </trkpt>
      <trkpt lat="49.02376" lon="2.03294">
        <ele>87.62</ele>
        <time>2016-07-31T12:43:40Z</time>
      </trkpt>
      <trkpt lat="49.02376" lon="2.03291">
        <ele>87.62</ele>
        <time>2016-07-31T12:44:06Z</time>
      </trkpt>
      <trkpt lat="49.0238" lon="2.03284">
        <ele>88.1</ele>
        <time>2016-07-31T12:44:26Z</time>
      </trkpt>
      <trkpt lat="49.02374" lon="2.03284">
        <ele>87.62</ele>
        <time>2016-07-31T12:44:28Z</time>
      </trkpt>
      <trkpt lat="49.02365" lon="2.03272">
        <ele>88.1</ele>
        <time>2016-07-31T12:44:44Z</time>
      </trkpt>
      <trkpt lat="49.0235" lon="2.03265">
        <ele>87.62</ele>
        <time>2016-07-31T12:44:56Z</time>
      </trkpt>
      <trkpt lat="49.02335" lon="2.03272">
        <ele>87.62</ele>
        <time>2016-07-31T12:45:12Z</time>
      </trkpt>
      <trkpt lat="49.0232" lon="2.03282">
        <ele>87.62</ele>
        <time>2016-07-31T12:45:29Z</time>
      </trkpt>
      <trkpt lat="49.0231" lon="2.03297">
        <ele>88.1</ele>
        <time>2016-07-31T12:45:47Z</time>
      </trkpt>
      <trkpt lat="49.02302" lon="2.03313">
        <ele>88.1</ele>
        <time>2016-07-31T12:46:01Z</time>
      </trkpt>
      <trkpt lat="49.02301" lon="2.0333">
        <ele>87.62</ele>
        <time>2016-07-31T12:46:17Z</time>
      </trkpt>
      <trkpt lat="49.02297" lon="2.03351">
        <ele>86.66</ele>
        <time>2016-07-31T12:46:31Z</time>
      </trkpt>
      <trkpt lat="49.02291" lon="2.03368">
        <ele>86.66</ele>
        <time>2016-07-31T12:46:46Z</time>
      </trkpt>
      <trkpt lat="49.02279" lon="2.03387">
        <ele>85.69</ele>
        <time>2016-07-31T12:47:05Z</time>
      </trkpt>
      <trkpt lat="49.02265" lon="2.03402">
        <ele>84.73</ele>
        <time>2016-07-31T12:47:24Z</time>
      </trkpt>
      <trkpt lat="49.02266" lon="2.03403">
        <ele>84.73</ele>
        <time>2016-07-31T12:47:44Z</time>
      </trkpt>
      <trkpt lat="49.02252" lon="2.03412">
        <ele>83.77</ele>
        <time>2016-07-31T12:47:57Z</time>
      </trkpt>
      <trkpt lat="49.02229" lon="2.03429">
        <ele>82.33</ele>
        <time>2016-07-31T12:48:18Z</time>
      </trkpt>
      <trkpt lat="49.02214" lon="2.03459">
        <ele>80.41</ele>
        <time>2016-07-31T12:48:38Z</time>
      </trkpt>
      <trkpt lat="49.0221" lon="2.03478">
        <ele>78.97</ele>
        <time>2016-07-31T12:48:53Z</time>
      </trkpt>
      <trkpt lat="49.02208" lon="2.03481">
        <ele>78.48</ele>
        <time>2016-07-31T12:49:07Z</time>
      </trkpt>
      <trkpt lat="49.02205" lon="2.03485">
        <ele>78.48</ele>
        <time>2016-07-31T12:49:21Z</time>
      </trkpt>
      <trkpt lat="49.022" lon="2.03507">
        <ele>77.52</ele>
        <time>2016-07-31T12:49:36Z</time>
      </trkpt>
      <trkpt lat="49.02188" lon="2.03529">
        <ele>77.52</ele>
        <time>2016-07-31T12:49:53Z</time>
      </trkpt>
      <trkpt lat="49.02183" lon="2.03534">
        <ele>77.04</ele>
        <time>2016-07-31T12:49:59Z</time>
      </trkpt>
      <trkpt lat="49.02178" lon="2.03542">
        <ele>77.04</ele>
        <time>2016-07-31T12:50:05Z</time>
      </trkpt>
      <trkpt lat="49.02163" lon="2.03556">
        <ele>76.56</ele>
        <time>2016-07-31T12:50:21Z</time>
      </trkpt>
      <trkpt lat="49.02149" lon="2.03571">
        <ele>77.04</ele>
        <time>2016-07-31T12:50:36Z</time>
      </trkpt>
      <trkpt lat="49.02147" lon="2.03574">
        <ele>76.56</ele>
        <time>2016-07-31T12:50:38Z</time>
      </trkpt>
      <trkpt lat="49.02143" lon="2.03576">
        <ele>76.56</ele>
        <time>2016-07-31T12:50:54Z</time>
      </trkpt>
      <trkpt lat="49.0213" lon="2.03592">
        <ele>76.08</ele>
        <time>2016-07-31T12:51:09Z</time>
      </trkpt>
      <trkpt lat="49.02115" lon="2.03609">
        <ele>76.08</ele>
        <time>2016-07-31T12:51:25Z</time>
      </trkpt>
      <trkpt lat="49.02098" lon="2.0363">
        <ele>74.64</ele>
        <time>2016-07-31T12:51:43Z</time>
      </trkpt>
      <trkpt lat="49.02081" lon="2.03649">
        <ele>73.68</ele>
        <time>2016-07-31T12:52:02Z</time>
      </trkpt>
      <trkpt lat="49.02067" lon="2.03667">
        <ele>73.2</ele>
        <time>2016-07-31T12:52:18Z</time>
      </trkpt>
      <trkpt lat="49.02062" lon="2.03679">
        <ele>72.24</ele>
        <time>2016-07-31T12:52:32Z</time>
      </trkpt>
      <trkpt lat="49.02057" lon="2.03696">
        <ele>70.79</ele>
        <time>2016-07-31T12:52:50Z</time>
      </trkpt>
      <trkpt lat="49.0205" lon="2.03712">
        <ele>69.83</ele>
        <time>2016-07-31T12:53:06Z</time>
      </trkpt>
      <trkpt lat="49.02039" lon="2.03737">
        <ele>67.43</ele>
        <time>2016-07-31T12:53:23Z</time>
      </trkpt>
      <trkpt lat="49.02024" lon="2.03759">
        <ele>65.03</ele>
        <time>2016-07-31T12:53:41Z</time>
      </trkpt>
      <trkpt lat="49.02026" lon="2.03759">
        <ele>65.03</ele>
        <time>2016-07-31T12:54:03Z</time>
      </trkpt>
      <trkpt lat="49.02024" lon="2.03786">
        <ele>61.66</ele>
        <time>2016-07-31T12:54:20Z</time>
      </trkpt>
      <trkpt lat="49.02024" lon="2.03797">
        <ele>61.18</ele>
        <time>2016-07-31T12:54:27Z</time>
      </trkpt>
      <trkpt lat="49.02027" lon="2.0382">
        <ele>57.82</ele>
        <time>2016-07-31T12:54:43Z</time>
      </trkpt>
      <trkpt lat="49.02029" lon="2.03839">
        <ele>54.93</ele>
        <time>2016-07-31T12:54:59Z</time>
      </trkpt>
      <trkpt lat="49.02027" lon="2.03858">
        <ele>51.57</ele>
        <time>2016-07-31T12:55:13Z</time>
      </trkpt>
      <trkpt lat="49.02022" lon="2.03881">
        <ele>49.65</ele>
        <time>2016-07-31T12:55:29Z</time>
      </trkpt>
      <trkpt lat="49.02023" lon="2.03883">
        <ele>49.16</ele>
        <time>2016-07-31T12:55:40Z</time>
      </trkpt>
      <trkpt lat="49.0202" lon="2.03879">
        <ele>49.16</ele>
        <time>2016-07-31T12:56:00Z</time>
      </trkpt>
      <trkpt lat="49.02018" lon="2.03881">
        <ele>48.68</ele>
        <time>2016-07-31T12:56:23Z</time>
      </trkpt>
      <trkpt lat="49.02022" lon="2.03893">
        <ele>47.72</ele>
        <time>2016-07-31T12:56:44Z</time>
      </trkpt>
      <trkpt lat="49.02021" lon="2.03908">
        <ele>45.8</ele>
        <time>2016-07-31T12:56:55Z</time>
      </trkpt>
      <trkpt lat="49.02018" lon="2.03932">
        <ele>42.44</ele>
        <time>2016-07-31T12:57:12Z</time>
      </trkpt>
      <trkpt lat="49.02017" lon="2.03947">
        <ele>40.99</ele>
        <time>2016-07-31T12:57:21Z</time>
      </trkpt>
      <trkpt lat="49.02016" lon="2.03966">
        <ele>39.55</ele>
        <time>2016-07-31T12:57:31Z</time>
      </trkpt>
      <trkpt lat="49.02012" lon="2.03988">
        <ele>38.11</ele>
        <time>2016-07-31T12:57:45Z</time>
      </trkpt>
      <trkpt lat="49.02003" lon="2.03995">
        <ele>36.67</ele>
        <time>2016-07-31T12:58:00Z</time>
      </trkpt>
      <trkpt lat="49.01991" lon="2.03993">
        <ele>34.26</ele>
        <time>2016-07-31T12:58:16Z</time>
      </trkpt>
      <trkpt lat="49.01988" lon="2.03997">
        <ele>34.26</ele>
        <time>2016-07-31T12:58:25Z</time>
      </trkpt>
      <trkpt lat="49.0198" lon="2.03998">
        <ele>32.82</ele>
        <time>2016-07-31T12:58:31Z</time>
      </trkpt>
      <trkpt lat="49.01962" lon="2.04005">
        <ele>30.42</ele>
        <time>2016-07-31T12:58:50Z</time>
      </trkpt>
      <trkpt lat="49.01962" lon="2.04007">
        <ele>29.94</ele>
        <time>2016-07-31T12:58:54Z</time>
      </trkpt>
      <trkpt lat="49.01949" lon="2.04037">
        <ele>28.5</ele>
        <time>2016-07-31T12:59:13Z</time>
      </trkpt>
      <trkpt lat="49.01934" lon="2.04063">
        <ele>27.05</ele>
        <time>2016-07-31T12:59:32Z</time>
      </trkpt>
      <trkpt lat="49.01929" lon="2.04087">
        <ele>27.05</ele>
        <time>2016-07-31T12:59:49Z</time>
      </trkpt>
      <trkpt lat="49.01928" lon="2.04088">
        <ele>27.05</ele>
        <time>2016-07-31T13:00:04Z</time>
      </trkpt>
      <trkpt lat="49.01923" lon="2.04098">
        <ele>27.05</ele>
        <time>2016-07-31T13:00:12Z</time>
      </trkpt>
      <trkpt lat="49.0191" lon="2.0412">
        <ele>29.46</ele>
        <time>2016-07-31T13:00:30Z</time>
      </trkpt>
      <trkpt lat="49.01899" lon="2.04135">
        <ele>31.38</ele>
        <time>2016-07-31T13:00:45Z</time>
      </trkpt>
      <trkpt lat="49.01886" lon="2.04151">
        <ele>33.78</ele>
        <time>2016-07-31T13:01:03Z</time>
      </trkpt>
      <trkpt lat="49.01872" lon="2.04172">
        <ele>35.71</ele>
        <time>2016-07-31T13:01:22Z</time>
      </trkpt>
      <trkpt lat="49.01863" lon="2.0419">
        <ele>37.15</ele>
        <time>2016-07-31T13:01:37Z</time>
      </trkpt>
      <trkpt lat="49.01857" lon="2.04208">
        <ele>37.63</ele>
        <time>2016-07-31T13:01:51Z</time>
      </trkpt>
      <trkpt lat="49.01844" lon="2.04219">
        <ele>37.63</ele>
        <time>2016-07-31T13:02:09Z</time>
      </trkpt>
      <trkpt lat="49.0184" lon="2.04225">
        <ele>38.11</ele>
        <time>2016-07-31T13:02:25Z</time>
      </trkpt>
      <trkpt lat="49.01835" lon="2.04228">
        <ele>38.11</ele>
        <time>2016-07-31T13:02:29Z</time>
      </trkpt>
      <trkpt lat="49.01817" lon="2.04244">
        <ele>38.59</ele>
        <time>2016-07-31T13:02:47Z</time>
      </trkpt>
      <trkpt lat="49.01802" lon="2.04259">
        <ele>39.07</ele>
        <time>2016-07-31T13:03:04Z</time>
      </trkpt>
      <trkpt lat="49.01783" lon="2.04277">
        <ele>39.07</ele>
        <time>2016-07-31T13:03:22Z</time>
      </trkpt>
      <trkpt lat="49.01773" lon="2.04286">
        <ele>40.03</ele>
        <time>2016-07-31T13:03:32Z</time>
      </trkpt>
      <trkpt lat="49.01758" lon="2.04299">
        <ele>40.03</ele>
        <time>2016-07-31T13:03:48Z</time>
      </trkpt>
      <trkpt lat="49.01749" lon="2.04308">
        <ele>40.51</ele>
        <time>2016-07-31T13:03:57Z</time>
      </trkpt>
      <trkpt lat="49.01735" lon="2.04327">
        <ele>41.47</ele>
        <time>2016-07-31T13:04:16Z</time>
      </trkpt>
      <trkpt lat="49.0172" lon="2.04345">
        <ele>41.95</ele>
        <time>2016-07-31T13:04:32Z</time>
      </trkpt>
      <trkpt lat="49.01707" lon="2.04358">
        <ele>42.44</ele>
        <time>2016-07-31T13:04:47Z</time>
      </trkpt>
      <trkpt lat="49.01694" lon="2.04374">
        <ele>42.44</ele>
        <time>2016-07-31T13:05:01Z</time>
      </trkpt>
      <trkpt lat="49.01681" lon="2.04396">
        <ele>42.92</ele>
        <time>2016-07-31T13:05:17Z</time>
      </trkpt>
      <trkpt lat="49.01668" lon="2.0441">
        <ele>43.4</ele>
        <time>2016-07-31T13:05:31Z</time>
      </trkpt>
      <trkpt lat="49.01651" lon="2.04438">
        <ele>43.88</ele>
        <time>2016-07-31T13:05:51Z</time>
      </trkpt>
      <trkpt lat="49.01637" lon="2.04454">
        <ele>44.36</ele>
        <time>2016-07-31T13:06:06Z</time>
      </trkpt>
      <trkpt lat="49.01627" lon="2.04471">
        <ele>44.84</ele>
        <time>2016-07-31T13:06:20Z</time>
      </trkpt>
      <trkpt lat="49.01611" lon="2.04497">
        <ele>45.32</ele>
        <time>2016-07-31T13:06:39Z</time>
      </trkpt>
      <trkpt lat="49.01599" lon="2.04515">
        <ele>45.32</ele>
        <time>2016-07-31T13:06:55Z</time>
      </trkpt>
      <trkpt lat="49.01587" lon="2.04534">
        <ele>45.32</ele>
        <time>2016-07-31T13:07:11Z</time>
      </trkpt>
      <trkpt lat="49.01583" lon="2.04539">
        <ele>45.32</ele>
        <time>2016-07-31T13:07:15Z</time>
      </trkpt>
      <trkpt lat="49.01569" lon="2.0456">
        <ele>45.8</ele>
        <time>2016-07-31T13:07:31Z</time>
      </trkpt>
      <trkpt lat="49.01566" lon="2.04563">
        <ele>45.8</ele>
        <time>2016-07-31T13:07:34Z</time>
      </trkpt>
      <trkpt lat="49.0156" lon="2.04588">
        <ele>45.32</ele>
        <time>2016-07-31T13:07:52Z</time>
      </trkpt>
      <trkpt lat="49.01562" lon="2.04593">
        <ele>45.8</ele>
        <time>2016-07-31T13:08:07Z</time>
      </trkpt>
      <trkpt lat="49.01562" lon="2.04592">
        <ele>45.8</ele>
        <time>2016-07-31T13:08:30Z</time>
      </trkpt>
      <trkpt lat="49.01564" lon="2.04586">
        <ele>45.8</ele>
        <time>2016-07-31T13:08:58Z</time>
      </trkpt>
      <trkpt lat="49.0156" lon="2.0459">
        <ele>45.8</ele>
        <time>2016-07-31T13:09:13Z</time>
      </trkpt>
      <trkpt lat="49.01562" lon="2.04593">
        <ele>45.32</ele>
        <time>2016-07-31T13:09:35Z</time>
      </trkpt>
      <trkpt lat="49.01563" lon="2.04593">
        <ele>45.32</ele>
        <time>2016-07-31T13:10:03Z</time>
      </trkpt>
      <trkpt lat="49.01558" lon="2.04595">
        <ele>45.32</ele>
        <time>2016-07-31T13:10:33Z</time>
      </trkpt>
      <trkpt lat="49.01557" lon="2.04589">
        <ele>45.32</ele>
        <time>2016-07-31T13:10:50Z</time>
      </trkpt>
      <trkpt lat="49.01562" lon="2.04594">
        <ele>45.8</ele>
        <time>2016-07-31T13:11:04Z</time>
      </trkpt>
      <trkpt lat="49.01559" lon="2.04595">
        <ele>45.32</ele>
        <time>2016-07-31T13:11:12Z</time>
      </trkpt>
      <trkpt lat="49.01552" lon="2.046">
        <ele>44.84</ele>
        <time>2016-07-31T13:11:20Z</time>
      </trkpt>
      <trkpt lat="49.0155" lon="2.04612">
        <ele>43.4</ele>
        <time>2016-07-31T13:11:34Z</time>
      </trkpt>
      <trkpt lat="49.01549" lon="2.04616">
        <ele>42.92</ele>
        <time>2016-07-31T13:11:37Z</time>
      </trkpt>
      <trkpt lat="49.01559" lon="2.04635">
        <ele>39.55</ele>
        <time>2016-07-31T13:11:53Z</time>
      </trkpt>
      <trkpt lat="49.01568" lon="2.04646">
        <ele>39.55</ele>
        <time>2016-07-31T13:12:05Z</time>
      </trkpt>
      <trkpt lat="49.01578" lon="2.04658">
        <ele>39.55</ele>
        <time>2016-07-31T13:12:22Z</time>
      </trkpt>
      <trkpt lat="49.01578" lon="2.04655">
        <ele>39.55</ele>
        <time>2016-07-31T13:12:40Z</time>
      </trkpt>
      <trkpt lat="49.01579" lon="2.04655">
        <ele>39.07</ele>
        <time>2016-07-31T13:13:04Z</time>
      </trkpt>
      <trkpt lat="49.01581" lon="2.04663">
        <ele>37.63</ele>
        <time>2016-07-31T13:13:11Z</time>
      </trkpt>
      <trkpt lat="49.01578" lon="2.04673">
        <ele>37.15</ele>
        <time>2016-07-31T13:13:27Z</time>
      </trkpt>
      <trkpt lat="49.01578" lon="2.04674">
        <ele>37.15</ele>
        <time>2016-07-31T13:13:28Z</time>
      </trkpt>
      <trkpt lat="49.0159" lon="2.04676">
        <ele>36.19</ele>
        <time>2016-07-31T13:13:43Z</time>
      </trkpt>
      <trkpt lat="49.01587" lon="2.04668">
        <ele>35.71</ele>
        <time>2016-07-31T13:14:05Z</time>
      </trkpt>
      <trkpt lat="49.01591" lon="2.0467">
        <ele>35.23</ele>
        <time>2016-07-31T13:14:24Z</time>
      </trkpt>
      <trkpt lat="49.01593" lon="2.04664">
        <ele>35.23</ele>
        <time>2016-07-31T13:14:50Z</time>
      </trkpt>
      <trkpt lat="49.01591" lon="2.04668">
        <ele>35.23</ele>
        <time>2016-07-31T13:14:55Z</time>
      </trkpt>
      <trkpt lat="49.016" lon="2.04652">
        <ele>34.26</ele>
        <time>2016-07-31T13:15:10Z</time>
      </trkpt>
      <trkpt lat="49.01608" lon="2.04648">
        <ele>32.82</ele>
        <time>2016-07-31T13:15:26Z</time>
      </trkpt>
      <trkpt lat="49.01621" lon="2.0465">
        <ele>32.34</ele>
        <time>2016-07-31T13:15:41Z</time>
      </trkpt>
      <trkpt lat="49.01628" lon="2.04644">
        <ele>31.86</ele>
        <time>2016-07-31T13:15:56Z</time>
      </trkpt>
      <trkpt lat="49.0163" lon="2.04657">
        <ele>29.94</ele>
        <time>2016-07-31T13:16:08Z</time>
      </trkpt>
      <trkpt lat="49.01629" lon="2.04659">
        <ele>30.42</ele>
        <time>2016-07-31T13:16:22Z</time>
      </trkpt>
      <trkpt lat="49.01636" lon="2.0465">
        <ele>29.46</ele>
        <time>2016-07-31T13:16:38Z</time>
      </trkpt>
      <trkpt lat="49.01643" lon="2.04654">
        <ele>28.98</ele>
        <time>2016-07-31T13:16:53Z</time>
      </trkpt>
      <trkpt lat="49.01644" lon="2.04649">
        <ele>28.98</ele>
        <time>2016-07-31T13:17:06Z</time>
      </trkpt>
      <trkpt lat="49.01654" lon="2.04648">
        <ele>28.02</ele>
        <time>2016-07-31T13:17:18Z</time>
      </trkpt>
      <trkpt lat="49.01665" lon="2.04667">
        <ele>27.05</ele>
        <time>2016-07-31T13:17:34Z</time>
      </trkpt>
      <trkpt lat="49.01663" lon="2.04666">
        <ele>27.05</ele>
        <time>2016-07-31T13:17:48Z</time>
      </trkpt>
      <trkpt lat="49.0167" lon="2.04655">
        <ele>27.05</ele>
        <time>2016-07-31T13:18:09Z</time>
      </trkpt>
      <trkpt lat="49.01677" lon="2.04647">
        <ele>27.05</ele>
        <time>2016-07-31T13:18:23Z</time>
      </trkpt>
      <trkpt lat="49.01672" lon="2.04656">
        <ele>27.05</ele>
        <time>2016-07-31T13:18:38Z</time>
      </trkpt>
      <trkpt lat="49.01667" lon="2.04656">
        <ele>27.05</ele>
        <time>2016-07-31T13:19:00Z</time>
      </trkpt>
      <trkpt lat="49.01667" lon="2.04669">
        <ele>26.57</ele>
        <time>2016-07-31T13:19:15Z</time>
      </trkpt>
      <trkpt lat="49.01665" lon="2.04678">
        <ele>27.05</ele>
        <time>2016-07-31T13:19:22Z</time>
      </trkpt>
      <trkpt lat="49.01657" lon="2.04709">
        <ele>25.13</ele>
        <time>2016-07-31T13:19:42Z</time>
      </trkpt>
      <trkpt lat="49.01657" lon="2.0472">
        <ele>24.65</ele>
        <time>2016-07-31T13:20:03Z</time>
      </trkpt>
      <trkpt lat="49.01664" lon="2.04747">
        <ele>23.21</ele>
        <time>2016-07-31T13:20:19Z</time>
      </trkpt>
      <trkpt lat="49.01664" lon="2.04767">
        <ele>22.73</ele>
        <time>2016-07-31T13:20:33Z</time>
      </trkpt>
      <trkpt lat="49.01664" lon="2.04776">
        <ele>22.25</ele>
        <time>2016-07-31T13:20:48Z</time>
      </trkpt>
      <trkpt lat="49.01663" lon="2.04779">
        <ele>22.25</ele>
        <time>2016-07-31T13:21:04Z</time>
      </trkpt>
      <trkpt lat="49.01661" lon="2.04798">
        <ele>21.29</ele>
        <time>2016-07-31T13:21:17Z</time>
      </trkpt>
      <trkpt lat="49.01657" lon="2.04809">
        <ele>21.29</ele>
        <time>2016-07-31T13:21:24Z</time>
      </trkpt>
      <trkpt lat="49.0165" lon="2.04827">
        <ele>20.32</ele>
        <time>2016-07-31T13:21:36Z</time>
      </trkpt>
      <trkpt lat="49.01642" lon="2.04845">
        <ele>20.32</ele>
        <time>2016-07-31T13:21:50Z</time>
      </trkpt>
      <trkpt lat="49.0164" lon="2.04849">
        <ele>20.32</ele>
        <time>2016-07-31T13:22:03Z</time>
      </trkpt>
      <trkpt lat="49.0163" lon="2.04862">
        <ele>19.84</ele>
        <time>2016-07-31T13:22:18Z</time>
      </trkpt>
      <trkpt lat="49.01624" lon="2.04868">
        <ele>19.84</ele>
        <time>2016-07-31T13:22:28Z</time>
      </trkpt>
      <trkpt lat="49.0161" lon="2.04883">
        <ele>19.84</ele>
        <time>2016-07-31T13:22:44Z</time>
      </trkpt>
      <trkpt lat="49.016" lon="2.04898">
        <ele>19.84</ele>
        <time>2016-07-31T13:22:56Z</time>
      </trkpt>
      <trkpt lat="49.01596" lon="2.04901">
        <ele>19.36</ele>
        <time>2016-07-31T13:22:59Z</time>
      </trkpt>
      <trkpt lat="49.01592" lon="2.04913">
        <ele>19.84</ele>
        <time>2016-07-31T13:23:11Z</time>
      </trkpt>
      <trkpt lat="49.01592" lon="2.04924">
        <ele>18.88</ele>
        <time>2016-07-31T13:23:28Z</time>
      </trkpt>
      <trkpt lat="49.01588" lon="2.04925">
        <ele>18.88</ele>
        <time>2016-07-31T13:23:51Z</time>
      </trkpt>
      <trkpt lat="49.01584" lon="2.04922">
        <ele>19.36</ele>
        <time>2016-07-31T13:24:13Z</time>
      </trkpt>
      <trkpt lat="49.01583" lon="2.04929">
        <ele>19.36</ele>
        <time>2016-07-31T13:24:20Z</time>
      </trkpt>
      <trkpt lat="49.01579" lon="2.04937">
        <ele>19.36</ele>
        <time>2016-07-31T13:24:25Z</time>
      </trkpt>
      <trkpt lat="49.01579" lon="2.04968">
        <ele>19.36</ele>
        <time>2016-07-31T13:24:43Z</time>
      </trkpt>
      <trkpt lat="49.01578" lon="2.04968">
        <ele>19.36</ele>
        <time>2016-07-31T13:24:54Z</time>
      </trkpt>
      <trkpt lat="49.01579" lon="2.04966">
        <ele>18.88</ele>
        <time>2016-07-31T13:25:15Z</time>
      </trkpt>
      <trkpt lat="49.01578" lon="2.04977">
        <ele>18.88</ele>
        <time>2016-07-31T13:25:35Z</time>
      </trkpt>
      <trkpt lat="49.01575" lon="2.05003">
        <ele>18.4</ele>
        <time>2016-07-31T13:25:51Z</time>
      </trkpt>
      <trkpt lat="49.01568" lon="2.05029">
        <ele>18.4</ele>
        <time>2016-07-31T13:26:08Z</time>
      </trkpt>
      <trkpt lat="49.01559" lon="2.05046">
        <ele>17.92</ele>
        <time>2016-07-31T13:26:22Z</time>
      </trkpt>
      <trkpt lat="49.0155" lon="2.05064">
        <ele>17.92</ele>
        <time>2016-07-31T13:26:36Z</time>
      </trkpt>
      <trkpt lat="49.01549" lon="2.05066">
        <ele>17.92</ele>
        <time>2016-07-31T13:26:48Z</time>
      </trkpt>
      <trkpt lat="49.01544" lon="2.05068">
        <ele>17.92</ele>
        <time>2016-07-31T13:27:00Z</time>
      </trkpt>
      <trkpt lat="49.01536" lon="2.0509">
        <ele>17.44</ele>
        <time>2016-07-31T13:27:15Z</time>
      </trkpt>
      <trkpt lat="49.01523" lon="2.05116">
        <ele>17.44</ele>
        <time>2016-07-31T13:27:33Z</time>
      </trkpt>
      <trkpt lat="49.01514" lon="2.05135">
        <ele>18.4</ele>
        <time>2016-07-31T13:27:47Z</time>
      </trkpt>
      <trkpt lat="49.01501" lon="2.05159">
        <ele>17.44</ele>
        <time>2016-07-31T13:28:04Z</time>
      </trkpt>
      <trkpt lat="49.01491" lon="2.05177">
        <ele>16.96</ele>
        <time>2016-07-31T13:28:19Z</time>
      </trkpt>
      <trkpt lat="49.01486" lon="2.05191">
        <ele>17.44</ele>
        <time>2016-07-31T13:28:31Z</time>
      </trkpt>
      <trkpt lat="49.01473" lon="2.0521">
        <ele>17.44</ele>
        <time>2016-07-31T13:28:46Z</time>
      </trkpt>
      <trkpt lat="49.01465" lon="2.05231">
        <ele>17.44</ele>
        <time>2016-07-31T13:28:59Z</time>
      </trkpt>
      <trkpt lat="49.01462" lon="2.05238">
        <ele>17.44</ele>
        <time>2016-07-31T13:29:05Z</time>
      </trkpt>
      <trkpt lat="49.01457" lon="2.05246">
        <ele>17.44</ele>
        <time>2016-07-31T13:29:12Z</time>
      </trkpt>
      <trkpt lat="49.01446" lon="2.05267">
        <ele>17.44</ele>
        <time>2016-07-31T13:29:28Z</time>
      </trkpt>
      <trkpt lat="49.01437" lon="2.05286">
        <ele>17.44</ele>
        <time>2016-07-31T13:29:43Z</time>
      </trkpt>
      <trkpt lat="49.01429" lon="2.05303">
        <ele>17.44</ele>
        <time>2016-07-31T13:29:57Z</time>
      </trkpt>
      <trkpt lat="49.01419" lon="2.05329">
        <ele>16.96</ele>
        <time>2016-07-31T13:30:15Z</time>
      </trkpt>
      <trkpt lat="49.01412" lon="2.05359">
        <ele>17.44</ele>
        <time>2016-07-31T13:30:33Z</time>
      </trkpt>
      <trkpt lat="49.01407" lon="2.05374">
        <ele>16.96</ele>
        <time>2016-07-31T13:30:44Z</time>
      </trkpt>
      <trkpt lat="49.01404" lon="2.05397">
        <ele>17.44</ele>
        <time>2016-07-31T13:31:00Z</time>
      </trkpt>
      <trkpt lat="49.01401" lon="2.05417">
        <ele>17.44</ele>
        <time>2016-07-31T13:31:13Z</time>
      </trkpt>
      <trkpt lat="49.01398" lon="2.05429">
        <ele>17.92</ele>
        <time>2016-07-31T13:31:21Z</time>
      </trkpt>
      <trkpt lat="49.01393" lon="2.05452">
        <ele>17.44</ele>
        <time>2016-07-31T13:31:36Z</time>
      </trkpt>
      <trkpt lat="49.01392" lon="2.05454">
        <ele>17.44</ele>
        <time>2016-07-31T13:31:38Z</time>
      </trkpt>
      <trkpt lat="49.01386" lon="2.05473">
        <ele>17.44</ele>
        <time>2016-07-31T13:31:50Z</time>
      </trkpt>
      <trkpt lat="49.01381" lon="2.05499">
        <ele>17.44</ele>
        <time>2016-07-31T13:32:05Z</time>
      </trkpt>
      <trkpt lat="49.01376" lon="2.05518">
        <ele>17.92</ele>
        <time>2016-07-31T13:32:18Z</time>
      </trkpt>
      <trkpt lat="49.01374" lon="2.05522">
        <ele>17.92</ele>
        <time>2016-07-31T13:32:21Z</time>
      </trkpt>
      <trkpt lat="49.01372" lon="2.05533">
        <ele>17.92</ele>
        <time>2016-07-31T13:32:28Z</time>
      </trkpt>
      <trkpt lat="49.01368" lon="2.05554">
        <ele>17.92</ele>
        <time>2016-07-31T13:32:43Z</time>
      </trkpt>
      <trkpt lat="49.01369" lon="2.05558">
        <ele>17.92</ele>
        <time>2016-07-31T13:32:54Z</time>
      </trkpt>
      <trkpt lat="49.01365" lon="2.05565">
        <ele>18.4</ele>
        <time>2016-07-31T13:33:00Z</time>
      </trkpt>
      <trkpt lat="49.01348" lon="2.05572">
        <ele>19.84</ele>
        <time>2016-07-31T13:33:18Z</time>
      </trkpt>
      <trkpt lat="49.01333" lon="2.05583">
        <ele>22.73</ele>
        <time>2016-07-31T13:33:34Z</time>
      </trkpt>
      <trkpt lat="49.01334" lon="2.05587">
        <ele>23.21</ele>
        <time>2016-07-31T13:33:37Z</time>
      </trkpt>
      <trkpt lat="49.01347" lon="2.05611">
        <ele>24.17</ele>
        <time>2016-07-31T13:33:55Z</time>
      </trkpt>
      <trkpt lat="49.01358" lon="2.05632">
        <ele>25.13</ele>
        <time>2016-07-31T13:34:11Z</time>
      </trkpt>
      <trkpt lat="49.01363" lon="2.05644">
        <ele>25.13</ele>
        <time>2016-07-31T13:34:23Z</time>
      </trkpt>
      <trkpt lat="49.01353" lon="2.05623">
        <ele>24.65</ele>
        <time>2016-07-31T13:34:38Z</time>
      </trkpt>
      <trkpt lat="49.01351" lon="2.05618">
        <ele>24.65</ele>
        <time>2016-07-31T13:34:41Z</time>
      </trkpt>
      <trkpt lat="49.0134" lon="2.05596">
        <ele>23.69</ele>
        <time>2016-07-31T13:35:00Z</time>
      </trkpt>
      <trkpt lat="49.01331" lon="2.05575">
        <ele>22.73</ele>
        <time>2016-07-31T13:35:15Z</time>
      </trkpt>
      <trkpt lat="49.01324" lon="2.0557">
        <ele>23.21</ele>
        <time>2016-07-31T13:35:24Z</time>
      </trkpt>
      <trkpt lat="49.01311" lon="2.05545">
        <ele>22.25</ele>
        <time>2016-07-31T13:35:42Z</time>
      </trkpt>
      <trkpt lat="49.01292" lon="2.05523">
        <ele>22.25</ele>
        <time>2016-07-31T13:36:02Z</time>
      </trkpt>
      <trkpt lat="49.01291" lon="2.05521">
        <ele>22.73</ele>
        <time>2016-07-31T13:36:03Z</time>
      </trkpt>
      <trkpt lat="49.01281" lon="2.05501">
        <ele>22.25</ele>
        <time>2016-07-31T13:36:17Z</time>
      </trkpt>
      <trkpt lat="49.01269" lon="2.05477">
        <ele>22.25</ele>
        <time>2016-07-31T13:36:35Z</time>
      </trkpt>
      <trkpt lat="49.01265" lon="2.05446">
        <ele>22.73</ele>
        <time>2016-07-31T13:36:54Z</time>
      </trkpt>
      <trkpt lat="49.01264" lon="2.05427">
        <ele>23.21</ele>
        <time>2016-07-31T13:37:05Z</time>
      </trkpt>
      <trkpt lat="49.01265" lon="2.05419">
        <ele>23.21</ele>
        <time>2016-07-31T13:37:10Z</time>
      </trkpt>
      <trkpt lat="49.01263" lon="2.05396">
        <ele>23.69</ele>
        <time>2016-07-31T13:37:27Z</time>
      </trkpt>
      <trkpt lat="49.01258" lon="2.0538">
        <ele>23.69</ele>
        <time>2016-07-31T13:37:37Z</time>
      </trkpt>
      <trkpt lat="49.01255" lon="2.05373">
        <ele>23.69</ele>
        <time>2016-07-31T13:37:42Z</time>
      </trkpt>
      <trkpt lat="49.01248" lon="2.05344">
        <ele>23.21</ele>
        <time>2016-07-31T13:37:58Z</time>
      </trkpt>
      <trkpt lat="49.01246" lon="2.05314">
        <ele>24.65</ele>
        <time>2016-07-31T13:38:16Z</time>
      </trkpt>
      <trkpt lat="49.01243" lon="2.05299">
        <ele>24.65</ele>
        <time>2016-07-31T13:38:29Z</time>
      </trkpt>
      <trkpt lat="49.01242" lon="2.05299">
        <ele>24.17</ele>
        <time>2016-07-31T13:38:31Z</time>
      </trkpt>
      <trkpt lat="49.01238" lon="2.05296">
        <ele>24.65</ele>
        <time>2016-07-31T13:38:35Z</time>
      </trkpt>
      <trkpt lat="49.01222" lon="2.05306">
        <ele>26.09</ele>
        <time>2016-07-31T13:38:52Z</time>
      </trkpt>
      <trkpt lat="49.01208" lon="2.05307">
        <ele>28.02</ele>
        <time>2016-07-31T13:39:08Z</time>
      </trkpt>
      <trkpt lat="49.0121" lon="2.05288">
        <ele>28.5</ele>
        <time>2016-07-31T13:39:19Z</time>
      </trkpt>
      <trkpt lat="49.01211" lon="2.05264">
        <ele>29.94</ele>
        <time>2016-07-31T13:39:33Z</time>
      </trkpt>
      <trkpt lat="49.01211" lon="2.05262">
        <ele>29.94</ele>
        <time>2016-07-31T13:39:35Z</time>
      </trkpt>
      <trkpt lat="49.01209" lon="2.05258">
        <ele>30.9</ele>
        <time>2016-07-31T13:39:38Z</time>
      </trkpt>
      <trkpt lat="49.01207" lon="2.05256">
        <ele>30.9</ele>
        <time>2016-07-31T13:39:40Z</time>
      </trkpt>
      <trkpt lat="49.01202" lon="2.05245">
        <ele>31.86</ele>
        <time>2016-07-31T13:39:46Z</time>
      </trkpt>
      <trkpt lat="49.012" lon="2.0524">
        <ele>31.86</ele>
        <time>2016-07-31T13:39:50Z</time>
      </trkpt>
      <trkpt lat="49.01194" lon="2.05216">
        <ele>32.82</ele>
        <time>2016-07-31T13:40:07Z</time>
      </trkpt>
      <trkpt lat="49.01189" lon="2.05199">
        <ele>34.26</ele>
        <time>2016-07-31T13:40:20Z</time>
      </trkpt>
      <trkpt lat="49.01177" lon="2.05199">
        <ele>33.78</ele>
        <time>2016-07-31T13:40:34Z</time>
      </trkpt>
      <trkpt lat="49.01171" lon="2.05195">
        <ele>33.78</ele>
        <time>2016-07-31T13:40:48Z</time>
      </trkpt>
      <trkpt lat="49.0117" lon="2.05196">
        <ele>33.78</ele>
        <time>2016-07-31T13:40:54Z</time>
      </trkpt>
      <trkpt lat="49.01165" lon="2.05198">
        <ele>33.3</ele>
        <time>2016-07-31T13:40:59Z</time>
      </trkpt>
      <trkpt lat="49.0115" lon="2.0521">
        <ele>33.3</ele>
        <time>2016-07-31T13:41:14Z</time>
      </trkpt>
      <trkpt lat="49.01148" lon="2.0521">
        <ele>33.3</ele>
        <time>2016-07-31T13:41:16Z</time>
      </trkpt>
      <trkpt lat="49.01141" lon="2.05212">
        <ele>33.78</ele>
        <time>2016-07-31T13:41:22Z</time>
      </trkpt>
      <trkpt lat="49.01132" lon="2.05218">
        <ele>34.26</ele>
        <time>2016-07-31T13:41:31Z</time>
      </trkpt>
      <trkpt lat="49.0113" lon="2.0522">
        <ele>34.26</ele>
        <time>2016-07-31T13:41:33Z</time>
      </trkpt>
      <trkpt lat="49.01114" lon="2.05229">
        <ele>33.78</ele>
        <time>2016-07-31T13:41:47Z</time>
      </trkpt>
      <trkpt lat="49.01113" lon="2.0523">
        <ele>33.78</ele>
        <time>2016-07-31T13:41:48Z</time>
      </trkpt>
      <trkpt lat="49.0111" lon="2.05231">
        <ele>33.78</ele>
        <time>2016-07-31T13:41:51Z</time>
      </trkpt>
      <trkpt lat="49.01091" lon="2.05244">
        <ele>33.78</ele>
        <time>2016-07-31T13:42:07Z</time>
      </trkpt>
      <trkpt lat="49.01078" lon="2.05261">
        <ele>33.3</ele>
        <time>2016-07-31T13:42:22Z</time>
      </trkpt>
      <trkpt lat="49.01059" lon="2.05272">
        <ele>33.78</ele>
        <time>2016-07-31T13:42:40Z</time>
      </trkpt>
      <trkpt lat="49.01038" lon="2.05285">
        <ele>34.26</ele>
        <time>2016-07-31T13:42:59Z</time>
      </trkpt>
      <trkpt lat="49.01032" lon="2.05287">
        <ele>34.26</ele>
        <time>2016-07-31T13:43:05Z</time>
      </trkpt>
      <trkpt lat="49.01013" lon="2.05297">
        <ele>33.78</ele>
        <time>2016-07-31T13:43:22Z</time>
      </trkpt>
      <trkpt lat="49.01007" lon="2.053">
        <ele>33.78</ele>
        <time>2016-07-31T13:43:27Z</time>
      </trkpt>
      <trkpt lat="49.00999" lon="2.05306">
        <ele>33.78</ele>
        <time>2016-07-31T13:43:33Z</time>
      </trkpt>
      <trkpt lat="49.00981" lon="2.05312">
        <ele>33.78</ele>
        <time>2016-07-31T13:43:49Z</time>
      </trkpt>
      <trkpt lat="49.00961" lon="2.0532">
        <ele>32.82</ele>
        <time>2016-07-31T13:44:05Z</time>
      </trkpt>
      <trkpt lat="49.00945" lon="2.05327">
        <ele>33.3</ele>
        <time>2016-07-31T13:44:20Z</time>
      </trkpt>
      <trkpt lat="49.00931" lon="2.05331">
        <ele>33.3</ele>
        <time>2016-07-31T13:44:33Z</time>
      </trkpt>
      <trkpt lat="49.00914" lon="2.05338">
        <ele>32.82</ele>
        <time>2016-07-31T13:44:47Z</time>
      </trkpt>
      <trkpt lat="49.00894" lon="2.05349">
        <ele>31.86</ele>
        <time>2016-07-31T13:45:05Z</time>
      </trkpt>
      <trkpt lat="49.00893" lon="2.0535">
        <ele>31.86</ele>
        <time>2016-07-31T13:45:06Z</time>
      </trkpt>
      <trkpt lat="49.00888" lon="2.05353">
        <ele>31.86</ele>
        <time>2016-07-31T13:45:11Z</time>
      </trkpt>
      <trkpt lat="49.00886" lon="2.05355">
        <ele>31.86</ele>
        <time>2016-07-31T13:45:13Z</time>
      </trkpt>
      <trkpt lat="49.00882" lon="2.05357">
        <ele>31.86</ele>
        <time>2016-07-31T13:45:16Z</time>
      </trkpt>
      <trkpt lat="49.00862" lon="2.05372">
        <ele>31.38</ele>
        <time>2016-07-31T13:45:33Z</time>
      </trkpt>
      <trkpt lat="49.00846" lon="2.05381">
        <ele>31.38</ele>
        <time>2016-07-31T13:45:48Z</time>
      </trkpt>
      <trkpt lat="49.00826" lon="2.05393">
        <ele>30.9</ele>
        <time>2016-07-31T13:46:04Z</time>
      </trkpt>
      <trkpt lat="49.00815" lon="2.05401">
        <ele>30.9</ele>
        <time>2016-07-31T13:46:14Z</time>
      </trkpt>
      <trkpt lat="49.00796" lon="2.05413">
        <ele>30.42</ele>
        <time>2016-07-31T13:46:33Z</time>
      </trkpt>
      <trkpt lat="49.00786" lon="2.05418">
        <ele>29.94</ele>
        <time>2016-07-31T13:46:42Z</time>
      </trkpt>
      <trkpt lat="49.00764" lon="2.05434">
        <ele>28.98</ele>
        <time>2016-07-31T13:47:00Z</time>
      </trkpt>
      <trkpt lat="49.00748" lon="2.05443">
        <ele>28.5</ele>
        <time>2016-07-31T13:47:18Z</time>
      </trkpt>
      <trkpt lat="49.00727" lon="2.05454">
        <ele>28.02</ele>
        <time>2016-07-31T13:47:36Z</time>
      </trkpt>
      <trkpt lat="49.00707" lon="2.05469">
        <ele>27.53</ele>
        <time>2016-07-31T13:47:53Z</time>
      </trkpt>
      <trkpt lat="49.00689" lon="2.05482">
        <ele>27.05</ele>
        <time>2016-07-31T13:48:08Z</time>
      </trkpt>
      <trkpt lat="49.00672" lon="2.05497">
        <ele>26.09</ele>
        <time>2016-07-31T13:48:24Z</time>
      </trkpt>
      <trkpt lat="49.00656" lon="2.05507">
        <ele>25.61</ele>
        <time>2016-07-31T13:48:41Z</time>
      </trkpt>
      <trkpt lat="49.00651" lon="2.0551">
        <ele>25.13</ele>
        <time>2016-07-31T13:48:45Z</time>
      </trkpt>
      <trkpt lat="49.00632" lon="2.05531">
        <ele>25.13</ele>
        <time>2016-07-31T13:49:03Z</time>
      </trkpt>
      <trkpt lat="49.00613" lon="2.05546">
        <ele>25.13</ele>
        <time>2016-07-31T13:49:21Z</time>
      </trkpt>
      <trkpt lat="49.00612" lon="2.05547">
        <ele>24.65</ele>
        <time>2016-07-31T13:49:22Z</time>
      </trkpt>
      <trkpt lat="49.00608" lon="2.0555">
        <ele>25.13</ele>
        <time>2016-07-31T13:49:26Z</time>
      </trkpt>
      <trkpt lat="49.00592" lon="2.05565">
        <ele>25.13</ele>
        <time>2016-07-31T13:49:42Z</time>
      </trkpt>
      <trkpt lat="49.00591" lon="2.05565">
        <ele>24.65</ele>
        <time>2016-07-31T13:49:44Z</time>
      </trkpt>
      <trkpt lat="49.00586" lon="2.05567">
        <ele>25.13</ele>
        <time>2016-07-31T13:49:48Z</time>
      </trkpt>
      <trkpt lat="49.00571" lon="2.05584">
        <ele>25.13</ele>
        <time>2016-07-31T13:50:04Z</time>
      </trkpt>
      <trkpt lat="49.00555" lon="2.05596">
        <ele>25.13</ele>
        <time>2016-07-31T13:50:19Z</time>
      </trkpt>
      <trkpt lat="49.00541" lon="2.05607">
        <ele>25.13</ele>
        <time>2016-07-31T13:50:33Z</time>
      </trkpt>
      <trkpt lat="49.00527" lon="2.05617">
        <ele>26.09</ele>
        <time>2016-07-31T13:50:46Z</time>
      </trkpt>
      <trkpt lat="49.0052" lon="2.05618">
        <ele>26.09</ele>
        <time>2016-07-31T13:50:53Z</time>
      </trkpt>
      <trkpt lat="49.0051" lon="2.05631">
        <ele>25.61</ele>
        <time>2016-07-31T13:51:03Z</time>
      </trkpt>
      <trkpt lat="49.00495" lon="2.05638">
        <ele>25.61</ele>
        <time>2016-07-31T13:51:18Z</time>
      </trkpt>
      <trkpt lat="49.00491" lon="2.05639">
        <ele>25.61</ele>
        <time>2016-07-31T13:51:22Z</time>
      </trkpt>
      <trkpt lat="49.00476" lon="2.05646">
        <ele>25.61</ele>
        <time>2016-07-31T13:51:38Z</time>
      </trkpt>
      <trkpt lat="49.00473" lon="2.05647">
        <ele>25.13</ele>
        <time>2016-07-31T13:51:40Z</time>
      </trkpt>
      <trkpt lat="49.00463" lon="2.05655">
        <ele>25.61</ele>
        <time>2016-07-31T13:51:51Z</time>
      </trkpt>
      <trkpt lat="49.00461" lon="2.05657">
        <ele>25.61</ele>
        <time>2016-07-31T13:51:53Z</time>
      </trkpt>
      <trkpt lat="49.00455" lon="2.05662">
        <ele>25.61</ele>
        <time>2016-07-31T13:52:06Z</time>
      </trkpt>
      <trkpt lat="49.00441" lon="2.0567">
        <ele>25.61</ele>
        <time>2016-07-31T13:52:21Z</time>
      </trkpt>
      <trkpt lat="49.00441" lon="2.0567">
        <ele>25.13</ele>
        <time>2016-07-31T13:52:22Z</time>
      </trkpt>
      <trkpt lat="49.00437" lon="2.05672">
        <ele>25.61</ele>
        <time>2016-07-31T13:52:26Z</time>
      </trkpt>
      <trkpt lat="49.0042" lon="2.0568">
        <ele>25.13</ele>
        <time>2016-07-31T13:52:43Z</time>
      </trkpt>
      <trkpt lat="49.00402" lon="2.05693">
        <ele>25.13</ele>
        <time>2016-07-31T13:53:01Z</time>
      </trkpt>
      <trkpt lat="49.00386" lon="2.05705">
        <ele>24.65</ele>
        <time>2016-07-31T13:53:18Z</time>
      </trkpt>
      <trkpt lat="49.00372" lon="2.05711">
        <ele>24.65</ele>
        <time>2016-07-31T13:53:32Z</time>
      </trkpt>
      <trkpt lat="49.00356" lon="2.05723">
        <ele>24.17</ele>
        <time>2016-07-31T13:53:48Z</time>
      </trkpt>
      <trkpt lat="49.0034" lon="2.05734">
        <ele>24.65</ele>
        <time>2016-07-31T13:54:03Z</time>
      </trkpt>
      <trkpt lat="49.00331" lon="2.05737">
        <ele>24.17</ele>
        <time>2016-07-31T13:54:16Z</time>
      </trkpt>
      <trkpt lat="49.00333" lon="2.05741">
        <ele>24.17</ele>
        <time>2016-07-31T13:54:38Z</time>
      </trkpt>
      <trkpt lat="49.0033" lon="2.05744">
        <ele>24.65</ele>
        <time>2016-07-31T13:55:01Z</time>
      </trkpt>
      <trkpt lat="49.00328" lon="2.05741">
        <ele>24.17</ele>
        <time>2016-07-31T13:55:32Z</time>
      </trkpt>
      <trkpt lat="49.00325" lon="2.05743">
        <ele>24.17</ele>
        <time>2016-07-31T13:55:58Z</time>
      </trkpt>
      <trkpt lat="49.00312" lon="2.05753">
        <ele>24.17</ele>
        <time>2016-07-31T13:56:12Z</time>
      </trkpt>
      <trkpt lat="49.00298" lon="2.05761">
        <ele>24.17</ele>
        <time>2016-07-31T13:56:26Z</time>
      </trkpt>
      <trkpt lat="49.00282" lon="2.0577">
        <ele>23.69</ele>
        <time>2016-07-31T13:56:41Z</time>
      </trkpt>
      <trkpt lat="49.00268" lon="2.05783">
        <ele>24.17</ele>
        <time>2016-07-31T13:56:55Z</time>
      </trkpt>
      <trkpt lat="49.00249" lon="2.05796">
        <ele>23.69</ele>
        <time>2016-07-31T13:57:13Z</time>
      </trkpt>
      <trkpt lat="49.00233" lon="2.05806">
        <ele>23.69</ele>
        <time>2016-07-31T13:57:29Z</time>
      </trkpt>
      <trkpt lat="49.00218" lon="2.05816">
        <ele>23.69</ele>
        <time>2016-07-31T13:57:44Z</time>
      </trkpt>
      <trkpt lat="49.00206" lon="2.05832">
        <ele>23.69</ele>
        <time>2016-07-31T13:57:58Z</time>
      </trkpt>
      <trkpt lat="49.00198" lon="2.05839">
        <ele>23.21</ele>
        <time>2016-07-31T13:58:11Z</time>
      </trkpt>
      <trkpt lat="49.00194" lon="2.05843">
        <ele>23.21</ele>
        <time>2016-07-31T13:58:16Z</time>
      </trkpt>
      <trkpt lat="49.0019" lon="2.05845">
        <ele>23.21</ele>
        <time>2016-07-31T13:58:20Z</time>
      </trkpt>
      <trkpt lat="49.00184" lon="2.05851">
        <ele>22.73</ele>
        <time>2016-07-31T13:58:28Z</time>
      </trkpt>
      <trkpt lat="49.00167" lon="2.0587">
        <ele>22.73</ele>
        <time>2016-07-31T13:58:46Z</time>
      </trkpt>
      <trkpt lat="49.00158" lon="2.05879">
        <ele>22.73</ele>
        <time>2016-07-31T13:58:55Z</time>
      </trkpt>
      <trkpt lat="49.00151" lon="2.05887">
        <ele>22.73</ele>
        <time>2016-07-31T13:59:02Z</time>
      </trkpt>
      <trkpt lat="49.00138" lon="2.05905">
        <ele>21.77</ele>
        <time>2016-07-31T13:59:19Z</time>
      </trkpt>
      <trkpt lat="49.00126" lon="2.05922">
        <ele>21.77</ele>
        <time>2016-07-31T13:59:36Z</time>
      </trkpt>
      <trkpt lat="49.00113" lon="2.05941">
        <ele>21.29</ele>
        <time>2016-07-31T13:59:52Z</time>
      </trkpt>
      <trkpt lat="49.00101" lon="2.05959">
        <ele>19.84</ele>
        <time>2016-07-31T14:00:07Z</time>
      </trkpt>
      <trkpt lat="49.00096" lon="2.05967">
        <ele>20.81</ele>
        <time>2016-07-31T14:00:14Z</time>
      </trkpt>
      <trkpt lat="49.00094" lon="2.05974">
        <ele>20.81</ele>
        <time>2016-07-31T14:00:19Z</time>
      </trkpt>
      <trkpt lat="49.00087" lon="2.06004">
        <ele>20.32</ele>
        <time>2016-07-31T14:00:35Z</time>
      </trkpt>
      <trkpt lat="49.00081" lon="2.06014">
        <ele>19.84</ele>
        <time>2016-07-31T14:00:44Z</time>
      </trkpt>
      <trkpt lat="49.00071" lon="2.06017">
        <ele>20.32</ele>
        <time>2016-07-31T14:00:53Z</time>
      </trkpt>
      <trkpt lat="49.00068" lon="2.06032">
        <ele>19.84</ele>
        <time>2016-07-31T14:01:03Z</time>
      </trkpt>
      <trkpt lat="49.00064" lon="2.06037">
        <ele>20.32</ele>
        <time>2016-07-31T14:01:08Z</time>
      </trkpt>
      <trkpt lat="49.00056" lon="2.06049">
        <ele>19.84</ele>
        <time>2016-07-31T14:01:18Z</time>
      </trkpt>
      <trkpt lat="49.00056" lon="2.06054">
        <ele>19.84</ele>
        <time>2016-07-31T14:01:21Z</time>
      </trkpt>
      <trkpt lat="49.00058" lon="2.06064">
        <ele>19.36</ele>
        <time>2016-07-31T14:01:27Z</time>
      </trkpt>
      <trkpt lat="49.00058" lon="2.06073">
        <ele>18.88</ele>
        <time>2016-07-31T14:01:32Z</time>
      </trkpt>
      <trkpt lat="49.00055" lon="2.06077">
        <ele>19.36</ele>
        <time>2016-07-31T14:01:38Z</time>
      </trkpt>
      <trkpt lat="49.00041" lon="2.06081">
        <ele>18.88</ele>
        <time>2016-07-31T14:01:51Z</time>
      </trkpt>
      <trkpt lat="49.00026" lon="2.06105">
        <ele>19.36</ele>
        <time>2016-07-31T14:02:10Z</time>
      </trkpt>
      <trkpt lat="49.00014" lon="2.06128">
        <ele>19.36</ele>
        <time>2016-07-31T14:02:27Z</time>
      </trkpt>
      <trkpt lat="49.00003" lon="2.06146">
        <ele>19.36</ele>
        <time>2016-07-31T14:02:41Z</time>
      </trkpt>
      <trkpt lat="48.99993" lon="2.06162">
        <ele>18.88</ele>
        <time>2016-07-31T14:02:55Z</time>
      </trkpt>
      <trkpt lat="48.99984" lon="2.06178">
        <ele>19.36</ele>
        <time>2016-07-31T14:03:08Z</time>
      </trkpt>
      <trkpt lat="48.99978" lon="2.06192">
        <ele>18.88</ele>
        <time>2016-07-31T14:03:16Z</time>
      </trkpt>
      <trkpt lat="48.99965" lon="2.06214">
        <ele>18.88</ele>
        <time>2016-07-31T14:03:33Z</time>
      </trkpt>
      <trkpt lat="48.99952" lon="2.0624">
        <ele>18.88</ele>
        <time>2016-07-31T14:03:49Z</time>
      </trkpt>
      <trkpt lat="48.99943" lon="2.06259">
        <ele>18.88</ele>
        <time>2016-07-31T14:04:02Z</time>
      </trkpt>
      <trkpt lat="48.99945" lon="2.06281">
        <ele>18.88</ele>
        <time>2016-07-31T14:04:16Z</time>
      </trkpt>
      <trkpt lat="48.99952" lon="2.0631">
        <ele>19.36</ele>
        <time>2016-07-31T14:04:32Z</time>
      </trkpt>
      <trkpt lat="48.99955" lon="2.06326">
        <ele>19.36</ele>
        <time>2016-07-31T14:04:41Z</time>
      </trkpt>
      <trkpt lat="48.99961" lon="2.06353">
        <ele>19.36</ele>
        <time>2016-07-31T14:04:57Z</time>
      </trkpt>
      <trkpt lat="48.99963" lon="2.06369">
        <ele>19.36</ele>
        <time>2016-07-31T14:05:07Z</time>
      </trkpt>
      <trkpt lat="48.99963" lon="2.06383">
        <ele>19.36</ele>
        <time>2016-07-31T14:05:13Z</time>
      </trkpt>
      <trkpt lat="48.99964" lon="2.06419">
        <ele>19.36</ele>
        <time>2016-07-31T14:05:32Z</time>
      </trkpt>
      <trkpt lat="48.99971" lon="2.06436">
        <ele>19.36</ele>
        <time>2016-07-31T14:05:46Z</time>
      </trkpt>
      <trkpt lat="48.99974" lon="2.06442">
        <ele>19.36</ele>
        <time>2016-07-31T14:05:53Z</time>
      </trkpt>
      <trkpt lat="48.99979" lon="2.06473">
        <ele>19.36</ele>
        <time>2016-07-31T14:06:09Z</time>
      </trkpt>
      <trkpt lat="48.99978" lon="2.06487">
        <ele>19.84</ele>
        <time>2016-07-31T14:06:17Z</time>
      </trkpt>
      <trkpt lat="48.99976" lon="2.06509">
        <ele>19.36</ele>
        <time>2016-07-31T14:06:32Z</time>
      </trkpt>
      <trkpt lat="48.99978" lon="2.06516">
        <ele>19.36</ele>
        <time>2016-07-31T14:06:36Z</time>
      </trkpt>
      <trkpt lat="48.99991" lon="2.06538">
        <ele>19.84</ele>
        <time>2016-07-31T14:06:52Z</time>
      </trkpt>
      <trkpt lat="48.99993" lon="2.06549">
        <ele>20.32</ele>
        <time>2016-07-31T14:06:59Z</time>
      </trkpt>
      <trkpt lat="49" lon="2.06587">
        <ele>20.32</ele>
        <time>2016-07-31T14:07:20Z</time>
      </trkpt>
      <trkpt lat="49.00005" lon="2.06614">
        <ele>20.32</ele>
        <time>2016-07-31T14:07:36Z</time>
      </trkpt>
      <trkpt lat="49.0001" lon="2.06639">
        <ele>20.32</ele>
        <time>2016-07-31T14:07:51Z</time>
      </trkpt>
      <trkpt lat="49.00016" lon="2.06669">
        <ele>20.32</ele>
        <time>2016-07-31T14:08:09Z</time>
      </trkpt>
      <trkpt lat="49.00018" lon="2.06685">
        <ele>20.32</ele>
        <time>2016-07-31T14:08:18Z</time>
      </trkpt>
      <trkpt lat="49.00026" lon="2.0669">
        <ele>20.81</ele>
        <time>2016-07-31T14:08:31Z</time>
      </trkpt>
      <trkpt lat="49.00027" lon="2.06692">
        <ele>20.32</ele>
        <time>2016-07-31T14:08:33Z</time>
      </trkpt>
      <trkpt lat="49.00027" lon="2.067">
        <ele>20.32</ele>
        <time>2016-07-31T14:08:37Z</time>
      </trkpt>
      <trkpt lat="49.0001" lon="2.0672">
        <ele>20.81</ele>
        <time>2016-07-31T14:08:56Z</time>
      </trkpt>
      <trkpt lat="48.99988" lon="2.06735">
        <ele>20.32</ele>
        <time>2016-07-31T14:09:17Z</time>
      </trkpt>
      <trkpt lat="48.99975" lon="2.06744">
        <ele>20.32</ele>
        <time>2016-07-31T14:09:32Z</time>
      </trkpt>
      <trkpt lat="48.99971" lon="2.06745">
        <ele>19.84</ele>
        <time>2016-07-31T14:09:41Z</time>
      </trkpt>
      <trkpt lat="48.9996" lon="2.06751">
        <ele>19.84</ele>
        <time>2016-07-31T14:09:55Z</time>
      </trkpt>
      <trkpt lat="48.99956" lon="2.06754">
        <ele>20.32</ele>
        <time>2016-07-31T14:09:59Z</time>
      </trkpt>
      <trkpt lat="48.99935" lon="2.0676">
        <ele>19.84</ele>
        <time>2016-07-31T14:10:17Z</time>
      </trkpt>
      <trkpt lat="48.99918" lon="2.06767">
        <ele>20.32</ele>
        <time>2016-07-31T14:10:32Z</time>
      </trkpt>
      <trkpt lat="48.99898" lon="2.06771">
        <ele>20.32</ele>
        <time>2016-07-31T14:10:50Z</time>
      </trkpt>
      <trkpt lat="48.99885" lon="2.06774">
        <ele>20.32</ele>
        <time>2016-07-31T14:11:04Z</time>
      </trkpt>
      <trkpt lat="48.99884" lon="2.06774">
        <ele>20.32</ele>
        <time>2016-07-31T14:11:05Z</time>
      </trkpt>
      <trkpt lat="48.99871" lon="2.06772">
        <ele>20.32</ele>
        <time>2016-07-31T14:11:22Z</time>
      </trkpt>
      <trkpt lat="48.99859" lon="2.06766">
        <ele>20.32</ele>
        <time>2016-07-31T14:11:37Z</time>
      </trkpt>
      <trkpt lat="48.99853" lon="2.06763">
        <ele>19.84</ele>
        <time>2016-07-31T14:11:44Z</time>
      </trkpt>
      <trkpt lat="48.99838" lon="2.0675">
        <ele>19.84</ele>
        <time>2016-07-31T14:11:59Z</time>
      </trkpt>
      <trkpt lat="48.99822" lon="2.06737">
        <ele>19.84</ele>
        <time>2016-07-31T14:12:16Z</time>
      </trkpt>
      <trkpt lat="48.9981" lon="2.06725">
        <ele>19.84</ele>
        <time>2016-07-31T14:12:29Z</time>
      </trkpt>
      <trkpt lat="48.99794" lon="2.06713">
        <ele>19.36</ele>
        <time>2016-07-31T14:12:43Z</time>
      </trkpt>
      <trkpt lat="48.99774" lon="2.06699">
        <ele>19.36</ele>
        <time>2016-07-31T14:13:00Z</time>
      </trkpt>
      <trkpt lat="48.99755" lon="2.06691">
        <ele>19.36</ele>
        <time>2016-07-31T14:13:17Z</time>
      </trkpt>
      <trkpt lat="48.99742" lon="2.06685">
        <ele>19.36</ele>
        <time>2016-07-31T14:13:34Z</time>
      </trkpt>
      <trkpt lat="48.99731" lon="2.06679">
        <ele>18.88</ele>
        <time>2016-07-31T14:13:46Z</time>
      </trkpt>
      <trkpt lat="48.99719" lon="2.0667">
        <ele>18.88</ele>
        <time>2016-07-31T14:13:59Z</time>
      </trkpt>
      <trkpt lat="48.99712" lon="2.06673">
        <ele>19.36</ele>
        <time>2016-07-31T14:14:06Z</time>
      </trkpt>
      <trkpt lat="48.99709" lon="2.06677">
        <ele>18.88</ele>
        <time>2016-07-31T14:14:10Z</time>
      </trkpt>
      <trkpt lat="48.99703" lon="2.06697">
        <ele>18.88</ele>
        <time>2016-07-31T14:14:24Z</time>
      </trkpt>
      <trkpt lat="48.99699" lon="2.06718">
        <ele>18.88</ele>
        <time>2016-07-31T14:14:38Z</time>
      </trkpt>
      <trkpt lat="48.99695" lon="2.06741">
        <ele>18.88</ele>
        <time>2016-07-31T14:14:51Z</time>
      </trkpt>
      <trkpt lat="48.99692" lon="2.06751">
        <ele>18.88</ele>
        <time>2016-07-31T14:14:57Z</time>
      </trkpt>
      <trkpt lat="48.99691" lon="2.06754">
        <ele>18.88</ele>
        <time>2016-07-31T14:14:59Z</time>
      </trkpt>
      <trkpt lat="48.99688" lon="2.06773">
        <ele>18.88</ele>
        <time>2016-07-31T14:15:14Z</time>
      </trkpt>
      <trkpt lat="48.99683" lon="2.06795">
        <ele>18.88</ele>
        <time>2016-07-31T14:15:29Z</time>
      </trkpt>
      <trkpt lat="48.99682" lon="2.06821">
        <ele>18.4</ele>
        <time>2016-07-31T14:15:47Z</time>
      </trkpt>
      <trkpt lat="48.99674" lon="2.0685">
        <ele>18.88</ele>
        <time>2016-07-31T14:16:02Z</time>
      </trkpt>
      <trkpt lat="48.99674" lon="2.0686">
        <ele>18.4</ele>
        <time>2016-07-31T14:16:08Z</time>
      </trkpt>
      <trkpt lat="48.99673" lon="2.06879">
        <ele>18.4</ele>
        <time>2016-07-31T14:16:17Z</time>
      </trkpt>
      <trkpt lat="48.99669" lon="2.06883">
        <ele>18.4</ele>
        <time>2016-07-31T14:16:21Z</time>
      </trkpt>
      <trkpt lat="48.99667" lon="2.06885">
        <ele>18.88</ele>
        <time>2016-07-31T14:16:23Z</time>
      </trkpt>
      <trkpt lat="48.99665" lon="2.0692">
        <ele>18.4</ele>
        <time>2016-07-31T14:16:42Z</time>
      </trkpt>
      <trkpt lat="48.99661" lon="2.06945">
        <ele>18.4</ele>
        <time>2016-07-31T14:16:57Z</time>
      </trkpt>
      <trkpt lat="48.99659" lon="2.06965">
        <ele>18.4</ele>
        <time>2016-07-31T14:17:09Z</time>
      </trkpt>
      <trkpt lat="48.99657" lon="2.06971">
        <ele>18.4</ele>
        <time>2016-07-31T14:17:12Z</time>
      </trkpt>
      <trkpt lat="48.99656" lon="2.06993">
        <ele>18.4</ele>
        <time>2016-07-31T14:17:26Z</time>
      </trkpt>
      <trkpt lat="48.99656" lon="2.0702">
        <ele>18.4</ele>
        <time>2016-07-31T14:17:42Z</time>
      </trkpt>
      <trkpt lat="48.99653" lon="2.07049">
        <ele>18.4</ele>
        <time>2016-07-31T14:17:58Z</time>
      </trkpt>
      <trkpt lat="48.99648" lon="2.07068">
        <ele>18.4</ele>
        <time>2016-07-31T14:18:11Z</time>
      </trkpt>
      <trkpt lat="48.99638" lon="2.07076">
        <ele>18.4</ele>
        <time>2016-07-31T14:18:19Z</time>
      </trkpt>
      <trkpt lat="48.99625" lon="2.0708">
        <ele>18.4</ele>
        <time>2016-07-31T14:18:34Z</time>
      </trkpt>
      <trkpt lat="48.99611" lon="2.07086">
        <ele>18.4</ele>
        <time>2016-07-31T14:18:48Z</time>
      </trkpt>
      <trkpt lat="48.99594" lon="2.07086">
        <ele>18.4</ele>
        <time>2016-07-31T14:19:03Z</time>
      </trkpt>
      <trkpt lat="48.99577" lon="2.07082">
        <ele>18.4</ele>
        <time>2016-07-31T14:19:18Z</time>
      </trkpt>
      <trkpt lat="48.99562" lon="2.07081">
        <ele>18.4</ele>
        <time>2016-07-31T14:19:32Z</time>
      </trkpt>
      <trkpt lat="48.99553" lon="2.07082">
        <ele>18.4</ele>
        <time>2016-07-31T14:19:41Z</time>
      </trkpt>
      <trkpt lat="48.9954" lon="2.07081">
        <ele>18.4</ele>
        <time>2016-07-31T14:19:56Z</time>
      </trkpt>
      <trkpt lat="48.99526" lon="2.07079">
        <ele>18.4</ele>
        <time>2016-07-31T14:20:10Z</time>
      </trkpt>
      <trkpt lat="48.9951" lon="2.07077">
        <ele>18.4</ele>
        <time>2016-07-31T14:20:26Z</time>
      </trkpt>
      <trkpt lat="48.99492" lon="2.07078">
        <ele>18.4</ele>
        <time>2016-07-31T14:20:42Z</time>
      </trkpt>
      <trkpt lat="48.99478" lon="2.0708">
        <ele>18.88</ele>
        <time>2016-07-31T14:20:57Z</time>
      </trkpt>
      <trkpt lat="48.9946" lon="2.07078">
        <ele>18.88</ele>
        <time>2016-07-31T14:21:14Z</time>
      </trkpt>
      <trkpt lat="48.99454" lon="2.07081">
        <ele>18.88</ele>
        <time>2016-07-31T14:21:28Z</time>
      </trkpt>
      <trkpt lat="48.99445" lon="2.07081">
        <ele>18.4</ele>
        <time>2016-07-31T14:21:50Z</time>
      </trkpt>
      <trkpt lat="48.99431" lon="2.07079">
        <ele>18.4</ele>
        <time>2016-07-31T14:22:04Z</time>
      </trkpt>
      <trkpt lat="48.99422" lon="2.07081">
        <ele>18.88</ele>
        <time>2016-07-31T14:22:13Z</time>
      </trkpt>
      <trkpt lat="48.99408" lon="2.07082">
        <ele>18.4</ele>
        <time>2016-07-31T14:22:27Z</time>
      </trkpt>
      <trkpt lat="48.9939" lon="2.07087">
        <ele>17.92</ele>
        <time>2016-07-31T14:22:43Z</time>
      </trkpt>
      <trkpt lat="48.99372" lon="2.07093">
        <ele>17.92</ele>
        <time>2016-07-31T14:22:59Z</time>
      </trkpt>
      <trkpt lat="48.99358" lon="2.07101">
        <ele>18.4</ele>
        <time>2016-07-31T14:23:13Z</time>
      </trkpt>
      <trkpt lat="48.99343" lon="2.07108">
        <ele>17.92</ele>
        <time>2016-07-31T14:23:27Z</time>
      </trkpt>
      <trkpt lat="48.99341" lon="2.07109">
        <ele>17.92</ele>
        <time>2016-07-31T14:23:29Z</time>
      </trkpt>
      <trkpt lat="48.99329" lon="2.07121">
        <ele>17.92</ele>
        <time>2016-07-31T14:23:44Z</time>
      </trkpt>
      <trkpt lat="48.99321" lon="2.07125">
        <ele>18.4</ele>
        <time>2016-07-31T14:23:54Z</time>
      </trkpt>
      <trkpt lat="48.99304" lon="2.07137">
        <ele>17.92</ele>
        <time>2016-07-31T14:24:09Z</time>
      </trkpt>
      <trkpt lat="48.99286" lon="2.07148">
        <ele>18.4</ele>
        <time>2016-07-31T14:24:25Z</time>
      </trkpt>
      <trkpt lat="48.9927" lon="2.07153">
        <ele>17.92</ele>
        <time>2016-07-31T14:24:42Z</time>
      </trkpt>
      <trkpt lat="48.99252" lon="2.07155">
        <ele>18.4</ele>
        <time>2016-07-31T14:24:58Z</time>
      </trkpt>
      <trkpt lat="48.99233" lon="2.07157">
        <ele>18.4</ele>
        <time>2016-07-31T14:25:15Z</time>
      </trkpt>
      <trkpt lat="48.9921" lon="2.07161">
        <ele>17.92</ele>
        <time>2016-07-31T14:25:34Z</time>
      </trkpt>
      <trkpt lat="48.99195" lon="2.07164">
        <ele>18.4</ele>
        <time>2016-07-31T14:25:49Z</time>
      </trkpt>
      <trkpt lat="48.99182" lon="2.07165">
        <ele>18.4</ele>
        <time>2016-07-31T14:26:01Z</time>
      </trkpt>
      <trkpt lat="48.99165" lon="2.07165">
        <ele>18.4</ele>
        <time>2016-07-31T14:26:14Z</time>
      </trkpt>
      <trkpt lat="48.99159" lon="2.07165">
        <ele>18.4</ele>
        <time>2016-07-31T14:26:19Z</time>
      </trkpt>
      <trkpt lat="48.99144" lon="2.07165">
        <ele>18.4</ele>
        <time>2016-07-31T14:26:34Z</time>
      </trkpt>
      <trkpt lat="48.99135" lon="2.07165">
        <ele>18.4</ele>
        <time>2016-07-31T14:26:42Z</time>
      </trkpt>
      <trkpt lat="48.99117" lon="2.07163">
        <ele>18.4</ele>
        <time>2016-07-31T14:26:59Z</time>
      </trkpt>
      <trkpt lat="48.99101" lon="2.0716">
        <ele>17.92</ele>
        <time>2016-07-31T14:27:14Z</time>
      </trkpt>
      <trkpt lat="48.99097" lon="2.07155">
        <ele>18.4</ele>
        <time>2016-07-31T14:27:19Z</time>
      </trkpt>
      <trkpt lat="48.99079" lon="2.0715">
        <ele>17.92</ele>
        <time>2016-07-31T14:27:35Z</time>
      </trkpt>
      <trkpt lat="48.99064" lon="2.07147">
        <ele>18.4</ele>
        <time>2016-07-31T14:27:50Z</time>
      </trkpt>
      <trkpt lat="48.99045" lon="2.07144">
        <ele>18.4</ele>
        <time>2016-07-31T14:28:08Z</time>
      </trkpt>
      <trkpt lat="48.99025" lon="2.0714">
        <ele>18.4</ele>
        <time>2016-07-31T14:28:25Z</time>
      </trkpt>
      <trkpt lat="48.99003" lon="2.07135">
        <ele>18.4</ele>
        <time>2016-07-31T14:28:44Z</time>
      </trkpt>
      <trkpt lat="48.98987" lon="2.07129">
        <ele>18.4</ele>
        <time>2016-07-31T14:29:00Z</time>
      </trkpt>
      <trkpt lat="48.98969" lon="2.07124">
        <ele>18.88</ele>
        <time>2016-07-31T14:29:17Z</time>
      </trkpt>
      <trkpt lat="48.98951" lon="2.07116">
        <ele>18.4</ele>
        <time>2016-07-31T14:29:32Z</time>
      </trkpt>
      <trkpt lat="48.98951" lon="2.07115">
        <ele>18.88</ele>
        <time>2016-07-31T14:29:45Z</time>
      </trkpt>
      <trkpt lat="48.9895" lon="2.07121">
        <ele>18.88</ele>
        <time>2016-07-31T14:30:04Z</time>
      </trkpt>
      <trkpt lat="48.98949" lon="2.07124">
        <ele>18.88</ele>
        <time>2016-07-31T14:30:23Z</time>
      </trkpt>
      <trkpt lat="48.98947" lon="2.07133">
        <ele>18.88</ele>
        <time>2016-07-31T14:30:36Z</time>
      </trkpt>
      <trkpt lat="48.98949" lon="2.07133">
        <ele>18.4</ele>
        <time>2016-07-31T14:31:00Z</time>
      </trkpt>
      <trkpt lat="48.98949" lon="2.07132">
        <ele>18.88</ele>
        <time>2016-07-31T14:31:27Z</time>
      </trkpt>
      <trkpt lat="48.98947" lon="2.07131">
        <ele>18.4</ele>
        <time>2016-07-31T14:31:48Z</time>
      </trkpt>
      <trkpt lat="48.98945" lon="2.0713">
        <ele>18.88</ele>
        <time>2016-07-31T14:32:12Z</time>
      </trkpt>
      <trkpt lat="48.98947" lon="2.07131">
        <ele>19.36</ele>
        <time>2016-07-31T14:32:31Z</time>
      </trkpt>
      <trkpt lat="48.9895" lon="2.07132">
        <ele>19.36</ele>
        <time>2016-07-31T14:32:58Z</time>
      </trkpt>
      <trkpt lat="48.9895" lon="2.07133">
        <ele>19.36</ele>
        <time>2016-07-31T14:33:25Z</time>
      </trkpt>
      <trkpt lat="48.98951" lon="2.07132">
        <ele>19.36</ele>
        <time>2016-07-31T14:33:53Z</time>
      </trkpt>
      <trkpt lat="48.98952" lon="2.07125">
        <ele>19.36</ele>
        <time>2016-07-31T14:34:20Z</time>
      </trkpt>
      <trkpt lat="48.98951" lon="2.07117">
        <ele>19.84</ele>
        <time>2016-07-31T14:34:27Z</time>
      </trkpt>
      <trkpt lat="48.98953" lon="2.07096">
        <ele>19.84</ele>
        <time>2016-07-31T14:34:39Z</time>
      </trkpt>
      <trkpt lat="48.98955" lon="2.07084">
        <ele>19.36</ele>
        <time>2016-07-31T14:34:49Z</time>
      </trkpt>
      <trkpt lat="48.98961" lon="2.07062">
        <ele>19.84</ele>
        <time>2016-07-31T14:35:06Z</time>
      </trkpt>
      <trkpt lat="48.98963" lon="2.07057">
        <ele>19.84</ele>
        <time>2016-07-31T14:35:13Z</time>
      </trkpt>
      <trkpt lat="48.98964" lon="2.07051">
        <ele>19.84</ele>
        <time>2016-07-31T14:35:17Z</time>
      </trkpt>
      <trkpt lat="48.98974" lon="2.07016">
        <ele>19.84</ele>
        <time>2016-07-31T14:35:38Z</time>
      </trkpt>
      <trkpt lat="48.98982" lon="2.06981">
        <ele>20.32</ele>
        <time>2016-07-31T14:35:58Z</time>
      </trkpt>
      <trkpt lat="48.98979" lon="2.06968">
        <ele>21.77</ele>
        <time>2016-07-31T14:36:14Z</time>
      </trkpt>
      <trkpt lat="48.98976" lon="2.06967">
        <ele>22.25</ele>
        <time>2016-07-31T14:36:20Z</time>
      </trkpt>
      <trkpt lat="48.98968" lon="2.06968">
        <ele>22.25</ele>
        <time>2016-07-31T14:36:32Z</time>
      </trkpt>
      <trkpt lat="48.98965" lon="2.06976">
        <ele>22.25</ele>
        <time>2016-07-31T14:36:36Z</time>
      </trkpt>
      <trkpt lat="48.98958" lon="2.06998">
        <ele>23.21</ele>
        <time>2016-07-31T14:36:49Z</time>
      </trkpt>
      <trkpt lat="48.98955" lon="2.07011">
        <ele>24.17</ele>
        <time>2016-07-31T14:37:05Z</time>
      </trkpt>
      <trkpt lat="48.98942" lon="2.07043">
        <ele>25.13</ele>
        <time>2016-07-31T14:37:26Z</time>
      </trkpt>
      <trkpt lat="48.98932" lon="2.07074">
        <ele>25.61</ele>
        <time>2016-07-31T14:37:45Z</time>
      </trkpt>
      <trkpt lat="48.98925" lon="2.07101">
        <ele>26.57</ele>
        <time>2016-07-31T14:38:02Z</time>
      </trkpt>
      <trkpt lat="48.98922" lon="2.07113">
        <ele>27.53</ele>
        <time>2016-07-31T14:38:16Z</time>
      </trkpt>
      <trkpt lat="48.98909" lon="2.07141">
        <ele>28.5</ele>
        <time>2016-07-31T14:38:34Z</time>
      </trkpt>
      <trkpt lat="48.98903" lon="2.0716">
        <ele>28.98</ele>
        <time>2016-07-31T14:38:50Z</time>
      </trkpt>
      <trkpt lat="48.98895" lon="2.07182">
        <ele>28.98</ele>
        <time>2016-07-31T14:39:05Z</time>
      </trkpt>
      <trkpt lat="48.98884" lon="2.07211">
        <ele>28.98</ele>
        <time>2016-07-31T14:39:24Z</time>
      </trkpt>
      <trkpt lat="48.98875" lon="2.07236">
        <ele>28.5</ele>
        <time>2016-07-31T14:39:41Z</time>
      </trkpt>
      <trkpt lat="48.98865" lon="2.07264">
        <ele>27.53</ele>
        <time>2016-07-31T14:39:59Z</time>
      </trkpt>
      <trkpt lat="48.98862" lon="2.07272">
        <ele>27.05</ele>
        <time>2016-07-31T14:40:04Z</time>
      </trkpt>
      <trkpt lat="48.98859" lon="2.07274">
        <ele>27.05</ele>
        <time>2016-07-31T14:40:07Z</time>
      </trkpt>
      <trkpt lat="48.98853" lon="2.07294">
        <ele>26.57</ele>
        <time>2016-07-31T14:40:19Z</time>
      </trkpt>
      <trkpt lat="48.9885" lon="2.07302">
        <ele>26.09</ele>
        <time>2016-07-31T14:40:32Z</time>
      </trkpt>
      <trkpt lat="48.98846" lon="2.07314">
        <ele>25.61</ele>
        <time>2016-07-31T14:40:43Z</time>
      </trkpt>
      <trkpt lat="48.98838" lon="2.07337">
        <ele>24.65</ele>
        <time>2016-07-31T14:40:59Z</time>
      </trkpt>
      <trkpt lat="48.98824" lon="2.07363">
        <ele>23.21</ele>
        <time>2016-07-31T14:41:17Z</time>
      </trkpt>
      <trkpt lat="48.98814" lon="2.07383">
        <ele>22.25</ele>
        <time>2016-07-31T14:41:33Z</time>
      </trkpt>
      <trkpt lat="48.98809" lon="2.07397">
        <ele>21.77</ele>
        <time>2016-07-31T14:41:43Z</time>
      </trkpt>
      <trkpt lat="48.98791" lon="2.07411">
        <ele>21.77</ele>
        <time>2016-07-31T14:41:58Z</time>
      </trkpt>
      <trkpt lat="48.98775" lon="2.07416">
        <ele>21.77</ele>
        <time>2016-07-31T14:42:12Z</time>
      </trkpt>
      <trkpt lat="48.98773" lon="2.07426">
        <ele>21.29</ele>
        <time>2016-07-31T14:42:18Z</time>
      </trkpt>
      <trkpt lat="48.98776" lon="2.07455">
        <ele>21.29</ele>
        <time>2016-07-31T14:42:33Z</time>
      </trkpt>
      <trkpt lat="48.98776" lon="2.07459">
        <ele>20.81</ele>
        <time>2016-07-31T14:42:35Z</time>
      </trkpt>
      <trkpt lat="48.98779" lon="2.07477">
        <ele>19.84</ele>
        <time>2016-07-31T14:42:48Z</time>
      </trkpt>
      <trkpt lat="48.98784" lon="2.07501">
        <ele>19.36</ele>
        <time>2016-07-31T14:43:04Z</time>
      </trkpt>
      <trkpt lat="48.9879" lon="2.07512">
        <ele>19.36</ele>
        <time>2016-07-31T14:43:11Z</time>
      </trkpt>
      <trkpt lat="48.98792" lon="2.07545">
        <ele>19.36</ele>
        <time>2016-07-31T14:43:29Z</time>
      </trkpt>
      <trkpt lat="48.98797" lon="2.07574">
        <ele>19.36</ele>
        <time>2016-07-31T14:43:45Z</time>
      </trkpt>
      <trkpt lat="48.98803" lon="2.07607">
        <ele>19.36</ele>
        <time>2016-07-31T14:44:05Z</time>
      </trkpt>
      <trkpt lat="48.98808" lon="2.07624">
        <ele>19.36</ele>
        <time>2016-07-31T14:44:18Z</time>
      </trkpt>
      <trkpt lat="48.98813" lon="2.07646">
        <ele>19.36</ele>
        <time>2016-07-31T14:44:35Z</time>
      </trkpt>
      <trkpt lat="48.98815" lon="2.07654">
        <ele>19.36</ele>
        <time>2016-07-31T14:44:56Z</time>
      </trkpt>
      <trkpt lat="48.98818" lon="2.07673">
        <ele>19.36</ele>
        <time>2016-07-31T14:45:13Z</time>
      </trkpt>
      <trkpt lat="48.98825" lon="2.07703">
        <ele>19.36</ele>
        <time>2016-07-31T14:45:29Z</time>
      </trkpt>
      <trkpt lat="48.98827" lon="2.07711">
        <ele>19.36</ele>
        <time>2016-07-31T14:45:34Z</time>
      </trkpt>
      <trkpt lat="48.98833" lon="2.07742">
        <ele>19.84</ele>
        <time>2016-07-31T14:45:52Z</time>
      </trkpt>
      <trkpt lat="48.9884" lon="2.07767">
        <ele>19.36</ele>
        <time>2016-07-31T14:46:08Z</time>
      </trkpt>
      <trkpt lat="48.98847" lon="2.07789">
        <ele>19.36</ele>
        <time>2016-07-31T14:46:24Z</time>
      </trkpt>
      <trkpt lat="48.98853" lon="2.07817">
        <ele>19.36</ele>
        <time>2016-07-31T14:46:40Z</time>
      </trkpt>
      <trkpt lat="48.98861" lon="2.07843">
        <ele>19.36</ele>
        <time>2016-07-31T14:46:56Z</time>
      </trkpt>
      <trkpt lat="48.98866" lon="2.0787">
        <ele>19.36</ele>
        <time>2016-07-31T14:47:11Z</time>
      </trkpt>
      <trkpt lat="48.9887" lon="2.07887">
        <ele>19.36</ele>
        <time>2016-07-31T14:47:24Z</time>
      </trkpt>
      <trkpt lat="48.98877" lon="2.07914">
        <ele>19.84</ele>
        <time>2016-07-31T14:47:40Z</time>
      </trkpt>
      <trkpt lat="48.98881" lon="2.07934">
        <ele>19.36</ele>
        <time>2016-07-31T14:47:51Z</time>
      </trkpt>
      <trkpt lat="48.98888" lon="2.07957">
        <ele>19.36</ele>
        <time>2016-07-31T14:48:06Z</time>
      </trkpt>
      <trkpt lat="48.98894" lon="2.07981">
        <ele>19.36</ele>
        <time>2016-07-31T14:48:22Z</time>
      </trkpt>
      <trkpt lat="48.98896" lon="2.0799">
        <ele>19.36</ele>
        <time>2016-07-31T14:48:28Z</time>
      </trkpt>
      <trkpt lat="48.98899" lon="2.08">
        <ele>19.36</ele>
        <time>2016-07-31T14:48:34Z</time>
      </trkpt>
      <trkpt lat="48.98904" lon="2.08028">
        <ele>19.36</ele>
        <time>2016-07-31T14:48:51Z</time>
      </trkpt>
      <trkpt lat="48.9891" lon="2.08054">
        <ele>19.36</ele>
        <time>2016-07-31T14:49:07Z</time>
      </trkpt>
      <trkpt lat="48.98915" lon="2.08075">
        <ele>19.36</ele>
        <time>2016-07-31T14:49:20Z</time>
      </trkpt>
      <trkpt lat="48.98918" lon="2.08092">
        <ele>19.36</ele>
        <time>2016-07-31T14:49:30Z</time>
      </trkpt>
      <trkpt lat="48.98923" lon="2.08108">
        <ele>19.36</ele>
        <time>2016-07-31T14:49:46Z</time>
      </trkpt>
      <trkpt lat="48.98927" lon="2.08121">
        <ele>19.36</ele>
        <time>2016-07-31T14:49:59Z</time>
      </trkpt>
      <trkpt lat="48.98931" lon="2.08143">
        <ele>18.88</ele>
        <time>2016-07-31T14:50:15Z</time>
      </trkpt>
      <trkpt lat="48.98938" lon="2.08174">
        <ele>18.88</ele>
        <time>2016-07-31T14:50:32Z</time>
      </trkpt>
      <trkpt lat="48.98945" lon="2.08196">
        <ele>19.36</ele>
        <time>2016-07-31T14:50:47Z</time>
      </trkpt>
      <trkpt lat="48.9895" lon="2.08216">
        <ele>18.88</ele>
        <time>2016-07-31T14:51:02Z</time>
      </trkpt>
      <trkpt lat="48.98952" lon="2.08236">
        <ele>19.36</ele>
        <time>2016-07-31T14:51:19Z</time>
      </trkpt>
      <trkpt lat="48.98955" lon="2.08253">
        <ele>18.88</ele>
        <time>2016-07-31T14:51:38Z</time>
      </trkpt>
      <trkpt lat="48.9896" lon="2.08269">
        <ele>18.88</ele>
        <time>2016-07-31T14:51:51Z</time>
      </trkpt>
      <trkpt lat="48.98958" lon="2.08292">
        <ele>18.4</ele>
        <time>2016-07-31T14:52:06Z</time>
      </trkpt>
      <trkpt lat="48.98963" lon="2.08302">
        <ele>18.88</ele>
        <time>2016-07-31T14:52:13Z</time>
      </trkpt>
      <trkpt lat="48.98964" lon="2.08304">
        <ele>18.4</ele>
        <time>2016-07-31T14:52:15Z</time>
      </trkpt>
      <trkpt lat="48.98965" lon="2.08307">
        <ele>18.4</ele>
        <time>2016-07-31T14:52:17Z</time>
      </trkpt>
      <trkpt lat="48.98968" lon="2.08342">
        <ele>18.4</ele>
        <time>2016-07-31T14:52:34Z</time>
      </trkpt>
      <trkpt lat="48.98969" lon="2.08349">
        <ele>18.4</ele>
        <time>2016-07-31T14:52:39Z</time>
      </trkpt>
      <trkpt lat="48.98973" lon="2.08375">
        <ele>18.88</ele>
        <time>2016-07-31T14:52:55Z</time>
      </trkpt>
      <trkpt lat="48.98976" lon="2.08401">
        <ele>18.4</ele>
        <time>2016-07-31T14:53:08Z</time>
      </trkpt>
      <trkpt lat="48.98981" lon="2.08427">
        <ele>18.4</ele>
        <time>2016-07-31T14:53:24Z</time>
      </trkpt>
      <trkpt lat="48.98987" lon="2.08458">
        <ele>18.88</ele>
        <time>2016-07-31T14:53:42Z</time>
      </trkpt>
      <trkpt lat="48.98991" lon="2.08478">
        <ele>18.4</ele>
        <time>2016-07-31T14:53:54Z</time>
      </trkpt>
      <trkpt lat="48.98995" lon="2.08496">
        <ele>18.88</ele>
        <time>2016-07-31T14:54:07Z</time>
      </trkpt>
      <trkpt lat="48.98994" lon="2.08516">
        <ele>18.88</ele>
        <time>2016-07-31T14:54:17Z</time>
      </trkpt>
      <trkpt lat="48.98998" lon="2.08524">
        <ele>18.88</ele>
        <time>2016-07-31T14:54:32Z</time>
      </trkpt>
      <trkpt lat="48.99006" lon="2.08549">
        <ele>18.4</ele>
        <time>2016-07-31T14:54:46Z</time>
      </trkpt>
      <trkpt lat="48.9901" lon="2.08563">
        <ele>18.88</ele>
        <time>2016-07-31T14:54:59Z</time>
      </trkpt>
      <trkpt lat="48.99017" lon="2.08581">
        <ele>18.88</ele>
        <time>2016-07-31T14:55:13Z</time>
      </trkpt>
      <trkpt lat="48.99018" lon="2.08589">
        <ele>18.88</ele>
        <time>2016-07-31T14:55:19Z</time>
      </trkpt>
      <trkpt lat="48.99023" lon="2.08609">
        <ele>18.88</ele>
        <time>2016-07-31T14:55:33Z</time>
      </trkpt>
      <trkpt lat="48.99031" lon="2.08628">
        <ele>18.88</ele>
        <time>2016-07-31T14:55:48Z</time>
      </trkpt>
      <trkpt lat="48.9904" lon="2.08663">
        <ele>18.88</ele>
        <time>2016-07-31T14:56:08Z</time>
      </trkpt>
      <trkpt lat="48.99041" lon="2.08675">
        <ele>18.88</ele>
        <time>2016-07-31T14:56:15Z</time>
      </trkpt>
      <trkpt lat="48.99047" lon="2.08707">
        <ele>18.88</ele>
        <time>2016-07-31T14:56:32Z</time>
      </trkpt>
      <trkpt lat="48.99053" lon="2.08731">
        <ele>18.88</ele>
        <time>2016-07-31T14:56:47Z</time>
      </trkpt>
      <trkpt lat="48.9906" lon="2.08756">
        <ele>18.88</ele>
        <time>2016-07-31T14:57:03Z</time>
      </trkpt>
      <trkpt lat="48.99068" lon="2.08782">
        <ele>18.4</ele>
        <time>2016-07-31T14:57:20Z</time>
      </trkpt>
      <trkpt lat="48.99078" lon="2.08805">
        <ele>18.88</ele>
        <time>2016-07-31T14:57:38Z</time>
      </trkpt>
      <trkpt lat="48.99085" lon="2.08833">
        <ele>18.88</ele>
        <time>2016-07-31T14:57:53Z</time>
      </trkpt>
      <trkpt lat="48.99091" lon="2.08859">
        <ele>18.88</ele>
        <time>2016-07-31T14:58:08Z</time>
      </trkpt>
      <trkpt lat="48.99098" lon="2.08882">
        <ele>18.88</ele>
        <time>2016-07-31T14:58:23Z</time>
      </trkpt>
      <trkpt lat="48.99102" lon="2.089">
        <ele>18.88</ele>
        <time>2016-07-31T14:58:36Z</time>
      </trkpt>
      <trkpt lat="48.99104" lon="2.08924">
        <ele>18.4</ele>
        <time>2016-07-31T14:58:49Z</time>
      </trkpt>
      <trkpt lat="48.99105" lon="2.08951">
        <ele>18.88</ele>
        <time>2016-07-31T14:59:03Z</time>
      </trkpt>
      <trkpt lat="48.99106" lon="2.08972">
        <ele>18.88</ele>
        <time>2016-07-31T14:59:16Z</time>
      </trkpt>
      <trkpt lat="48.99109" lon="2.09001">
        <ele>18.88</ele>
        <time>2016-07-31T14:59:31Z</time>
      </trkpt>
      <trkpt lat="48.9911" lon="2.0903">
        <ele>19.36</ele>
        <time>2016-07-31T14:59:46Z</time>
      </trkpt>
      <trkpt lat="48.9911" lon="2.09038">
        <ele>19.36</ele>
        <time>2016-07-31T14:59:51Z</time>
      </trkpt>
      <trkpt lat="48.99112" lon="2.09045">
        <ele>18.88</ele>
        <time>2016-07-31T14:59:55Z</time>
      </trkpt>
      <trkpt lat="48.99113" lon="2.09053">
        <ele>19.36</ele>
        <time>2016-07-31T15:00:00Z</time>
      </trkpt>
      <trkpt lat="48.99118" lon="2.09066">
        <ele>19.84</ele>
        <time>2016-07-31T15:00:13Z</time>
      </trkpt>
      <trkpt lat="48.9912" lon="2.0907">
        <ele>20.32</ele>
        <time>2016-07-31T15:00:23Z</time>
      </trkpt>
      <trkpt lat="48.99125" lon="2.09072">
        <ele>19.84</ele>
        <time>2016-07-31T15:00:28Z</time>
      </trkpt>
      <trkpt lat="48.99133" lon="2.09071">
        <ele>20.32</ele>
        <time>2016-07-31T15:00:35Z</time>
      </trkpt>
      <trkpt lat="48.99137" lon="2.09093">
        <ele>20.81</ele>
        <time>2016-07-31T15:00:53Z</time>
      </trkpt>
      <trkpt lat="48.99148" lon="2.09092">
        <ele>20.81</ele>
        <time>2016-07-31T15:01:08Z</time>
      </trkpt>
      <trkpt lat="48.99153" lon="2.09095">
        <ele>20.81</ele>
        <time>2016-07-31T15:01:12Z</time>
      </trkpt>
      <trkpt lat="48.99163" lon="2.09108">
        <ele>21.29</ele>
        <time>2016-07-31T15:01:25Z</time>
      </trkpt>
      <trkpt lat="48.99171" lon="2.09129">
        <ele>22.25</ele>
        <time>2016-07-31T15:01:41Z</time>
      </trkpt>
      <trkpt lat="48.99175" lon="2.0914">
        <ele>22.73</ele>
        <time>2016-07-31T15:01:49Z</time>
      </trkpt>
      <trkpt lat="48.99178" lon="2.09151">
        <ele>22.73</ele>
        <time>2016-07-31T15:01:56Z</time>
      </trkpt>
      <trkpt lat="48.99184" lon="2.09168">
        <ele>24.17</ele>
        <time>2016-07-31T15:02:12Z</time>
      </trkpt>
      <trkpt lat="48.99188" lon="2.09184">
        <ele>24.65</ele>
        <time>2016-07-31T15:02:25Z</time>
      </trkpt>
      <trkpt lat="48.99199" lon="2.0922">
        <ele>25.61</ele>
        <time>2016-07-31T15:03:17Z</time>
      </trkpt>
      <trkpt lat="48.99205" lon="2.09216">
        <ele>27.53</ele>
        <time>2016-07-31T15:03:22Z</time>
      </trkpt>
      <trkpt lat="48.99214" lon="2.09239">
        <ele>26.57</ele>
        <time>2016-07-31T15:03:40Z</time>
      </trkpt>
      <trkpt lat="48.99221" lon="2.09261">
        <ele>28.02</ele>
        <time>2016-07-31T15:03:55Z</time>
      </trkpt>
      <trkpt lat="48.99225" lon="2.09283">
        <ele>28.98</ele>
        <time>2016-07-31T15:04:11Z</time>
      </trkpt>
      <trkpt lat="48.99229" lon="2.09313">
        <ele>29.46</ele>
        <time>2016-07-31T15:04:28Z</time>
      </trkpt>
      <trkpt lat="48.99234" lon="2.09346">
        <ele>29.94</ele>
        <time>2016-07-31T15:04:47Z</time>
      </trkpt>
      <trkpt lat="48.99239" lon="2.09361">
        <ele>30.42</ele>
        <time>2016-07-31T15:04:57Z</time>
      </trkpt>
      <trkpt lat="48.9925" lon="2.09373">
        <ele>31.38</ele>
        <time>2016-07-31T15:05:11Z</time>
      </trkpt>
      <trkpt lat="48.9925" lon="2.09386">
        <ele>31.86</ele>
        <time>2016-07-31T15:05:25Z</time>
      </trkpt>
      <trkpt lat="48.9926" lon="2.09402">
        <ele>30.9</ele>
        <time>2016-07-31T15:05:43Z</time>
      </trkpt>
      <trkpt lat="48.99264" lon="2.09408">
        <ele>30.42</ele>
        <time>2016-07-31T15:05:48Z</time>
      </trkpt>
      <trkpt lat="48.99272" lon="2.09422">
        <ele>29.94</ele>
        <time>2016-07-31T15:06:07Z</time>
      </trkpt>
      <trkpt lat="48.99277" lon="2.09419">
        <ele>29.46</ele>
        <time>2016-07-31T15:06:24Z</time>
      </trkpt>
      <trkpt lat="48.99282" lon="2.09435">
        <ele>28.5</ele>
        <time>2016-07-31T15:06:38Z</time>
      </trkpt>
      <trkpt lat="48.99297" lon="2.09461">
        <ele>28.02</ele>
        <time>2016-07-31T15:06:58Z</time>
      </trkpt>
      <trkpt lat="48.99313" lon="2.09478">
        <ele>27.05</ele>
        <time>2016-07-31T15:07:17Z</time>
      </trkpt>
      <trkpt lat="48.99325" lon="2.09493">
        <ele>25.61</ele>
        <time>2016-07-31T15:07:36Z</time>
      </trkpt>
      <trkpt lat="48.99344" lon="2.09505">
        <ele>25.61</ele>
        <time>2016-07-31T15:07:52Z</time>
      </trkpt>
      <trkpt lat="48.99356" lon="2.09517">
        <ele>25.13</ele>
        <time>2016-07-31T15:08:06Z</time>
      </trkpt>
      <trkpt lat="48.99374" lon="2.09539">
        <ele>24.65</ele>
        <time>2016-07-31T15:08:24Z</time>
      </trkpt>
      <trkpt lat="48.9939" lon="2.09558">
        <ele>24.17</ele>
        <time>2016-07-31T15:08:42Z</time>
      </trkpt>
      <trkpt lat="48.99393" lon="2.09555">
        <ele>24.17</ele>
        <time>2016-07-31T15:08:48Z</time>
      </trkpt>
      <trkpt lat="48.99398" lon="2.09551">
        <ele>24.17</ele>
        <time>2016-07-31T15:08:54Z</time>
      </trkpt>
      <trkpt lat="48.99407" lon="2.09564">
        <ele>24.17</ele>
        <time>2016-07-31T15:09:06Z</time>
      </trkpt>
      <trkpt lat="48.99418" lon="2.09582">
        <ele>24.17</ele>
        <time>2016-07-31T15:09:21Z</time>
      </trkpt>
      <trkpt lat="48.99432" lon="2.09591">
        <ele>24.17</ele>
        <time>2016-07-31T15:09:36Z</time>
      </trkpt>
      <trkpt lat="48.99435" lon="2.09592">
        <ele>24.65</ele>
        <time>2016-07-31T15:09:39Z</time>
      </trkpt>
      <trkpt lat="48.99441" lon="2.09589">
        <ele>24.65</ele>
        <time>2016-07-31T15:09:52Z</time>
      </trkpt>
      <trkpt lat="48.99447" lon="2.09589">
        <ele>25.13</ele>
        <time>2016-07-31T15:10:00Z</time>
      </trkpt>
      <trkpt lat="48.9945" lon="2.09592">
        <ele>25.13</ele>
        <time>2016-07-31T15:10:04Z</time>
      </trkpt>
      <trkpt lat="48.9946" lon="2.09588">
        <ele>25.61</ele>
        <time>2016-07-31T15:10:13Z</time>
      </trkpt>
      <trkpt lat="48.99468" lon="2.09577">
        <ele>26.09</ele>
        <time>2016-07-31T15:10:25Z</time>
      </trkpt>
      <trkpt lat="48.99474" lon="2.09568">
        <ele>26.57</ele>
        <time>2016-07-31T15:10:34Z</time>
      </trkpt>
      <trkpt lat="48.99489" lon="2.09553">
        <ele>27.05</ele>
        <time>2016-07-31T15:10:50Z</time>
      </trkpt>
      <trkpt lat="48.99501" lon="2.09541">
        <ele>28.02</ele>
        <time>2016-07-31T15:11:04Z</time>
      </trkpt>
      <trkpt lat="48.99512" lon="2.09525">
        <ele>28.5</ele>
        <time>2016-07-31T15:11:18Z</time>
      </trkpt>
      <trkpt lat="48.99522" lon="2.09517">
        <ele>29.46</ele>
        <time>2016-07-31T15:11:31Z</time>
      </trkpt>
      <trkpt lat="48.99527" lon="2.09517">
        <ele>29.94</ele>
        <time>2016-07-31T15:11:44Z</time>
      </trkpt>
      <trkpt lat="48.99533" lon="2.09507">
        <ele>29.94</ele>
        <time>2016-07-31T15:11:54Z</time>
      </trkpt>
      <trkpt lat="48.9954" lon="2.09504">
        <ele>30.42</ele>
        <time>2016-07-31T15:12:05Z</time>
      </trkpt>
      <trkpt lat="48.99546" lon="2.09535">
        <ele>32.34</ele>
        <time>2016-07-31T15:12:22Z</time>
      </trkpt>
      <trkpt lat="48.99546" lon="2.0954">
        <ele>32.82</ele>
        <time>2016-07-31T15:12:26Z</time>
      </trkpt>
      <trkpt lat="48.99559" lon="2.09566">
        <ele>33.3</ele>
        <time>2016-07-31T15:12:45Z</time>
      </trkpt>
      <trkpt lat="48.99581" lon="2.09583">
        <ele>34.74</ele>
        <time>2016-07-31T15:13:01Z</time>
      </trkpt>
      <trkpt lat="48.99586" lon="2.09615">
        <ele>35.71</ele>
        <time>2016-07-31T15:13:21Z</time>
      </trkpt>
      <trkpt lat="48.99595" lon="2.09646">
        <ele>37.63</ele>
        <time>2016-07-31T15:13:40Z</time>
      </trkpt>
      <trkpt lat="48.99598" lon="2.09654">
        <ele>37.63</ele>
        <time>2016-07-31T15:13:47Z</time>
      </trkpt>
      <trkpt lat="48.99597" lon="2.09672">
        <ele>38.59</ele>
        <time>2016-07-31T15:13:59Z</time>
      </trkpt>
      <trkpt lat="48.99602" lon="2.097">
        <ele>39.07</ele>
        <time>2016-07-31T15:14:16Z</time>
      </trkpt>
      <trkpt lat="48.99607" lon="2.09726">
        <ele>40.51</ele>
        <time>2016-07-31T15:14:32Z</time>
      </trkpt>
      <trkpt lat="48.99613" lon="2.09746">
        <ele>40.99</ele>
        <time>2016-07-31T15:14:44Z</time>
      </trkpt>
      <trkpt lat="48.99622" lon="2.09772">
        <ele>40.99</ele>
        <time>2016-07-31T15:14:59Z</time>
      </trkpt>
      <trkpt lat="48.99628" lon="2.09783">
        <ele>41.47</ele>
        <time>2016-07-31T15:15:14Z</time>
      </trkpt>
      <trkpt lat="48.99631" lon="2.09787">
        <ele>40.99</ele>
        <time>2016-07-31T15:15:29Z</time>
      </trkpt>
      <trkpt lat="48.99631" lon="2.09787">
        <ele>40.99</ele>
        <time>2016-07-31T15:15:40Z</time>
      </trkpt>
      <trkpt lat="48.99636" lon="2.09783">
        <ele>40.99</ele>
        <time>2016-07-31T15:15:53Z</time>
      </trkpt>
      <trkpt lat="48.9964" lon="2.09786">
        <ele>40.99</ele>
        <time>2016-07-31T15:15:59Z</time>
      </trkpt>
      <trkpt lat="48.99646" lon="2.09794">
        <ele>40.99</ele>
        <time>2016-07-31T15:16:14Z</time>
      </trkpt>
    </trkseg>
  </trk>
</gpx>